
Distance (Route):
Temperature : -4.5°C
Humidity : 76.0%
Pressure : 540.8hPa| Receiver | Frames | First received | Last received |
|---|---|---|---|
| PU1XMG-16 | 1148 | 2026-08-31 11:33:06 | 2026-08-31 13:38:58 |
| Receiver | Date | Latitude | Longitude | Direction | Speed | Altitude | Climb | Temperature | Humidity | Pressure | Voltage | Killtimer | Uptime | BKT | XDATA |
|---|---|---|---|---|---|---|---|---|---|---|---|---|---|---|---|
| PU1XMG-16 | 2026-08-31 13:38:58 | -22.78716 | -42.46269 | 89° | 37km/h | 5267m | -4.2m/s | -4.5°C | 76.0% | 540.8hPa | 0V | 07:42:00 | 00:00:00 | 00:00:00 | |
| PU1XMG-16 | 2026-08-31 13:38:46 | -22.78723 | -42.46385 | 88° | 33km/h | 5318m | -4.2m/s | -4.9°C | 77.1% | 537.3hPa | 0V | 07:42:00 | 00:00:00 | 00:00:00 | |
| PU1XMG-16 | 2026-08-31 13:38:41 | -22.78725 | -42.46434 | 89° | 38km/h | 5339m | -4.5m/s | -5.1°C | 77.6% | 535.9hPa | 0V | 07:42:00 | 00:00:00 | 00:00:00 | |
| PU1XMG-16 | 2026-08-31 13:38:35 | -22.78729 | -42.46497 | 87° | 38km/h | 5364m | -4.3m/s | -5.4°C | 79.2% | 534.2hPa | 0V | 07:42:00 | 00:00:00 | 00:00:00 | |
| PU1XMG-16 | 2026-08-31 13:38:28 | -22.78735 | -42.46580 | 85° | 38km/h | 5397m | -4.1m/s | -5.6°C | 79.3% | 532.0hPa | 0V | 07:42:00 | 00:00:00 | 00:00:00 | |
| PU1XMG-16 | 2026-08-31 13:38:22 | -22.78740 | -42.46630 | 83° | 35km/h | 5417m | -4.2m/s | -5.6°C | 75.4% | 530.6hPa | 0V | 00:00:00 | 00:00:00 | 00:00:00 | |
| PU1XMG-16 | 2026-08-31 13:38:18 | -22.78746 | -42.46678 | 83° | 37km/h | 5436m | -4.1m/s | -5.5°C | 63.5% | 529.3hPa | 0V | 00:00:00 | 00:00:00 | 00:00:00 | |
| PU1XMG-16 | 2026-08-31 13:38:11 | -22.78753 | -42.46739 | 84° | 37km/h | 5460m | -4.2m/s | -5.3°C | 45.0% | 527.7hPa | 0V | 00:00:00 | 00:00:00 | 00:00:00 | |
| PU1XMG-16 | 2026-08-31 13:38:05 | -22.78758 | -42.46796 | 86° | 35km/h | 5484m | -4.4m/s | -5.5°C | 43.3% | 526.1hPa | 0V | 00:00:00 | 00:00:00 | 00:00:00 | |
| PU1XMG-16 | 2026-08-31 13:37:59 | -22.78763 | -42.46855 | 86° | 38km/h | 5508m | -4.1m/s | -5.6°C | 42.1% | 524.5hPa | 0V | 00:00:00 | 00:00:00 | 00:00:00 | |
| PU1XMG-16 | 2026-08-31 13:37:55 | -22.78768 | -42.46908 | 85° | 40km/h | 5528m | -4.2m/s | -5.8°C | 40.8% | 523.2hPa | 0V | 00:00:00 | 00:00:00 | 00:00:00 | |
| PU1XMG-16 | 2026-08-31 13:37:49 | -22.78774 | -42.46964 | 84° | 40km/h | 5549m | -4.5m/s | -5.7°C | 38.2% | 521.8hPa | 0V | 00:00:00 | 00:00:00 | 00:00:00 | |
| PU1XMG-16 | 2026-08-31 13:37:43 | -22.78781 | -42.47027 | 85° | 38km/h | 5574m | -4.2m/s | -5.9°C | 38.8% | 520.1hPa | 0V | 00:00:00 | 00:00:00 | 00:00:00 | |
| PU1XMG-16 | 2026-08-31 13:37:38 | -22.78785 | -42.47079 | 88° | 38km/h | 5595m | -4.1m/s | -6.1°C | 39.3% | 518.7hPa | 0V | 00:00:00 | 00:00:00 | 00:00:00 | |
| PU1XMG-16 | 2026-08-31 13:37:32 | -22.78790 | -42.47147 | 86° | 44km/h | 5619m | -4.4m/s | -6.2°C | 39.1% | 517.1hPa | 0V | 07:44:00 | 00:00:00 | 00:00:00 | |
| PU1XMG-16 | 2026-08-31 13:37:25 | -22.78795 | -42.47227 | 88° | 40km/h | 5649m | -4.1m/s | -6.3°C | 35.5% | 515.2hPa | 0V | 07:44:00 | 00:00:00 | 00:00:00 | |
| PU1XMG-16 | 2026-08-31 13:37:20 | -22.78799 | -42.47280 | 84° | 40km/h | 5669m | -4.5m/s | -6.5°C | 33.5% | 513.9hPa | 0V | 07:44:00 | 00:00:00 | 00:00:00 | |
| PU1XMG-16 | 2026-08-31 13:37:15 | -22.78807 | -42.47336 | 81° | 42km/h | 5689m | -4.1m/s | -5.8°C | 16.4% | 512.6hPa | 0V | 07:44:00 | 00:00:00 | 00:00:00 | |
| PU1XMG-16 | 2026-08-31 13:37:08 | -22.78814 | -42.47415 | 91° | 40km/h | 5719m | -4.5m/s | -5.6°C | 14.4% | 510.6hPa | 0V | 07:44:00 | 00:00:00 | 00:00:00 | |
| PU1XMG-16 | 2026-08-31 13:37:02 | -22.78816 | -42.47482 | 88° | 42km/h | 5744m | -4.4m/s | -5.7°C | 14.9% | 509.0hPa | 0V | 07:44:00 | 00:00:00 | 00:00:00 | |
| PU1XMG-16 | 2026-08-31 13:36:57 | -22.78822 | -42.47539 | 81° | 42km/h | 5765m | -4.1m/s | -5.9°C | 14.9% | 507.6hPa | 0V | 07:44:00 | 00:00:00 | 00:00:00 | |
| PU1XMG-16 | 2026-08-31 13:36:43 | -22.78837 | -42.47718 | 88° | 42km/h | 5829m | -4.2m/s | -6.0°C | 16.7% | 503.5hPa | 0V | 07:44:00 | 00:00:00 | 00:00:00 | |
| PU1XMG-16 | 2026-08-31 13:36:16 | -22.78862 | -42.48032 | 85° | 46km/h | 5942m | -4.5m/s | -6.8°C | 18.8% | 496.3hPa | 0V | 07:45:00 | 00:00:00 | 00:00:00 | |
| PU1XMG-16 | 2026-08-31 13:36:07 | -22.78872 | -42.48146 | 87° | 44km/h | 5981m | -4.4m/s | -7.1°C | 21.6% | 493.8hPa | 0V | 07:45:00 | 00:00:00 | 00:00:00 | |
| PU1XMG-16 | 2026-08-31 13:36:00 | -22.78876 | -42.48228 | 89° | 42km/h | 6012m | -4.4m/s | -7.4°C | 24.9% | 491.8hPa | 0V | 07:45:00 | 00:00:00 | 00:00:00 | |
| PU1XMG-16 | 2026-08-31 13:35:51 | -22.78875 | -42.48334 | 94° | 44km/h | 6052m | -4.7m/s | -7.7°C | 21.8% | 489.3hPa | 0V | 07:45:00 | 00:00:00 | 00:00:00 | |
| PU1XMG-16 | 2026-08-31 13:35:46 | -22.78870 | -42.48396 | 96° | 46km/h | 6074m | -4.5m/s | -7.6°C | 37.9% | 487.8hPa | 0V | 07:45:00 | 00:00:00 | 00:00:00 | |
| PU1XMG-16 | 2026-08-31 13:35:40 | -22.78865 | -42.48466 | 96° | 42km/h | 6101m | -4.9m/s | -8.0°C | 70.4% | 486.2hPa | 0V | 07:45:00 | 00:00:00 | 00:00:00 | |
| PU1XMG-16 | 2026-08-31 13:35:35 | -22.78859 | -42.48524 | 99° | 42km/h | 6125m | -4.8m/s | -8.3°C | 71.1% | 484.8hPa | 0V | 07:45:00 | 00:00:00 | 00:00:00 | |
| PU1XMG-16 | 2026-08-31 13:35:29 | -22.78849 | -42.48592 | 102° | 40km/h | 6155m | -5.1m/s | -8.3°C | 71.5% | 483.0hPa | 0V | 07:45:00 | 00:00:00 | 00:00:00 | |
| PU1XMG-16 | 2026-08-31 13:35:23 | -22.78838 | -42.48654 | 102° | 38km/h | 6184m | -4.7m/s | -8.5°C | 60.8% | 481.1hPa | 0V | 07:45:00 | 00:00:00 | 00:00:00 | |
| PU1XMG-16 | 2026-08-31 13:35:18 | -22.78828 | -42.48708 | 101° | 42km/h | 6208m | -5.0m/s | -8.7°C | 60.7% | 479.7hPa | 0V | 07:45:00 | 00:00:00 | 00:00:00 | |
| PU1XMG-16 | 2026-08-31 13:35:12 | -22.78817 | -42.48773 | 104° | 38km/h | 6236m | -5.1m/s | -8.6°C | 21.1% | 477.9hPa | 0V | 07:45:00 | 00:00:00 | 00:00:00 | |
| PU1XMG-16 | 2026-08-31 13:35:07 | -22.78805 | -42.48823 | 105° | 38km/h | 6261m | -4.8m/s | -8.9°C | 20.9% | 476.4hPa | 0V | 07:45:00 | 00:00:00 | 00:00:00 | |
| PU1XMG-16 | 2026-08-31 13:35:01 | -22.78792 | -42.48887 | 100° | 42km/h | 6290m | -4.8m/s | -9.0°C | 8.8% | 474.6hPa | 0V | 07:45:00 | 00:00:00 | 00:00:00 | |
| PU1XMG-16 | 2026-08-31 13:34:56 | -22.78785 | -42.48945 | 98° | 42km/h | 6314m | -5.2m/s | -9.2°C | 8.6% | 473.1hPa | 0V | 07:46:00 | 00:00:00 | 00:00:00 | |
| PU1XMG-16 | 2026-08-31 13:34:50 | -22.78777 | -42.49014 | 98° | 44km/h | 6342m | -5.0m/s | -9.5°C | 9.2% | 471.4hPa | 0V | 07:46:00 | 00:00:00 | 00:00:00 | |
| PU1XMG-16 | 2026-08-31 13:34:45 | -22.78773 | -42.49073 | 91° | 44km/h | 6366m | -4.9m/s | -9.4°C | 11.1% | 469.9hPa | 0V | 07:46:00 | 00:00:00 | 00:00:00 | |
| PU1XMG-16 | 2026-08-31 13:34:40 | -22.78773 | -42.49132 | 92° | 42km/h | 6388m | -4.5m/s | -9.6°C | 27.2% | 468.6hPa | 0V | 07:46:00 | 00:00:00 | 00:00:00 | |
| PU1XMG-16 | 2026-08-31 13:34:34 | -22.78771 | -42.49203 | 93° | 46km/h | 6415m | -4.7m/s | -9.9°C | 46.9% | 466.9hPa | 0V | 07:46:00 | 00:00:00 | 00:00:00 | |
| PU1XMG-16 | 2026-08-31 13:34:29 | -22.78770 | -42.49265 | 92° | 44km/h | 6439m | -4.7m/s | -9.8°C | 22.2% | 465.5hPa | 0V | 07:46:00 | 00:00:00 | 00:00:00 | |
| PU1XMG-16 | 2026-08-31 13:34:23 | -22.78767 | -42.49336 | 94° | 44km/h | 6468m | -4.8m/s | -9.8°C | 18.2% | 463.8hPa | 0V | 07:46:00 | 00:00:00 | 00:00:00 | |
| PU1XMG-16 | 2026-08-31 13:34:17 | -22.78764 | -42.49410 | 92° | 47km/h | 6495m | -5.0m/s | -9.9°C | 16.6% | 462.1hPa | 0V | 07:46:00 | 00:00:00 | 00:00:00 | |
| PU1XMG-16 | 2026-08-31 13:34:12 | -22.78763 | -42.49475 | 93° | 47km/h | 6518m | -4.7m/s | -10.1°C | 17.3% | 460.7hPa | 0V | 07:46:00 | 00:00:00 | 00:00:00 | |
| PU1XMG-16 | 2026-08-31 13:34:07 | -22.78760 | -42.49540 | 95° | 47km/h | 6541m | -4.7m/s | -10.3°C | 18.3% | 459.4hPa | 0V | 07:47:00 | 00:00:00 | 00:00:00 | |
| PU1XMG-16 | 2026-08-31 13:34:02 | -22.78756 | -42.49620 | 94° | 49km/h | 6569m | -4.7m/s | -10.5°C | 25.8% | 457.7hPa | 0V | 07:47:00 | 00:00:00 | 00:00:00 | |
| PU1XMG-16 | 2026-08-31 13:33:56 | -22.78753 | -42.49689 | 93° | 53km/h | 6593m | -4.9m/s | -10.8°C | 42.6% | 456.3hPa | 0V | 07:47:00 | 00:00:00 | 00:00:00 | |
| PU1XMG-16 | 2026-08-31 13:33:50 | -22.78749 | -42.49777 | 94° | 53km/h | 6621m | -4.9m/s | -11.0°C | 47.7% | 454.7hPa | 0V | 07:47:00 | 00:00:00 | 00:00:00 | |
| PU1XMG-16 | 2026-08-31 13:33:44 | -22.78745 | -42.49866 | 94° | 55km/h | 6648m | -4.7m/s | -11.1°C | 48.2% | 453.1hPa | 0V | 07:47:00 | 00:00:00 | 00:00:00 | |
| PU1XMG-16 | 2026-08-31 13:33:39 | -22.78741 | -42.49942 | 95° | 55km/h | 6671m | -4.9m/s | -11.1°C | 38.7% | 451.7hPa | 0V | 07:47:00 | 00:00:00 | 00:00:00 | |
| PU1XMG-16 | 2026-08-31 13:33:33 | -22.78733 | -42.50034 | 97° | 57km/h | 6699m | -4.9m/s | -11.3°C | 38.1% | 450.1hPa | 0V | 07:47:00 | 00:00:00 | 00:00:00 | |
| PU1XMG-16 | 2026-08-31 13:33:27 | -22.78724 | -42.50124 | 98° | 57km/h | 6728m | -4.7m/s | -11.4°C | 36.2% | 448.3hPa | 0V | 07:47:00 | 00:00:00 | 00:00:00 | |
| PU1XMG-16 | 2026-08-31 13:33:22 | -22.78714 | -42.50201 | 99° | 58km/h | 6752m | -4.9m/s | -11.5°C | 31.9% | 447.0hPa | 0V | 07:47:00 | 00:00:00 | 00:00:00 | |
| PU1XMG-16 | 2026-08-31 13:33:17 | -22.78705 | -42.50281 | 98° | 58km/h | 6776m | -4.7m/s | -11.7°C | 28.9% | 445.5hPa | 0V | 07:48:00 | 00:00:00 | 00:00:00 | |
| PU1XMG-16 | 2026-08-31 13:33:11 | -22.78694 | -42.50376 | 99° | 58km/h | 6804m | -4.9m/s | -11.9°C | 28.3% | 443.9hPa | 0V | 07:48:00 | 00:00:00 | 00:00:00 | |
| PU1XMG-16 | 2026-08-31 13:33:06 | -22.78684 | -42.50455 | 99° | 58km/h | 6828m | -5.0m/s | -12.1°C | 28.4% | 442.6hPa | 0V | 07:48:00 | 00:00:00 | 00:00:00 | |
| PU1XMG-16 | 2026-08-31 13:33:00 | -22.78671 | -42.50552 | 98° | 58km/h | 6857m | -5.1m/s | -12.4°C | 29.3% | 441.0hPa | 0V | 07:48:00 | 00:00:00 | 00:00:00 | |
| PU1XMG-16 | 2026-08-31 13:32:54 | -22.78660 | -42.50645 | 98° | 57km/h | 6886m | -5.0m/s | -12.7°C | 30.1% | 439.3hPa | 0V | 07:48:00 | 00:00:00 | 00:00:00 | |
| PU1XMG-16 | 2026-08-31 13:32:48 | -22.78649 | -42.50736 | 100° | 55km/h | 6915m | -4.8m/s | -12.9°C | 30.8% | 437.7hPa | 0V | 07:48:00 | 00:00:00 | 00:00:00 | |
| PU1XMG-16 | 2026-08-31 13:32:42 | -22.78636 | -42.50822 | 100° | 53km/h | 6943m | -4.8m/s | -13.0°C | 30.2% | 436.1hPa | 0V | 07:48:00 | 00:00:00 | 00:00:00 | |
| PU1XMG-16 | 2026-08-31 13:32:37 | -22.78626 | -42.50892 | 99° | 51km/h | 6967m | -4.6m/s | -13.1°C | 28.5% | 434.7hPa | 0V | 07:48:00 | 00:00:00 | 00:00:00 | |
| PU1XMG-16 | 2026-08-31 13:32:31 | -22.78614 | -42.50975 | 100° | 51km/h | 6995m | -4.6m/s | -13.2°C | 27.0% | 433.1hPa | 0V | 07:48:00 | 00:00:00 | 00:00:00 | |
| PU1XMG-16 | 2026-08-31 13:32:26 | -22.78601 | -42.51056 | 100° | 49km/h | 7022m | -4.6m/s | -13.4°C | 27.5% | 431.5hPa | 0V | 07:49:00 | 00:00:00 | 00:00:00 | |
| PU1XMG-16 | 2026-08-31 13:32:19 | -22.78590 | -42.51134 | 101° | 49km/h | 7050m | -4.5m/s | -13.6°C | 26.5% | 429.9hPa | 0V | 07:49:00 | 00:00:00 | 00:00:00 | |
| PU1XMG-16 | 2026-08-31 13:32:14 | -22.78579 | -42.51199 | 102° | 47km/h | 7073m | -4.6m/s | -13.8°C | 26.6% | 428.7hPa | 0V | 07:49:00 | 00:00:00 | 00:00:00 | |
| PU1XMG-16 | 2026-08-31 13:32:08 | -22.78568 | -42.51275 | 100° | 46km/h | 7101m | -4.7m/s | -14.0°C | 26.1% | 427.1hPa | 0V | 07:49:00 | 00:00:00 | 00:00:00 | |
| PU1XMG-16 | 2026-08-31 13:32:02 | -22.78556 | -42.51347 | 102° | 46km/h | 7128m | -4.3m/s | -14.2°C | 28.7% | 425.6hPa | 0V | 07:49:00 | 00:00:00 | 00:00:00 | |
| PU1XMG-16 | 2026-08-31 13:31:57 | -22.78543 | -42.51420 | 101° | 46km/h | 7156m | -4.6m/s | -14.4°C | 33.9% | 424.1hPa | 0V | 07:49:00 | 00:00:00 | 00:00:00 | |
| PU1XMG-16 | 2026-08-31 13:31:51 | -22.78533 | -42.51492 | 100° | 44km/h | 7183m | -4.3m/s | -14.6°C | 38.9% | 422.5hPa | 0V | 07:49:00 | 00:00:00 | 00:00:00 | |
| PU1XMG-16 | 2026-08-31 13:31:45 | -22.78522 | -42.51562 | 100° | 46km/h | 7210m | -4.5m/s | -14.9°C | 42.7% | 421.0hPa | 0V | 07:49:00 | 00:00:00 | 00:00:00 | |
| PU1XMG-16 | 2026-08-31 13:31:39 | -22.78515 | -42.51622 | 97° | 44km/h | 7232m | -4.5m/s | -15.1°C | 43.9% | 419.8hPa | 0V | 07:49:00 | 00:00:00 | 00:00:00 | |
| PU1XMG-16 | 2026-08-31 13:31:34 | -22.78508 | -42.51681 | 100° | 42km/h | 7255m | -4.5m/s | -15.3°C | 49.8% | 418.5hPa | 0V | 07:50:00 | 00:00:00 | 00:00:00 | |
| PU1XMG-16 | 2026-08-31 13:31:09 | -22.78473 | -42.51965 | 100° | 42km/h | 7364m | -4.5m/s | -16.0°C | 72.8% | 412.5hPa | 0V | 07:50:00 | 00:00:00 | 00:00:00 | |
| PU1XMG-16 | 2026-08-31 13:31:04 | -22.78462 | -42.52030 | 102° | 38km/h | 7391m | -4.4m/s | -15.8°C | 71.2% | 411.0hPa | 0V | 07:50:00 | 00:00:00 | 00:00:00 | |
| PU1XMG-16 | 2026-08-31 13:30:57 | -22.78449 | -42.52094 | 103° | 40km/h | 7417m | -4.2m/s | -15.8°C | 68.0% | 409.6hPa | 0V | 07:50:00 | 00:00:00 | 00:00:00 | |
| PU1XMG-16 | 2026-08-31 13:30:52 | -22.78439 | -42.52148 | 103° | 40km/h | 7439m | -4.7m/s | -16.0°C | 67.3% | 408.4hPa | 0V | 07:50:00 | 00:00:00 | 00:00:00 | |
| PU1XMG-16 | 2026-08-31 13:30:48 | -22.78427 | -42.52203 | 105° | 42km/h | 7462m | -4.8m/s | -16.1°C | 66.8% | 407.2hPa | 0V | 07:50:00 | 00:00:00 | 00:00:00 | |
| PU1XMG-16 | 2026-08-31 13:30:41 | -22.78410 | -42.52265 | 111° | 38km/h | 7491m | -5.1m/s | -16.4°C | 67.6% | 405.6hPa | 0V | 00:00:00 | 00:00:00 | 00:00:00 | |
| PU1XMG-16 | 2026-08-31 13:30:35 | -22.78390 | -42.52325 | 110° | 40km/h | 7521m | -5.0m/s | -16.7°C | 69.0% | 403.9hPa | 0V | 00:00:00 | 00:00:00 | 00:00:00 | |
| PU1XMG-16 | 2026-08-31 13:30:29 | -22.78370 | -42.52389 | 108° | 42km/h | 7551m | -4.8m/s | -17.0°C | 70.2% | 402.4hPa | 0V | 00:00:00 | 00:00:00 | 00:00:00 | |
| PU1XMG-16 | 2026-08-31 13:30:23 | -22.78351 | -42.52453 | 111° | 40km/h | 7580m | -4.8m/s | -17.2°C | 67.3% | 400.8hPa | 0V | 00:00:00 | 00:00:00 | 00:00:00 | |
| PU1XMG-16 | 2026-08-31 13:30:18 | -22.78331 | -42.52505 | 115° | 42km/h | 7605m | -4.9m/s | -17.4°C | 68.9% | 399.5hPa | 0V | 00:00:00 | 00:00:00 | 00:00:00 | |
| PU1XMG-16 | 2026-08-31 13:30:12 | -22.78305 | -42.52568 | 115° | 44km/h | 7633m | -5.0m/s | -17.6°C | 68.5% | 398.0hPa | 0V | 00:00:00 | 00:00:00 | 00:00:00 | |
| PU1XMG-16 | 2026-08-31 13:30:05 | -22.78272 | -42.52644 | 117° | 42km/h | 7668m | -5.1m/s | -17.9°C | 66.1% | 396.1hPa | 0V | 00:00:00 | 00:00:00 | 00:00:00 | |
| PU1XMG-16 | 2026-08-31 13:30:01 | -22.78247 | -42.52696 | 118° | 42km/h | 7694m | -4.7m/s | -18.0°C | 65.5% | 394.8hPa | 0V | 00:00:00 | 00:00:00 | 00:00:00 | |
| PU1XMG-16 | 2026-08-31 13:29:47 | -22.78182 | -42.52835 | 116° | 44km/h | 7760m | -5.2m/s | -18.6°C | 67.0% | 391.4hPa | 0V | 07:51:00 | 00:00:00 | 00:00:00 | |
| PU1XMG-16 | 2026-08-31 13:29:42 | -22.78158 | -42.52888 | 117° | 42km/h | 7784m | -4.8m/s | -18.9°C | 68.0% | 390.1hPa | 0V | 07:51:00 | 00:00:00 | 00:00:00 | |
| PU1XMG-16 | 2026-08-31 13:29:37 | -22.78134 | -42.52941 | 119° | 44km/h | 7808m | -4.8m/s | -19.1°C | 68.9% | 388.8hPa | 0V | 07:51:00 | 00:00:00 | 00:00:00 | |
| PU1XMG-16 | 2026-08-31 13:29:31 | -22.78102 | -42.53004 | 119° | 46km/h | 7836m | -4.9m/s | -19.4°C | 70.1% | 387.4hPa | 0V | 07:51:00 | 00:00:00 | 00:00:00 | |
| PU1XMG-16 | 2026-08-31 13:29:26 | -22.78076 | -42.53059 | 115° | 46km/h | 7861m | -4.6m/s | -19.6°C | 71.3% | 386.1hPa | 0V | 07:51:00 | 00:00:00 | 00:00:00 | |
| PU1XMG-16 | 2026-08-31 13:29:20 | -22.78046 | -42.53127 | 118° | 46km/h | 7890m | -5.1m/s | -19.8°C | 71.9% | 384.6hPa | 0V | 07:51:00 | 00:00:00 | 00:00:00 | |
| PU1XMG-16 | 2026-08-31 13:29:14 | -22.78014 | -42.53193 | 118° | 46km/h | 7919m | -4.7m/s | -20.1°C | 72.5% | 383.1hPa | 0V | 07:51:00 | 00:00:00 | 00:00:00 | |
| PU1XMG-16 | 2026-08-31 13:29:09 | -22.77987 | -42.53251 | 117° | 47km/h | 7942m | -5.1m/s | -20.3°C | 72.8% | 381.9hPa | 0V | 07:51:00 | 00:00:00 | 00:00:00 | |
| PU1XMG-16 | 2026-08-31 13:28:58 | -22.77926 | -42.53380 | 119° | 47km/h | 7996m | -5.0m/s | -20.7°C | 73.1% | 379.2hPa | 0V | 07:52:00 | 00:00:00 | 00:00:00 | |
| PU1XMG-16 | 2026-08-31 13:28:52 | -22.77892 | -42.53453 | 117° | 49km/h | 8024m | -4.8m/s | -20.8°C | 70.7% | 377.7hPa | 0V | 07:52:00 | 00:00:00 | 00:00:00 | |
| PU1XMG-16 | 2026-08-31 13:28:47 | -22.77865 | -42.53512 | 116° | 47km/h | 8049m | -4.6m/s | -20.9°C | 70.1% | 376.5hPa | 0V | 07:52:00 | 00:00:00 | 00:00:00 | |
| PU1XMG-16 | 2026-08-31 13:28:41 | -22.77832 | -42.53580 | 118° | 46km/h | 8078m | -5.0m/s | -21.0°C | 64.1% | 375.0hPa | 0V | 07:52:00 | 00:00:00 | 00:00:00 | |
| PU1XMG-16 | 2026-08-31 13:28:35 | -22.77800 | -42.53649 | 118° | 47km/h | 8107m | -4.7m/s | -20.8°C | 53.5% | 373.5hPa | 0V | 07:52:00 | 00:00:00 | 00:00:00 | |
| PU1XMG-16 | 2026-08-31 13:28:30 | -22.77773 | -42.53706 | 117° | 47km/h | 8132m | -4.7m/s | -20.9°C | 52.5% | 372.3hPa | 0V | 07:52:00 | 00:00:00 | 00:00:00 | |
| PU1XMG-16 | 2026-08-31 13:28:25 | -22.77742 | -42.53777 | 116° | 47km/h | 8160m | -4.9m/s | -21.2°C | 53.7% | 370.8hPa | 0V | 07:52:00 | 00:00:00 | 00:00:00 | |
| PU1XMG-16 | 2026-08-31 13:28:19 | -22.77717 | -42.53838 | 114° | 49km/h | 8185m | -4.9m/s | -21.4°C | 56.2% | 369.6hPa | 0V | 07:52:00 | 00:00:00 | 00:00:00 | |
| PU1XMG-16 | 2026-08-31 13:28:13 | -22.77688 | -42.53913 | 112° | 51km/h | 8215m | -4.7m/s | -21.7°C | 64.1% | 368.1hPa | 0V | 07:52:00 | 00:00:00 | 00:00:00 | |
| PU1XMG-16 | 2026-08-31 13:28:09 | -22.77664 | -42.53977 | 113° | 49km/h | 8239m | -4.8m/s | -21.9°C | 66.3% | 366.9hPa | 0V | 00:00:00 | 00:00:00 | 00:00:00 | |
| PU1XMG-16 | 2026-08-31 13:28:03 | -22.77641 | -42.54040 | 110° | 49km/h | 8263m | -4.7m/s | -21.9°C | 59.8% | 365.7hPa | 0V | 00:00:00 | 00:00:00 | 00:00:00 | |
| PU1XMG-16 | 2026-08-31 13:27:58 | -22.77617 | -42.54117 | 108° | 49km/h | 8292m | -4.6m/s | -22.0°C | 56.1% | 364.3hPa | 0V | 00:00:00 | 00:00:00 | 00:00:00 | |
| PU1XMG-16 | 2026-08-31 13:27:51 | -22.77597 | -42.54195 | 105° | 47km/h | 8321m | -4.7m/s | -22.2°C | 57.9% | 362.9hPa | 0V | 00:00:00 | 00:00:00 | 00:00:00 | |
| PU1XMG-16 | 2026-08-31 13:27:46 | -22.77581 | -42.54257 | 107° | 46km/h | 8345m | -4.5m/s | -22.3°C | 61.0% | 361.6hPa | 0V | 00:00:00 | 00:00:00 | 00:00:00 | |
| PU1XMG-16 | 2026-08-31 13:27:40 | -22.77561 | -42.54328 | 106° | 46km/h | 8371m | -4.4m/s | -22.4°C | 61.5% | 360.4hPa | 0V | 00:00:00 | 00:00:00 | 00:00:00 | |
| PU1XMG-16 | 2026-08-31 13:27:35 | -22.77548 | -42.54391 | 102° | 49km/h | 8393m | -4.5m/s | -22.6°C | 61.2% | 359.3hPa | 0V | 00:00:00 | 00:00:00 | 00:00:00 | |
| PU1XMG-16 | 2026-08-31 13:27:29 | -22.77535 | -42.54483 | 97° | 47km/h | 8423m | -4.3m/s | -22.9°C | 63.6% | 357.8hPa | 0V | 00:00:00 | 00:00:00 | 00:00:00 | |
| PU1XMG-16 | 2026-08-31 13:27:14 | -22.77505 | -42.54657 | 99° | 47km/h | 8483m | -4.4m/s | -23.5°C | 63.4% | 354.9hPa | 0V | 07:54:00 | 00:00:00 | 00:00:00 | |
| PU1XMG-16 | 2026-08-31 13:26:55 | -22.77480 | -42.54899 | 94° | 44km/h | 8574m | -4.7m/s | -24.3°C | 63.5% | 350.6hPa | 0V | 07:54:00 | 00:00:00 | 00:00:00 | |
| PU1XMG-16 | 2026-08-31 13:26:49 | -22.77472 | -42.54969 | 101° | 42km/h | 8602m | -4.8m/s | -24.6°C | 64.9% | 349.2hPa | 0V | 07:54:00 | 00:00:00 | 00:00:00 | |
| PU1XMG-16 | 2026-08-31 13:26:41 | -22.77461 | -42.55045 | 97° | 40km/h | 8640m | -6.0m/s | -25.0°C | 64.5% | 347.5hPa | 0V | 07:54:00 | 00:00:00 | 00:00:00 | |
| PU1XMG-16 | 2026-08-31 13:26:36 | -22.77458 | -42.55112 | 92° | 42km/h | 8673m | -5.2m/s | -25.3°C | 66.6% | 345.9hPa | 0V | 07:54:00 | 00:00:00 | 00:00:00 | |
| PU1XMG-16 | 2026-08-31 13:26:30 | -22.77457 | -42.55168 | 93° | 40km/h | 8698m | -4.6m/s | -25.5°C | 67.9% | 344.7hPa | 0V | 07:54:00 | 00:00:00 | 00:00:00 | |
| PU1XMG-16 | 2026-08-31 13:26:23 | -22.77454 | -42.55246 | 91° | 42km/h | 8733m | -4.7m/s | -25.6°C | 73.1% | 343.1hPa | 0V | 00:00:00 | 00:00:00 | 00:00:00 | |
| PU1XMG-16 | 2026-08-31 13:26:17 | -22.77456 | -42.55317 | 88° | 42km/h | 8761m | -4.8m/s | -25.9°C | 73.3% | 341.7hPa | 0V | 00:00:00 | 00:00:00 | 00:00:00 | |
| PU1XMG-16 | 2026-08-31 13:26:10 | -22.77460 | -42.55400 | 88° | 44km/h | 8796m | -5.0m/s | -26.2°C | 75.3% | 340.1hPa | 0V | 00:00:00 | 00:00:00 | 00:00:00 | |
| PU1XMG-16 | 2026-08-31 13:26:06 | -22.77464 | -42.55461 | 86° | 44km/h | 8821m | -4.6m/s | -26.3°C | 76.2% | 338.9hPa | 0V | 00:00:00 | 00:00:00 | 00:00:00 | |
| PU1XMG-16 | 2026-08-31 13:25:59 | -22.77471 | -42.55533 | 85° | 42km/h | 8850m | -5.2m/s | -26.5°C | 76.6% | 337.5hPa | 0V | 00:00:00 | 00:00:00 | 00:00:00 | |
| PU1XMG-16 | 2026-08-31 13:25:53 | -22.77477 | -42.55602 | 85° | 42km/h | 8881m | -5.0m/s | -26.7°C | 76.0% | 336.1hPa | 0V | 00:00:00 | 00:00:00 | 00:00:00 | |
| PU1XMG-16 | 2026-08-31 13:25:47 | -22.77486 | -42.55671 | 83° | 42km/h | 8913m | -4.9m/s | -27.0°C | 75.0% | 334.7hPa | 0V | 00:00:00 | 00:00:00 | 00:00:00 | |
| PU1XMG-16 | 2026-08-31 13:25:41 | -22.77493 | -42.55741 | 86° | 44km/h | 8944m | -4.9m/s | -27.2°C | 75.4% | 333.2hPa | 0V | 00:00:00 | 00:00:00 | 00:00:00 | |
| PU1XMG-16 | 2026-08-31 13:25:36 | -22.77499 | -42.55802 | 84° | 44km/h | 8969m | -4.7m/s | -27.4°C | 75.2% | 332.0hPa | 0V | 07:56:00 | 00:00:00 | 00:00:00 | |
| PU1XMG-16 | 2026-08-31 13:25:31 | -22.77505 | -42.55876 | 88° | 46km/h | 9000m | -5.5m/s | -27.5°C | 74.6% | 330.6hPa | 0V | 07:56:00 | 00:00:00 | 00:00:00 | |
| PU1XMG-16 | 2026-08-31 13:25:22 | -22.77506 | -42.55978 | 90° | 47km/h | 9043m | -5.5m/s | -27.8°C | 74.3% | 328.6hPa | 0V | 07:56:00 | 00:00:00 | 00:00:00 | |
| PU1XMG-16 | 2026-08-31 13:25:16 | -22.77507 | -42.56055 | 91° | 47km/h | 9074m | -5.1m/s | -28.0°C | 74.5% | 327.2hPa | 0V | 07:56:00 | 00:00:00 | 00:00:00 | |
| PU1XMG-16 | 2026-08-31 13:25:11 | -22.77506 | -42.56131 | 90° | 46km/h | 9105m | -5.2m/s | -28.1°C | 74.0% | 325.8hPa | 0V | 07:56:00 | 00:00:00 | 00:00:00 | |
| PU1XMG-16 | 2026-08-31 13:25:04 | -22.77507 | -42.56207 | 91° | 46km/h | 9138m | -5.4m/s | -28.3°C | 73.9% | 324.3hPa | 0V | 07:56:00 | 00:00:00 | 00:00:00 | |
| PU1XMG-16 | 2026-08-31 13:24:57 | -22.77506 | -42.56296 | 91° | 46km/h | 9175m | -5.2m/s | -28.6°C | 73.5% | 322.7hPa | 0V | 07:56:00 | 00:00:00 | 00:00:00 | |
| PU1XMG-16 | 2026-08-31 13:24:52 | -22.77506 | -42.56359 | 92° | 46km/h | 9200m | -5.6m/s | -28.8°C | 72.9% | 321.5hPa | 0V | 07:56:00 | 00:00:00 | 00:00:00 | |
| PU1XMG-16 | 2026-08-31 13:24:46 | -22.77504 | -42.56435 | 94° | 47km/h | 9232m | -5.2m/s | -29.1°C | 73.7% | 320.1hPa | 0V | 07:56:00 | 00:00:00 | 00:00:00 | |
| PU1XMG-16 | 2026-08-31 13:24:40 | -22.77502 | -42.56513 | 91° | 46km/h | 9264m | -5.0m/s | -29.3°C | 73.3% | 318.7hPa | 0V | 07:56:00 | 00:00:00 | 00:00:00 | |
| PU1XMG-16 | 2026-08-31 13:24:35 | -22.77501 | -42.56590 | 93° | 47km/h | 9295m | -5.4m/s | -29.6°C | 73.6% | 317.3hPa | 0V | 07:56:00 | 00:00:00 | 00:00:00 | |
| PU1XMG-16 | 2026-08-31 13:24:28 | -22.77497 | -42.56671 | 94° | 49km/h | 9327m | -5.0m/s | -29.8°C | 73.4% | 315.9hPa | 0V | 07:56:00 | 00:00:00 | 00:00:00 | |
| PU1XMG-16 | 2026-08-31 13:24:23 | -22.77494 | -42.56738 | 94° | 49km/h | 9352m | -5.3m/s | -30.0°C | 73.2% | 314.8hPa | 0V | 07:56:00 | 00:00:00 | 00:00:00 | |
| PU1XMG-16 | 2026-08-31 13:24:18 | -22.77489 | -42.56808 | 95° | 51km/h | 9378m | -5.0m/s | -30.2°C | 70.8% | 313.6hPa | 0V | 07:56:00 | 00:00:00 | 00:00:00 | |
| PU1XMG-16 | 2026-08-31 13:24:12 | -22.77482 | -42.56893 | 95° | 51km/h | 9409m | -5.1m/s | -30.5°C | 71.2% | 312.3hPa | 0V | 07:56:00 | 00:00:00 | 00:00:00 | |
| PU1XMG-16 | 2026-08-31 13:24:07 | -22.77476 | -42.56978 | 96° | 53km/h | 9440m | -5.1m/s | -30.7°C | 71.7% | 310.9hPa | 0V | 07:56:00 | 00:00:00 | 00:00:00 | |
| PU1XMG-16 | 2026-08-31 13:24:00 | -22.77465 | -42.57065 | 101° | 55km/h | 9471m | -5.2m/s | -30.9°C | 72.2% | 309.5hPa | 0V | 07:56:00 | 00:00:00 | 00:00:00 | |
| PU1XMG-16 | 2026-08-31 13:23:55 | -22.77454 | -42.57140 | 100° | 55km/h | 9497m | -5.6m/s | -31.1°C | 72.4% | 308.4hPa | 0V | 00:00:00 | 00:00:00 | 00:00:00 | |
| PU1XMG-16 | 2026-08-31 13:23:49 | -22.77437 | -42.57245 | 102° | 57km/h | 9536m | -5.3m/s | -31.4°C | 73.4% | 306.7hPa | 0V | 00:00:00 | 00:00:00 | 00:00:00 | |
| PU1XMG-16 | 2026-08-31 13:23:42 | -22.77421 | -42.57339 | 102° | 58km/h | 9568m | -5.4m/s | -31.6°C | 74.3% | 305.4hPa | 0V | 00:00:00 | 00:00:00 | 00:00:00 | |
| PU1XMG-16 | 2026-08-31 13:23:37 | -22.77406 | -42.57417 | 103° | 58km/h | 9594m | -5.2m/s | -31.8°C | 74.9% | 304.2hPa | 0V | 00:00:00 | 00:00:00 | 00:00:00 | |
| PU1XMG-16 | 2026-08-31 13:23:32 | -22.77388 | -42.57512 | 102° | 60km/h | 9626m | -5.2m/s | -32.0°C | 75.7% | 302.8hPa | 0V | 00:00:00 | 00:00:00 | 00:00:00 | |
| PU1XMG-16 | 2026-08-31 13:22:33 | -22.77171 | -42.58484 | 109° | 66km/h | 9938m | -5.0m/s | -34.7°C | 82.1% | 289.6hPa | 0V | 07:58:00 | 00:00:00 | 00:00:00 | |
| PU1XMG-16 | 2026-08-31 13:22:26 | -22.77138 | -42.58586 | 110° | 68km/h | 9969m | -4.8m/s | -34.9°C | 78.4% | 288.4hPa | 0V | 07:58:00 | 00:00:00 | 00:00:00 | |
| PU1XMG-16 | 2026-08-31 13:22:21 | -22.77110 | -42.58673 | 110° | 68km/h | 9995m | -4.8m/s | -35.0°C | 73.0% | 287.3hPa | 0V | 07:58:00 | 00:00:00 | 00:00:00 | |
| PU1XMG-16 | 2026-08-31 13:22:15 | -22.77075 | -42.58780 | 111° | 69km/h | 10026m | -4.9m/s | -35.3°C | 73.6% | 286.0hPa | 0V | 07:58:00 | 00:00:00 | 00:00:00 | |
| PU1XMG-16 | 2026-08-31 13:22:09 | -22.77038 | -42.58886 | 112° | 69km/h | 10057m | -5.1m/s | -35.5°C | 74.3% | 284.8hPa | 0V | 07:59:00 | 00:00:00 | 00:00:00 | |
| PU1XMG-16 | 2026-08-31 13:22:03 | -22.76999 | -42.58992 | 113° | 69km/h | 10089m | -5.5m/s | -35.8°C | 74.7% | 283.5hPa | 0V | 07:59:00 | 00:00:00 | 00:00:00 | |
| PU1XMG-16 | 2026-08-31 13:21:57 | -22.76960 | -42.59100 | 113° | 71km/h | 10121m | -5.4m/s | -36.1°C | 75.0% | 282.2hPa | 0V | 07:59:00 | 00:00:00 | 00:00:00 | |
| PU1XMG-16 | 2026-08-31 13:21:52 | -22.76925 | -42.59190 | 113° | 71km/h | 10147m | -5.5m/s | -36.4°C | 75.4% | 281.1hPa | 0V | 07:59:00 | 00:00:00 | 00:00:00 | |
| PU1XMG-16 | 2026-08-31 13:21:47 | -22.76892 | -42.59282 | 112° | 71km/h | 10174m | -5.7m/s | -36.6°C | 75.5% | 280.0hPa | 0V | 07:59:00 | 00:00:00 | 00:00:00 | |
| PU1XMG-16 | 2026-08-31 13:21:42 | -22.76850 | -42.59391 | 114° | 73km/h | 10206m | -5.6m/s | -36.9°C | 74.7% | 278.7hPa | 0V | 07:59:00 | 00:00:00 | 00:00:00 | |
| PU1XMG-16 | 2026-08-31 13:21:36 | -22.76814 | -42.59483 | 114° | 75km/h | 10233m | -5.4m/s | -37.1°C | 74.2% | 277.7hPa | 0V | 07:59:00 | 00:00:00 | 00:00:00 | |
| PU1XMG-16 | 2026-08-31 13:21:31 | -22.76768 | -42.59595 | 115° | 73km/h | 10265m | -5.6m/s | -37.3°C | 73.8% | 276.4hPa | 0V | 07:59:00 | 00:00:00 | 00:00:00 | |
| PU1XMG-16 | 2026-08-31 13:21:25 | -22.76730 | -42.59688 | 114° | 75km/h | 10292m | -5.4m/s | -37.5°C | 72.4% | 275.3hPa | 0V | 07:59:00 | 00:00:00 | 00:00:00 | |
| PU1XMG-16 | 2026-08-31 13:21:21 | -22.76693 | -42.59784 | 114° | 77km/h | 10319m | -5.4m/s | -37.8°C | 71.5% | 274.2hPa | 0V | 08:00:00 | 00:00:00 | 00:00:00 | |
| PU1XMG-16 | 2026-08-31 13:21:16 | -22.76653 | -42.59880 | 116° | 77km/h | 10346m | -6.0m/s | -38.0°C | 70.9% | 273.2hPa | 0V | 08:00:00 | 00:00:00 | 00:00:00 | |
| PU1XMG-16 | 2026-08-31 13:21:09 | -22.76605 | -42.59995 | 114° | 77km/h | 10381m | -5.4m/s | -38.3°C | 70.8% | 271.8hPa | 0V | 08:00:00 | 00:00:00 | 00:00:00 | |
| PU1XMG-16 | 2026-08-31 13:21:03 | -22.76558 | -42.60111 | 115° | 78km/h | 10413m | -5.4m/s | -38.6°C | 72.3% | 270.5hPa | 0V | 08:00:00 | 00:00:00 | 00:00:00 | |
| PU1XMG-16 | 2026-08-31 13:20:58 | -22.76508 | -42.60226 | 116° | 78km/h | 10446m | -5.8m/s | -38.9°C | 73.5% | 269.2hPa | 0V | 08:00:00 | 00:00:00 | 00:00:00 | |
| PU1XMG-16 | 2026-08-31 13:20:53 | -22.76466 | -42.60323 | 117° | 78km/h | 10474m | -5.8m/s | -39.1°C | 74.0% | 268.2hPa | 0V | 08:00:00 | 00:00:00 | 00:00:00 | |
| PU1XMG-16 | 2026-08-31 13:20:42 | -22.76371 | -42.60530 | 117° | 77km/h | 10535m | -5.9m/s | -39.7°C | 73.3% | 265.8hPa | 0V | 08:00:00 | 00:00:00 | 00:00:00 | |
| PU1XMG-16 | 2026-08-31 13:20:38 | -22.76319 | -42.60642 | 118° | 75km/h | 10570m | -5.7m/s | -40.0°C | 73.8% | 264.4hPa | 0V | 08:00:00 | 00:00:00 | 00:00:00 | |
| PU1XMG-16 | 2026-08-31 13:20:29 | -22.76262 | -42.60769 | 117° | 73km/h | 10611m | -6.3m/s | -40.4°C | 71.1% | 262.8hPa | 0V | 00:00:00 | 00:00:00 | 00:00:00 | |
| PU1XMG-16 | 2026-08-31 13:20:23 | -22.76219 | -42.60860 | 118° | 77km/h | 10641m | -5.9m/s | -40.7°C | 71.2% | 261.7hPa | 0V | 00:00:00 | 00:00:00 | 00:00:00 | |
| PU1XMG-16 | 2026-08-31 13:20:18 | -22.76175 | -42.60952 | 116° | 75km/h | 10670m | -5.5m/s | -40.9°C | 70.6% | 260.6hPa | 0V | 00:00:00 | 00:00:00 | 00:00:00 | |
| PU1XMG-16 | 2026-08-31 13:20:12 | -22.76132 | -42.61063 | 112° | 71km/h | 10703m | -6.2m/s | -41.0°C | 66.9% | 259.3hPa | 0V | 00:00:00 | 00:00:00 | 00:00:00 | |
| PU1XMG-16 | 2026-08-31 13:19:29 | -22.75916 | -42.61927 | 103° | 73km/h | 10953m | -6.9m/s | -42.8°C | 61.5% | 249.9hPa | 0V | 08:02:00 | 00:00:00 | 00:00:00 | |
| PU1XMG-16 | 2026-08-31 13:19:21 | -22.75880 | -42.62105 | 98° | 77km/h | 11009m | -5.9m/s | -43.4°C | 63.0% | 247.8hPa | 0V | 08:02:00 | 00:00:00 | 00:00:00 | |
| PU1XMG-16 | 2026-08-31 13:19:15 | -22.75868 | -42.62213 | 99° | 82km/h | 11036m | -4.2m/s | -43.6°C | 64.2% | 246.8hPa | 0V | 08:02:00 | 00:00:00 | 00:00:00 | |
| PU1XMG-16 | 2026-08-31 13:19:09 | -22.75850 | -42.62345 | 98° | 80km/h | 11072m | -6.3m/s | -44.0°C | 64.6% | 245.5hPa | 0V | 08:02:00 | 00:00:00 | 00:00:00 | |
| PU1XMG-16 | 2026-08-31 13:18:59 | -22.75828 | -42.62562 | 96° | 82km/h | 11132m | -5.9m/s | -44.4°C | 56.8% | 243.4hPa | 0V | 08:02:00 | 00:00:00 | 00:00:00 | |
| PU1XMG-16 | 2026-08-31 13:18:54 | -22.75821 | -42.62676 | 95° | 84km/h | 11162m | -5.7m/s | -44.6°C | 57.3% | 242.3hPa | 0V | 08:02:00 | 00:00:00 | 00:00:00 | |
| PU1XMG-16 | 2026-08-31 13:18:48 | -22.75813 | -42.62810 | 95° | 78km/h | 11196m | -6.5m/s | -45.0°C | 57.9% | 241.1hPa | 0V | 00:00:00 | 00:00:00 | 00:00:00 | |
| PU1XMG-16 | 2026-08-31 13:18:43 | -22.75806 | -42.62919 | 94° | 80km/h | 11226m | -6.0m/s | -45.3°C | 58.9% | 240.0hPa | 0V | 00:00:00 | 00:00:00 | 00:00:00 | |
| PU1XMG-16 | 2026-08-31 13:18:32 | -22.75808 | -42.63162 | 92° | 77km/h | 11292m | -6.4m/s | -45.9°C | 58.4% | 237.7hPa | 0V | 00:00:00 | 00:00:00 | 00:00:00 | |
| PU1XMG-16 | 2026-08-31 13:18:27 | -22.75801 | -42.63290 | 96° | 80km/h | 11322m | -4.8m/s | -46.1°C | 60.0% | 236.6hPa | 0V | 00:00:00 | 00:00:00 | 00:00:00 | |
| PU1XMG-16 | 2026-08-31 13:17:56 | -22.75794 | -42.63977 | 93° | 78km/h | 11482m | -4.9m/s | -47.7°C | 62.2% | 230.9hPa | 0V | 00:00:00 | 00:00:00 | 00:00:00 | |
| PU1XMG-16 | 2026-08-31 13:17:49 | -22.75790 | -42.64109 | 93° | 82km/h | 11512m | -4.7m/s | -47.9°C | 62.1% | 229.9hPa | 0V | 00:00:00 | 00:00:00 | 00:00:00 | |
| PU1XMG-16 | 2026-08-31 13:17:44 | -22.75785 | -42.64246 | 92° | 84km/h | 11546m | -6.1m/s | -48.3°C | 60.6% | 228.8hPa | 0V | 00:00:00 | 00:00:00 | 00:00:00 | |
| PU1XMG-16 | 2026-08-31 13:17:37 | -22.75782 | -42.64382 | 93° | 82km/h | 11582m | -6.1m/s | -48.6°C | 58.7% | 227.5hPa | 0V | 00:00:00 | 00:00:00 | 00:00:00 | |
| PU1XMG-16 | 2026-08-31 13:17:31 | -22.75776 | -42.64520 | 95° | 86km/h | 11614m | -5.6m/s | -48.9°C | 58.2% | 226.4hPa | 0V | 00:00:00 | 00:00:00 | 00:00:00 | |
| PU1XMG-16 | 2026-08-31 13:17:25 | -22.75770 | -42.64659 | 93° | 84km/h | 11647m | -6.3m/s | -49.2°C | 58.3% | 225.2hPa | 0V | 00:00:00 | 00:00:00 | 00:00:00 | |
| PU1XMG-16 | 2026-08-31 13:17:20 | -22.75763 | -42.64799 | 95° | 89km/h | 11680m | -6.2m/s | -49.6°C | 57.1% | 224.1hPa | 0V | 00:00:00 | 00:00:00 | 00:00:00 | |
| PU1XMG-16 | 2026-08-31 13:16:55 | -22.75734 | -42.65372 | 94° | 89km/h | 11810m | -5.1m/s | -50.8°C | 60.8% | 219.6hPa | 0V | 08:04:00 | 00:00:00 | 00:00:00 | |
| PU1XMG-16 | 2026-08-31 13:16:49 | -22.75731 | -42.65519 | 92° | 89km/h | 11840m | -6.3m/s | -51.1°C | 60.4% | 218.7hPa | 0V | 08:04:00 | 00:00:00 | 00:00:00 | |
| PU1XMG-16 | 2026-08-31 13:16:43 | -22.75731 | -42.65665 | 90° | 88km/h | 11873m | -5.6m/s | -51.4°C | 59.8% | 217.5hPa | 0V | 08:04:00 | 00:00:00 | 00:00:00 | |
| PU1XMG-16 | 2026-08-31 13:16:38 | -22.75734 | -42.65786 | 91° | 88km/h | 11900m | -5.3m/s | -51.7°C | 60.2% | 216.6hPa | 0V | 08:04:00 | 00:00:00 | 00:00:00 | |
| PU1XMG-16 | 2026-08-31 13:16:32 | -22.75735 | -42.65935 | 89° | 93km/h | 11934m | -6.0m/s | -51.9°C | 60.2% | 215.5hPa | 0V | 08:04:00 | 00:00:00 | 00:00:00 | |
| PU1XMG-16 | 2026-08-31 13:16:27 | -22.75740 | -42.66062 | 89° | 93km/h | 11962m | -5.3m/s | -52.2°C | 60.8% | 214.6hPa | 0V | 08:04:00 | 00:00:00 | 00:00:00 | |
| PU1XMG-16 | 2026-08-31 13:16:21 | -22.75742 | -42.66215 | 91° | 93km/h | 11996m | -6.2m/s | -52.3°C | 62.0% | 213.5hPa | 0V | 08:04:00 | 00:00:00 | 00:00:00 | |
| PU1XMG-16 | 2026-08-31 13:16:15 | -22.75750 | -42.66373 | 86° | 99km/h | 12030m | -5.3m/s | -52.5°C | 63.0% | 212.3hPa | 0V | 08:05:00 | 00:00:00 | 00:00:00 | |
| PU1XMG-16 | 2026-08-31 13:16:09 | -22.75764 | -42.66537 | 85° | 100km/h | 12064m | -5.9m/s | -52.5°C | 64.9% | 211.2hPa | 0V | 08:05:00 | 00:00:00 | 00:00:00 | |
| PU1XMG-16 | 2026-08-31 13:16:03 | -22.75780 | -42.66705 | 84° | 102km/h | 12100m | -6.0m/s | -52.4°C | 59.0% | 210.1hPa | 0V | 08:05:00 | 00:00:00 | 00:00:00 | |
| PU1XMG-16 | 2026-08-31 13:15:59 | -22.75800 | -42.66842 | 80° | 100km/h | 12130m | -6.2m/s | -52.1°C | 53.9% | 209.1hPa | 0V | 08:05:00 | 00:00:00 | 00:00:00 | |
| PU1XMG-16 | 2026-08-31 13:15:53 | -22.75826 | -42.66977 | 78° | 100km/h | 12160m | -6.4m/s | -52.1°C | 50.4% | 208.1hPa | 0V | 08:05:00 | 00:00:00 | 00:00:00 | |
| PU1XMG-16 | 2026-08-31 13:15:47 | -22.75862 | -42.67139 | 76° | 102km/h | 12195m | -6.5m/s | -51.9°C | 36.5% | 207.1hPa | 0V | 08:05:00 | 00:00:00 | 00:00:00 | |
| PU1XMG-16 | 2026-08-31 13:15:42 | -22.75898 | -42.67276 | 75° | 104km/h | 12225m | -5.4m/s | -51.9°C | 32.2% | 206.1hPa | 0V | 08:05:00 | 00:00:00 | 00:00:00 | |
| PU1XMG-16 | 2026-08-31 13:15:36 | -22.75943 | -42.67441 | 74° | 106km/h | 12260m | -6.1m/s | -51.9°C | 27.9% | 204.9hPa | 0V | 08:05:00 | 00:00:00 | 00:00:00 | |
| PU1XMG-16 | 2026-08-31 13:15:31 | -22.75995 | -42.67609 | 71° | 110km/h | 12298m | -6.8m/s | -52.1°C | 25.0% | 203.8hPa | 0V | 08:05:00 | 00:00:00 | 00:00:00 | |
| PU1XMG-16 | 2026-08-31 13:15:25 | -22.76042 | -42.67751 | 72° | 111km/h | 12329m | -6.5m/s | -52.2°C | 22.2% | 202.8hPa | 0V | 00:00:00 | 00:00:00 | 00:00:00 | |
| PU1XMG-16 | 2026-08-31 13:14:29 | -22.76804 | -42.69415 | 59° | 139km/h | 12690m | -6.4m/s | -54.6°C | 20.2% | 191.7hPa | 0V | 08:07:00 | 00:00:00 | 00:00:00 | |
| PU1XMG-16 | 2026-08-31 13:14:24 | -22.76896 | -42.69580 | 60° | 142km/h | 12724m | -6.2m/s | -54.9°C | 22.8% | 190.7hPa | 0V | 08:07:00 | 00:00:00 | 00:00:00 | |
| PU1XMG-16 | 2026-08-31 13:14:13 | -22.77101 | -42.69947 | 59° | 142km/h | 12796m | -6.4m/s | -55.1°C | 28.3% | 188.6hPa | 0V | 08:07:00 | 00:00:00 | 00:00:00 | |
| PU1XMG-16 | 2026-08-31 13:14:04 | -22.77266 | -42.70243 | 61° | 137km/h | 12853m | -5.8m/s | -55.1°C | 14.3% | 186.9hPa | 0V | 08:07:00 | 00:00:00 | 00:00:00 | |
| PU1XMG-16 | 2026-08-31 13:13:53 | -22.77450 | -42.70599 | 63° | 133km/h | 12922m | -5.6m/s | -55.0°C | 9.7% | 184.9hPa | 0V | 08:07:00 | 00:00:00 | 00:00:00 | |
| PU1XMG-16 | 2026-08-31 13:13:48 | -22.77529 | -42.70761 | 64° | 133km/h | 12956m | -6.7m/s | -55.1°C | 8.5% | 183.9hPa | 0V | 08:07:00 | 00:00:00 | 00:00:00 | |
| PU1XMG-16 | 2026-08-31 13:13:42 | -22.77620 | -42.70958 | 65° | 133km/h | 12994m | -5.9m/s | -55.3°C | 8.2% | 182.8hPa | 0V | 08:08:00 | 00:00:00 | 00:00:00 | |
| PU1XMG-16 | 2026-08-31 13:13:37 | -22.77692 | -42.71125 | 67° | 135km/h | 13028m | -7.2m/s | -55.5°C | 7.8% | 181.9hPa | 0V | 08:08:00 | 00:00:00 | 00:00:00 | |
| PU1XMG-16 | 2026-08-31 13:13:31 | -22.77776 | -42.71330 | 67° | 137km/h | 13068m | -7.5m/s | -55.7°C | 7.4% | 180.7hPa | 0V | 08:08:00 | 00:00:00 | 00:00:00 | |
| PU1XMG-16 | 2026-08-31 13:13:26 | -22.77847 | -42.71504 | 67° | 141km/h | 13101m | -6.6m/s | -55.7°C | 6.9% | 179.8hPa | 0V | 08:08:00 | 00:00:00 | 00:00:00 | |
| PU1XMG-16 | 2026-08-31 13:13:20 | -22.77930 | -42.71717 | 69° | 141km/h | 13135m | -5.8m/s | -55.7°C | 6.7% | 178.8hPa | 0V | 08:08:00 | 00:00:00 | 00:00:00 | |
| PU1XMG-16 | 2026-08-31 13:13:14 | -22.78011 | -42.71930 | 68° | 141km/h | 13168m | -5.8m/s | -55.9°C | 6.8% | 177.9hPa | 0V | 08:08:00 | 00:00:00 | 00:00:00 | |
| PU1XMG-16 | 2026-08-31 13:13:09 | -22.78083 | -42.72104 | 66° | 137km/h | 13200m | -7.0m/s | -56.0°C | 6.5% | 177.0hPa | 0V | 08:08:00 | 00:00:00 | 00:00:00 | |
| PU1XMG-16 | 2026-08-31 13:13:03 | -22.78171 | -42.72305 | 65° | 135km/h | 13240m | -7.2m/s | -56.2°C | 6.1% | 175.9hPa | 0V | 08:08:00 | 00:00:00 | 00:00:00 | |
| PU1XMG-16 | 2026-08-31 13:12:57 | -22.78261 | -42.72502 | 64° | 133km/h | 13280m | -6.9m/s | -56.1°C | 5.7% | 174.8hPa | 0V | 08:08:00 | 00:00:00 | 00:00:00 | |
| PU1XMG-16 | 2026-08-31 13:12:51 | -22.78354 | -42.72693 | 63° | 131km/h | 13319m | -6.4m/s | -56.1°C | 5.6% | 173.8hPa | 0V | 08:08:00 | 00:00:00 | 00:00:00 | |
| PU1XMG-16 | 2026-08-31 13:12:45 | -22.78449 | -42.72882 | 62° | 130km/h | 13358m | -6.4m/s | -56.3°C | 5.6% | 172.7hPa | 0V | 08:08:00 | 00:00:00 | 00:00:00 | |
| PU1XMG-16 | 2026-08-31 13:12:39 | -22.78545 | -42.73066 | 61° | 128km/h | 13397m | -6.6m/s | -56.5°C | 5.6% | 171.6hPa | 0V | 08:08:00 | 00:00:00 | 00:00:00 | |
| PU1XMG-16 | 2026-08-31 13:12:32 | -22.78658 | -42.73280 | 61° | 130km/h | 13443m | -6.6m/s | -56.8°C | 5.6% | 170.4hPa | 0V | 08:08:00 | 00:00:00 | 00:00:00 | |
| PU1XMG-16 | 2026-08-31 13:12:26 | -22.78759 | -42.73463 | 59° | 130km/h | 13482m | -6.7m/s | -57.1°C | 5.7% | 169.4hPa | 0V | 08:08:00 | 00:00:00 | 00:00:00 | |
| PU1XMG-16 | 2026-08-31 13:12:20 | -22.78864 | -42.73643 | 59° | 128km/h | 13522m | -6.7m/s | -57.4°C | 5.7% | 168.3hPa | 0V | 08:08:00 | 00:00:00 | 00:00:00 | |
| PU1XMG-16 | 2026-08-31 13:12:14 | -22.78969 | -42.73821 | 58° | 128km/h | 13561m | -6.6m/s | -57.6°C | 5.8% | 167.3hPa | 0V | 08:08:00 | 00:00:00 | 00:00:00 | |
| PU1XMG-16 | 2026-08-31 13:12:08 | -22.79077 | -42.73997 | 57° | 128km/h | 13600m | -6.9m/s | -57.9°C | 5.8% | 166.2hPa | 0V | 08:08:00 | 00:00:00 | 00:00:00 | |
| PU1XMG-16 | 2026-08-31 13:12:03 | -22.79184 | -42.74173 | 57° | 128km/h | 13640m | -6.5m/s | -58.2°C | 6.0% | 165.2hPa | 0V | 08:09:00 | 00:00:00 | 00:00:00 | |
| PU1XMG-16 | 2026-08-31 13:11:56 | -22.79293 | -42.74345 | 56° | 126km/h | 13680m | -6.7m/s | -58.5°C | 6.1% | 164.1hPa | 0V | 08:09:00 | 00:00:00 | 00:00:00 | |
| PU1XMG-16 | 2026-08-31 13:11:51 | -22.79387 | -42.74482 | 54° | 122km/h | 13714m | -6.6m/s | -58.7°C | 6.2% | 163.3hPa | 0V | 08:09:00 | 00:00:00 | 00:00:00 | |
| PU1XMG-16 | 2026-08-31 13:11:45 | -22.79497 | -42.74642 | 54° | 120km/h | 13753m | -6.7m/s | -59.0°C | 6.4% | 162.2hPa | 0V | 08:09:00 | 00:00:00 | 00:00:00 | |
| PU1XMG-16 | 2026-08-31 13:11:39 | -22.79609 | -42.74801 | 53° | 120km/h | 13794m | -6.9m/s | -59.2°C | 6.6% | 161.2hPa | 0V | 08:09:00 | 00:00:00 | 00:00:00 | |
| PU1XMG-16 | 2026-08-31 13:11:28 | -22.79839 | -42.75105 | 51° | 119km/h | 13877m | -7.3m/s | -59.9°C | 6.9% | 159.0hPa | 0V | 08:09:00 | 00:00:00 | 00:00:00 | |
| PU1XMG-16 | 2026-08-31 13:11:21 | -22.79952 | -42.75254 | 51° | 115km/h | 13919m | -6.9m/s | -60.2°C | 7.0% | 157.9hPa | 0V | 08:09:00 | 00:00:00 | 00:00:00 | |
| PU1XMG-16 | 2026-08-31 13:11:15 | -22.80065 | -42.75396 | 50° | 113km/h | 13962m | -7.0m/s | -60.6°C | 7.0% | 156.9hPa | 0V | 08:09:00 | 00:00:00 | 00:00:00 | |
| PU1XMG-16 | 2026-08-31 13:11:09 | -22.80180 | -42.75538 | 50° | 115km/h | 14004m | -7.1m/s | -61.0°C | 7.4% | 155.8hPa | 0V | 08:10:00 | 00:00:00 | 00:00:00 | |
| PU1XMG-16 | 2026-08-31 13:11:03 | -22.80292 | -42.75679 | 50° | 111km/h | 14045m | -6.1m/s | -61.3°C | 7.7% | 154.8hPa | 0V | 08:10:00 | 00:00:00 | 00:00:00 | |
| PU1XMG-16 | 2026-08-31 13:10:57 | -22.80401 | -42.75815 | 51° | 108km/h | 14085m | -6.9m/s | -61.7°C | 7.8% | 153.8hPa | 0V | 08:10:00 | 00:00:00 | 00:00:00 | |
| PU1XMG-16 | 2026-08-31 13:10:51 | -22.80507 | -42.75949 | 49° | 108km/h | 14128m | -7.5m/s | -62.0°C | 7.7% | 152.7hPa | 0V | 08:10:00 | 00:00:00 | 00:00:00 | |
| PU1XMG-16 | 2026-08-31 13:10:46 | -22.80598 | -42.76059 | 50° | 108km/h | 14163m | -7.2m/s | -62.2°C | 7.7% | 151.9hPa | 0V | 08:10:00 | 00:00:00 | 00:00:00 | |
| PU1XMG-16 | 2026-08-31 13:10:41 | -22.80686 | -42.76173 | 52° | 110km/h | 14197m | -7.2m/s | -62.4°C | 7.5% | 151.1hPa | 0V | 08:10:00 | 00:00:00 | 00:00:00 | |
| PU1XMG-16 | 2026-08-31 13:10:35 | -22.80790 | -42.76309 | 51° | 104km/h | 14238m | -7.4m/s | -62.6°C | 7.2% | 150.1hPa | 0V | 08:10:00 | 00:00:00 | 00:00:00 | |
| PU1XMG-16 | 2026-08-31 13:10:30 | -22.80875 | -42.76416 | 50° | 102km/h | 14273m | -6.7m/s | -62.8°C | 7.2% | 149.3hPa | 0V | 08:10:00 | 00:00:00 | 00:00:00 | |
| PU1XMG-16 | 2026-08-31 13:10:25 | -22.80979 | -42.76546 | 49° | 106km/h | 14313m | -8.2m/s | -62.9°C | 7.1% | 148.3hPa | 0V | 08:10:00 | 00:00:00 | 00:00:00 | |
| PU1XMG-16 | 2026-08-31 13:10:12 | -22.81169 | -42.76784 | 51° | 86km/h | 14402m | -8.0m/s | -63.4°C | 7.1% | 146.2hPa | 0V | 08:11:00 | 00:00:00 | 00:00:00 | |
| PU1XMG-16 | 2026-08-31 13:10:07 | -22.81236 | -42.76875 | 51° | 82km/h | 14437m | -6.6m/s | -63.1°C | 7.1% | 145.4hPa | 0V | 08:11:00 | 00:00:00 | 00:00:00 | |
| PU1XMG-16 | 2026-08-31 13:10:02 | -22.81315 | -42.76969 | 50° | 71km/h | 14482m | -7.2m/s | -62.6°C | 7.0% | 144.4hPa | 0V | 08:11:00 | 00:00:00 | 00:00:00 | |
| PU1XMG-16 | 2026-08-31 13:09:56 | -22.81375 | -42.77055 | 53° | 62km/h | 14531m | -7.9m/s | -62.5°C | 7.0% | 143.3hPa | 0V | 08:11:00 | 00:00:00 | 00:00:00 | |
| PU1XMG-16 | 2026-08-31 13:09:49 | -22.81429 | -42.77129 | 55° | 53km/h | 14581m | -6.4m/s | -62.5°C | 7.0% | 142.3hPa | 0V | 08:11:00 | 00:00:00 | 00:00:00 | |
| PU1XMG-16 | 2026-08-31 13:09:43 | -22.81475 | -42.77197 | 52° | 49km/h | 14627m | -5.1m/s | -61.8°C | 7.3% | 141.4hPa | 0V | 08:11:00 | 00:00:00 | 00:00:00 | |
| PU1XMG-16 | 2026-08-31 13:09:38 | -22.81524 | -42.77250 | 32° | 62km/h | 14641m | 1.6m/s | -61.4°C | 7.1% | 140.7hPa | 0V | 08:11:00 | 00:00:00 | 00:00:00 | |
| PU1XMG-16 | 2026-08-31 13:09:32 | -22.81561 | -42.77289 | 47° | 35km/h | 14666m | -7.6m/s | -61.5°C | 7.3% | 140.0hPa | 0V | 08:11:00 | 00:00:00 | 00:00:00 | |
| PU1XMG-16 | 2026-08-31 13:09:27 | -22.81592 | -42.77320 | 37° | 33km/h | 14697m | -7.6m/s | -61.9°C | 7.8% | 139.3hPa | 0V | 08:12:00 | 00:00:00 | 00:00:00 | |
| PU1XMG-16 | 2026-08-31 13:09:22 | -22.81623 | -42.77345 | 43° | 29km/h | 14729m | -6.4m/s | -61.7°C | 7.8% | 138.6hPa | 0V | 08:12:00 | 00:00:00 | 00:00:00 | |
| PU1XMG-16 | 2026-08-31 13:09:16 | -22.81652 | -42.77371 | 36° | 24km/h | 14768m | -7.7m/s | -61.3°C | 7.9% | 137.7hPa | 0V | 08:12:00 | 00:00:00 | 00:00:00 | |
| PU1XMG-16 | 2026-08-31 13:09:03 | -22.81711 | -42.77418 | 46° | 20km/h | 14858m | -7.1m/s | -62.1°C | 8.9% | 135.7hPa | 0V | 08:12:00 | 00:00:00 | 00:00:00 | |
| PU1XMG-16 | 2026-08-31 13:08:58 | -22.81726 | -42.77438 | 51° | 18km/h | 14894m | -6.3m/s | -62.4°C | 9.3% | 134.9hPa | 0V | 08:12:00 | 00:00:00 | 00:00:00 | |
| PU1XMG-16 | 2026-08-31 13:08:53 | -22.81744 | -42.77454 | 35° | 15km/h | 14938m | -6.1m/s | -62.7°C | 9.9% | 134.0hPa | 0V | 08:12:00 | 00:00:00 | 00:00:00 | |
| PU1XMG-16 | 2026-08-31 13:08:47 | -22.81757 | -42.77469 | 62° | 15km/h | 14972m | -7.5m/s | -63.0°C | 10.2% | 133.2hPa | 0V | 08:12:00 | 00:00:00 | 00:00:00 | |
| PU1XMG-16 | 2026-08-31 13:08:41 | -22.81763 | -42.77491 | 73° | 11km/h | 15015m | -7.9m/s | -63.4°C | 10.8% | 132.3hPa | 0V | 08:12:00 | 00:00:00 | 00:00:00 | |
| PU1XMG-16 | 2026-08-31 13:08:36 | -22.81769 | -42.77503 | 62° | 9km/h | 15048m | -7.1m/s | -63.7°C | 11.6% | 131.6hPa | 0V | 08:13:00 | 00:00:00 | 00:00:00 | |
| PU1XMG-16 | 2026-08-31 13:08:30 | -22.81775 | -42.77516 | 61° | 9km/h | 15090m | -8.3m/s | -63.9°C | 11.5% | 130.8hPa | 0V | 08:13:00 | 00:00:00 | 00:00:00 | |
| PU1XMG-16 | 2026-08-31 13:08:25 | -22.81776 | -42.77524 | 105° | 5km/h | 15127m | -7.4m/s | -64.3°C | 12.3% | 129.9hPa | 0V | 08:13:00 | 00:00:00 | 00:00:00 | |
| PU1XMG-16 | 2026-08-31 13:08:19 | -22.81773 | -42.77532 | 133° | 5km/h | 15169m | -7.1m/s | -64.7°C | 13.2% | 129.1hPa | 0V | 08:13:00 | 00:00:00 | 00:00:00 | |
| PU1XMG-16 | 2026-08-31 13:08:13 | -22.81764 | -42.77535 | 170° | 7km/h | 15211m | -6.7m/s | -65.1°C | 13.7% | 128.2hPa | 0V | 08:13:00 | 00:00:00 | 00:00:00 | |
| PU1XMG-16 | 2026-08-31 13:08:07 | -22.81750 | -42.77538 | 161° | 13km/h | 15257m | -7.3m/s | -65.5°C | 14.3% | 127.2hPa | 0V | 08:13:00 | 00:00:00 | 00:00:00 | |
| PU1XMG-16 | 2026-08-31 13:08:02 | -22.81733 | -42.77551 | 136° | 16km/h | 15303m | -7.2m/s | -65.8°C | 15.1% | 126.2hPa | 0V | 08:13:00 | 00:00:00 | 00:00:00 | |
| PU1XMG-16 | 2026-08-31 13:07:56 | -22.81717 | -42.77568 | 142° | 18km/h | 15337m | -7.9m/s | -66.2°C | 15.6% | 125.5hPa | 0V | 08:13:00 | 00:00:00 | 00:00:00 | |
| PU1XMG-16 | 2026-08-31 13:07:51 | -22.81700 | -42.77583 | 138° | 16km/h | 15372m | -5.9m/s | -66.6°C | 16.3% | 124.8hPa | 0V | 08:13:00 | 00:00:00 | 00:00:00 | |
| PU1XMG-16 | 2026-08-31 13:07:45 | -22.81681 | -42.77595 | 163° | 15km/h | 15414m | -7.0m/s | -67.0°C | 17.0% | 123.9hPa | 0V | 08:13:00 | 00:00:00 | 00:00:00 | |
| PU1XMG-16 | 2026-08-31 13:07:39 | -22.81655 | -42.77603 | 166° | 18km/h | 15458m | -7.3m/s | -67.3°C | 17.5% | 123.0hPa | 0V | 08:13:00 | 00:00:00 | 00:00:00 | |
| PU1XMG-16 | 2026-08-31 13:07:34 | -22.81631 | -42.77609 | 168° | 18km/h | 15495m | -7.2m/s | -67.7°C | 18.2% | 122.3hPa | 0V | 08:13:00 | 00:00:00 | 00:00:00 | |
| PU1XMG-16 | 2026-08-31 13:07:29 | -22.81609 | -42.77616 | 160° | 18km/h | 15531m | -7.3m/s | -67.9°C | 18.7% | 121.5hPa | 0V | 08:13:00 | 00:00:00 | 00:00:00 | |
| PU1XMG-16 | 2026-08-31 13:07:23 | -22.81582 | -42.77632 | 149° | 22km/h | 15574m | -7.8m/s | -68.3°C | 18.6% | 120.7hPa | 0V | 08:13:00 | 00:00:00 | 00:00:00 | |
| PU1XMG-16 | 2026-08-31 13:07:18 | -22.81556 | -42.77650 | 150° | 26km/h | 15611m | -7.5m/s | -68.6°C | 18.5% | 119.9hPa | 0V | 08:13:00 | 00:00:00 | 00:00:00 | |
| PU1XMG-16 | 2026-08-31 13:07:12 | -22.81523 | -42.77674 | 142° | 26km/h | 15656m | -8.1m/s | -68.9°C | 18.4% | 119.0hPa | 0V | 08:13:00 | 00:00:00 | 00:00:00 | |
| PU1XMG-16 | 2026-08-31 13:07:07 | -22.81497 | -42.77697 | 140° | 26km/h | 15695m | -8.0m/s | -69.2°C | 18.0% | 118.3hPa | 0V | 08:13:00 | 00:00:00 | 00:00:00 | |
| PU1XMG-16 | 2026-08-31 13:07:01 | -22.81469 | -42.77724 | 140° | 22km/h | 15742m | -8.1m/s | -69.4°C | 18.2% | 117.3hPa | 0V | 08:13:00 | 00:00:00 | 00:00:00 | |
| PU1XMG-16 | 2026-08-31 13:06:55 | -22.81443 | -42.77748 | 140° | 22km/h | 15789m | -7.7m/s | -69.6°C | 17.5% | 116.4hPa | 0V | 08:14:00 | 00:00:00 | 00:00:00 | |
| PU1XMG-16 | 2026-08-31 13:06:50 | -22.81422 | -42.77768 | 139° | 24km/h | 15828m | -7.7m/s | -70.0°C | 17.4% | 115.7hPa | 0V | 08:14:00 | 00:00:00 | 00:00:00 | |
| PU1XMG-16 | 2026-08-31 13:06:45 | -22.81400 | -42.77789 | 142° | 24km/h | 15866m | -6.8m/s | -70.4°C | 17.2% | 114.9hPa | 0V | 08:14:00 | 00:00:00 | 00:00:00 | |
| PU1XMG-16 | 2026-08-31 13:06:40 | -22.81370 | -42.77812 | 145° | 24km/h | 15911m | -7.5m/s | -70.8°C | 16.7% | 114.1hPa | 0V | 08:14:00 | 00:00:00 | 00:00:00 | |
| PU1XMG-16 | 2026-08-31 13:06:36 | -22.81346 | -42.77831 | 147° | 20km/h | 15948m | -7.7m/s | -71.1°C | 16.4% | 113.3hPa | 0V | 08:14:00 | 00:00:00 | 00:00:00 | |
| PU1XMG-16 | 2026-08-31 13:06:29 | -22.81326 | -42.77848 | 137° | 20km/h | 15984m | -7.2m/s | -71.3°C | 15.7% | 112.7hPa | 0V | 08:14:00 | 00:00:00 | 00:00:00 | |
| PU1XMG-16 | 2026-08-31 13:06:24 | -22.81302 | -42.77876 | 128° | 26km/h | 16029m | -6.9m/s | -71.6°C | 14.8% | 111.8hPa | 0V | 08:14:00 | 00:00:00 | 00:00:00 | |
| PU1XMG-16 | 2026-08-31 13:06:17 | -22.81284 | -42.77910 | 120° | 24km/h | 16074m | -7.9m/s | -71.9°C | 14.1% | 111.0hPa | 0V | 08:14:00 | 00:00:00 | 00:00:00 | |
| PU1XMG-16 | 2026-08-31 13:06:13 | -22.81270 | -42.77938 | 113° | 24km/h | 16113m | -8.0m/s | -72.2°C | 13.5% | 110.2hPa | 0V | 08:14:00 | 00:00:00 | 00:00:00 | |
| PU1XMG-16 | 2026-08-31 13:06:06 | -22.81255 | -42.77979 | 112° | 27km/h | 16160m | -7.8m/s | -72.4°C | 12.9% | 109.3hPa | 0V | 08:14:00 | 00:00:00 | 00:00:00 | |
| PU1XMG-16 | 2026-08-31 13:05:58 | -22.81228 | -42.78030 | 125° | 26km/h | 16222m | -7.1m/s | -72.4°C | 12.4% | 108.2hPa | 0V | 08:15:00 | 00:00:00 | 00:00:00 | |
| PU1XMG-16 | 2026-08-31 13:05:53 | -22.81214 | -42.78058 | 115° | 22km/h | 16260m | -7.3m/s | -72.5°C | 11.9% | 107.5hPa | 0V | 08:15:00 | 00:00:00 | 00:00:00 | |
| PU1XMG-16 | 2026-08-31 13:05:48 | -22.81206 | -42.78087 | 104° | 22km/h | 16299m | -8.0m/s | -72.5°C | 11.6% | 106.8hPa | 0V | 08:15:00 | 00:00:00 | 00:00:00 | |
| PU1XMG-16 | 2026-08-31 13:05:42 | -22.81198 | -42.78126 | 99° | 27km/h | 16348m | -8.9m/s | -72.2°C | 10.9% | 105.9hPa | 0V | 08:15:00 | 00:00:00 | 00:00:00 | |
| PU1XMG-16 | 2026-08-31 13:05:36 | -22.81199 | -42.78171 | 82° | 26km/h | 16395m | -9.1m/s | -72.0°C | 10.5% | 105.0hPa | 0V | 08:15:00 | 00:00:00 | 00:00:00 | |
| PU1XMG-16 | 2026-08-31 13:05:31 | -22.81201 | -42.78206 | 103° | 18km/h | 16444m | -8.5m/s | -72.1°C | 10.1% | 104.2hPa | 0V | 08:15:00 | 00:00:00 | 00:00:00 | |
| PU1XMG-16 | 2026-08-31 13:05:25 | -22.81192 | -42.78241 | 106° | 26km/h | 16492m | -7.7m/s | -71.9°C | 9.6% | 103.3hPa | 0V | 08:15:00 | 00:00:00 | 00:00:00 | |
| PU1XMG-16 | 2026-08-31 13:05:18 | -22.81183 | -42.78277 | 105° | 18km/h | 16538m | -8.1m/s | -71.9°C | 9.1% | 102.5hPa | 0V | 08:15:00 | 00:00:00 | 00:00:00 | |
| PU1XMG-16 | 2026-08-31 13:05:13 | -22.81173 | -42.78303 | 125° | 18km/h | 16586m | -8.2m/s | -72.1°C | 8.9% | 101.7hPa | 0V | 08:16:00 | 00:00:00 | 00:00:00 | |
| PU1XMG-16 | 2026-08-31 13:05:03 | -22.81153 | -42.78340 | 123° | 15km/h | 16661m | -8.2m/s | -72.3°C | 8.4% | 100.4hPa | 0V | 08:16:00 | 00:00:00 | 00:00:00 | |
| PU1XMG-16 | 2026-08-31 13:04:58 | -22.81142 | -42.78355 | 133° | 15km/h | 16702m | -7.7m/s | -72.6°C | 8.3% | 99.7hPa | 0V | 08:16:00 | 00:00:00 | 00:00:00 | |
| PU1XMG-16 | 2026-08-31 13:04:53 | -22.81129 | -42.78371 | 130° | 11km/h | 16747m | -8.0m/s | -73.0°C | 8.1% | 99.0hPa | 0V | 08:16:00 | 00:00:00 | 00:00:00 | |
| PU1XMG-16 | 2026-08-31 13:04:46 | -22.81123 | -42.78383 | 121° | 7km/h | 16793m | -7.8m/s | -73.3°C | 7.7% | 98.2hPa | 0V | 08:16:00 | 00:00:00 | 00:00:00 | |
| PU1XMG-16 | 2026-08-31 13:04:41 | -22.81116 | -42.78395 | 132° | 11km/h | 16841m | -7.0m/s | -73.6°C | 7.6% | 97.4hPa | 0V | 08:16:00 | 00:00:00 | 00:00:00 | |
| PU1XMG-16 | 2026-08-31 13:04:29 | -22.81108 | -42.78412 | 157° | 5km/h | 16933m | -8.6m/s | -74.4°C | 7.4% | 95.8hPa | 0V | 08:16:00 | 00:00:00 | 00:00:00 | |
| PU1XMG-16 | 2026-08-31 13:04:23 | -22.81097 | -42.78421 | 126° | 11km/h | 16981m | -9.1m/s | -74.3°C | 7.1% | 95.1hPa | 0V | 08:17:00 | 00:00:00 | 00:00:00 | |
| PU1XMG-16 | 2026-08-31 13:04:17 | -22.81095 | -42.78434 | 72° | 11km/h | 17020m | -7.8m/s | -74.3°C | 6.9% | 94.4hPa | 0V | 08:17:00 | 00:00:00 | 00:00:00 | |
| PU1XMG-16 | 2026-08-31 13:04:11 | -22.81095 | -42.78454 | 116° | 18km/h | 17068m | -7.5m/s | -74.3°C | 7.0% | 93.6hPa | 0V | 08:17:00 | 00:00:00 | 00:00:00 | |
| PU1XMG-16 | 2026-08-31 13:04:06 | -22.81075 | -42.78489 | 118° | 29km/h | 17115m | -7.9m/s | -74.2°C | 7.3% | 92.9hPa | 0V | 08:17:00 | 00:00:00 | 00:00:00 | |
| PU1XMG-16 | 2026-08-31 13:04:01 | -22.81061 | -42.78525 | 110° | 24km/h | 17151m | -8.3m/s | -73.3°C | 6.8% | 92.3hPa | 0V | 08:17:00 | 00:00:00 | 00:00:00 | |
| PU1XMG-16 | 2026-08-31 13:03:56 | -22.81052 | -42.78555 | 109° | 26km/h | 17191m | -7.5m/s | -72.9°C | 6.8% | 91.7hPa | 0V | 08:17:00 | 00:00:00 | 00:00:00 | |
| PU1XMG-16 | 2026-08-31 13:03:49 | -22.81040 | -42.78594 | 117° | 24km/h | 17239m | -7.9m/s | -68.7°C | 4.5% | 90.9hPa | 0V | 08:17:00 | 00:00:00 | 00:00:00 | |
| PU1XMG-16 | 2026-08-31 13:03:44 | -22.81025 | -42.78620 | 126° | 20km/h | 17279m | -7.8m/s | -68.6°C | 4.2% | 90.3hPa | 0V | 08:17:00 | 00:00:00 | 00:00:00 | |
| PU1XMG-16 | 2026-08-31 13:03:39 | -22.81009 | -42.78642 | 134° | 20km/h | 17321m | -9.0m/s | -68.8°C | 4.3% | 89.7hPa | 0V | 08:17:00 | 00:00:00 | 00:00:00 | |
| PU1XMG-16 | 2026-08-31 13:03:34 | -22.80976 | -42.78662 | 159° | 29km/h | 17371m | -8.9m/s | -68.0°C | 3.8% | 89.0hPa | 0V | 08:17:00 | 00:00:00 | 00:00:00 | |
| PU1XMG-16 | 2026-08-31 13:03:28 | -22.80942 | -42.78677 | 155° | 29km/h | 17415m | -8.7m/s | -68.2°C | 3.7% | 88.3hPa | 0V | 08:18:00 | 00:00:00 | 00:00:00 | |
| PU1XMG-16 | 2026-08-31 13:03:23 | -22.80912 | -42.78699 | 143° | 29km/h | 17459m | -8.9m/s | -68.3°C | 3.8% | 87.7hPa | 0V | 08:18:00 | 00:00:00 | 00:00:00 | |
| PU1XMG-16 | 2026-08-31 13:03:18 | -22.80881 | -42.78725 | 145° | 33km/h | 17503m | -8.2m/s | -68.6°C | 4.0% | 87.0hPa | 0V | 08:18:00 | 00:00:00 | 00:00:00 | |
| PU1XMG-16 | 2026-08-31 13:03:13 | -22.80839 | -42.78761 | 135° | 35km/h | 17556m | -10.0m/s | -68.7°C | 3.9% | 86.3hPa | 0V | 08:18:00 | 00:00:00 | 00:00:00 | |
| PU1XMG-16 | 2026-08-31 13:03:08 | -22.80814 | -42.78797 | 124° | 29km/h | 17600m | -8.8m/s | -68.4°C | 3.9% | 85.6hPa | 0V | 08:18:00 | 00:00:00 | 00:00:00 | |
| PU1XMG-16 | 2026-08-31 13:03:01 | -22.80786 | -42.78835 | 135° | 31km/h | 17656m | -8.8m/s | -67.0°C | 3.4% | 84.8hPa | 0V | 08:18:00 | 00:00:00 | 00:00:00 | |
| PU1XMG-16 | 2026-08-31 13:02:55 | -22.80750 | -42.78876 | 134° | 35km/h | 17711m | -9.9m/s | -66.6°C | 3.1% | 84.1hPa | 0V | 08:18:00 | 00:00:00 | 00:00:00 | |
| PU1XMG-16 | 2026-08-31 13:02:50 | -22.80719 | -42.78913 | 132° | 27km/h | 17767m | -9.7m/s | -66.3°C | 3.0% | 83.3hPa | 0V | 08:18:00 | 00:00:00 | 00:00:00 | |
| PU1XMG-16 | 2026-08-31 13:02:45 | -22.80694 | -42.78945 | 129° | 35km/h | 17811m | -9.1m/s | -66.6°C | 3.0% | 82.7hPa | 0V | 08:18:00 | 00:00:00 | 00:00:00 | |
| PU1XMG-16 | 2026-08-31 13:02:39 | -22.80661 | -42.78994 | 124° | 37km/h | 17867m | -8.9m/s | -66.9°C | 3.1% | 81.9hPa | 0V | 00:00:00 | 00:00:00 | 00:00:00 | |
| PU1XMG-16 | 2026-08-31 13:02:33 | -22.80636 | -42.79035 | 126° | 37km/h | 17911m | -10.0m/s | -66.7°C | 3.0% | 81.3hPa | 0V | 00:00:00 | 00:00:00 | 00:00:00 | |
| PU1XMG-16 | 2026-08-31 13:02:27 | -22.80600 | -42.79091 | 124° | 46km/h | 17969m | -10.1m/s | -66.7°C | 3.0% | 80.5hPa | 0V | 00:00:00 | 00:00:00 | 00:00:00 | |
| PU1XMG-16 | 2026-08-31 13:02:16 | -22.80554 | -42.79202 | 109° | 35km/h | 18077m | -9.9m/s | -66.7°C | 3.1% | 79.1hPa | 0V | 00:00:00 | 00:00:00 | 00:00:00 | |
| PU1XMG-16 | 2026-08-31 13:02:10 | -22.80540 | -42.79247 | 108° | 24km/h | 18137m | -10.4m/s | -65.0°C | 2.7% | 78.3hPa | 0V | 00:00:00 | 00:00:00 | 00:00:00 | |
| PU1XMG-16 | 2026-08-31 13:02:05 | -22.80537 | -42.79279 | 82° | 18km/h | 18196m | -10.1m/s | -64.8°C | 2.7% | 77.6hPa | 0V | 00:00:00 | 00:00:00 | 00:00:00 | |
| PU1XMG-16 | 2026-08-31 13:01:59 | -22.80546 | -42.79313 | 77° | 24km/h | 18256m | -10.2m/s | -64.8°C | 2.6% | 76.8hPa | 0V | 00:00:00 | 00:00:00 | 00:00:00 | |
| PU1XMG-16 | 2026-08-31 13:00:45 | -22.80881 | -42.79893 | 22° | 29km/h | 18978m | -9.0m/s | -62.8°C | 2.1% | 68.3hPa | 0V | 08:20:00 | 00:00:00 | 00:00:00 | |
| PU1XMG-16 | 2026-08-31 13:00:39 | -22.80918 | -42.79908 | 19° | 22km/h | 19035m | -9.6m/s | -62.6°C | 2.0% | 67.6hPa | 0V | 08:20:00 | 00:00:00 | 00:00:00 | |
| PU1XMG-16 | 2026-08-31 13:00:35 | -22.80941 | -42.79912 | 359° | 16km/h | 19083m | -10.3m/s | -62.6°C | 1.9% | 67.1hPa | 0V | 08:20:00 | 00:00:00 | 00:00:00 | |
| PU1XMG-16 | 2026-08-31 13:00:29 | -22.80961 | -42.79910 | 358° | 11km/h | 19141m | -9.3m/s | -63.0°C | 2.0% | 66.4hPa | 0V | 08:20:00 | 00:00:00 | 00:00:00 | |
| PU1XMG-16 | 2026-08-31 13:00:22 | -22.80974 | -42.79906 | 321° | 7km/h | 19202m | -11.0m/s | -63.4°C | 2.1% | 65.8hPa | 0V | 08:20:00 | 00:00:00 | 00:00:00 | |
| PU1XMG-16 | 2026-08-31 13:00:06 | -22.80956 | -42.79886 | 168° | 11km/h | 19376m | -11.0m/s | -63.5°C | 2.1% | 64.0hPa | 0V | 08:21:00 | 00:00:00 | 00:00:00 | |
| PU1XMG-16 | 2026-08-31 13:00:00 | -22.80938 | -42.79894 | 152° | 20km/h | 19428m | -10.8m/s | -63.3°C | 2.0% | 63.4hPa | 0V | 08:21:00 | 00:00:00 | 00:00:00 | |
| PU1XMG-16 | 2026-08-31 12:59:55 | -22.80915 | -42.79912 | 143° | 24km/h | 19481m | -10.2m/s | -63.2°C | 2.0% | 62.9hPa | 0V | 08:21:00 | 00:00:00 | 00:00:00 | |
| PU1XMG-16 | 2026-08-31 12:59:50 | -22.80891 | -42.79929 | 157° | 22km/h | 19535m | -11.6m/s | -63.3°C | 2.0% | 62.3hPa | 0V | 08:21:00 | 00:00:00 | 00:00:00 | |
| PU1XMG-16 | 2026-08-31 12:59:39 | -22.80831 | -42.79947 | 162° | 26km/h | 19653m | -10.3m/s | -63.0°C | 1.9% | 61.2hPa | 0V | 08:21:00 | 00:00:00 | 00:00:00 | |
| PU1XMG-16 | 2026-08-31 12:59:33 | -22.80795 | -42.79966 | 149° | 26km/h | 19720m | -11.3m/s | -62.6°C | 1.8% | 60.4hPa | 0V | 08:21:00 | 00:00:00 | 00:00:00 | |
| PU1XMG-16 | 2026-08-31 12:59:28 | -22.80770 | -42.79984 | 143° | 22km/h | 19770m | -10.1m/s | -62.9°C | 1.8% | 60.0hPa | 0V | 08:21:00 | 00:00:00 | 00:00:00 | |
| PU1XMG-16 | 2026-08-31 12:59:22 | -22.80743 | -42.80012 | 132° | 27km/h | 19835m | -11.5m/s | -63.3°C | 1.8% | 59.3hPa | 0V | 08:21:00 | 00:00:00 | 00:00:00 | |
| PU1XMG-16 | 2026-08-31 12:59:18 | -22.80721 | -42.80040 | 128° | 24km/h | 19889m | -11.1m/s | -63.6°C | 1.8% | 58.8hPa | 0V | 00:00:00 | 00:00:00 | 00:00:00 | |
| PU1XMG-16 | 2026-08-31 12:59:11 | -22.80705 | -42.80068 | 115° | 22km/h | 19955m | -11.1m/s | -64.1°C | 2.0% | 58.2hPa | 0V | 00:00:00 | 00:00:00 | 00:00:00 | |
| PU1XMG-16 | 2026-08-31 12:59:07 | -22.80696 | -42.80100 | 101° | 26km/h | 20009m | -10.9m/s | -64.3°C | 2.1% | 57.7hPa | 0V | 00:00:00 | 00:00:00 | 00:00:00 | |
| PU1XMG-16 | 2026-08-31 12:59:00 | -22.80696 | -42.80135 | 77° | 18km/h | 20074m | -11.2m/s | -64.5°C | 2.1% | 57.0hPa | 0V | 00:00:00 | 00:00:00 | 00:00:00 | |
| PU1XMG-16 | 2026-08-31 12:58:55 | -22.80704 | -42.80152 | 46° | 9km/h | 20132m | -11.4m/s | -64.1°C | 2.1% | 56.5hPa | 0V | 00:00:00 | 00:00:00 | 00:00:00 | |
| PU1XMG-16 | 2026-08-31 12:58:49 | -22.80709 | -42.80157 | 59° | 4km/h | 20199m | -12.3m/s | -63.0°C | 1.9% | 55.9hPa | 0V | 00:00:00 | 00:00:00 | 00:00:00 | |
| PU1XMG-16 | 2026-08-31 12:58:44 | -22.80713 | -42.80161 | 347° | 5km/h | 20268m | -11.1m/s | -62.1°C | 1.7% | 55.3hPa | 0V | 00:00:00 | 00:00:00 | 00:00:00 | |
| PU1XMG-16 | 2026-08-31 12:58:39 | -22.80724 | -42.80160 | 9° | 13km/h | 20327m | -12.2m/s | -62.0°C | 1.7% | 54.7hPa | 0V | 00:00:00 | 00:00:00 | 00:00:00 | |
| PU1XMG-16 | 2026-08-31 12:58:13 | -22.80817 | -42.80168 | 317° | 13km/h | 20626m | -12.5m/s | -61.8°C | 1.7% | 52.2hPa | 0V | 00:00:00 | 00:00:00 | 00:00:00 | |
| PU1XMG-16 | 2026-08-31 12:58:07 | -22.80829 | -42.80158 | 339° | 13km/h | 20683m | -10.6m/s | -61.8°C | 1.7% | 51.7hPa | 0V | 00:00:00 | 00:00:00 | 00:00:00 | |
| PU1XMG-16 | 2026-08-31 12:58:02 | -22.80861 | -42.80153 | 350° | 26km/h | 20751m | -11.5m/s | -61.6°C | 1.6% | 51.1hPa | 0V | 00:00:00 | 00:00:00 | 00:00:00 | |
| PU1XMG-16 | 2026-08-31 12:57:56 | -22.80894 | -42.80142 | 340° | 27km/h | 20809m | -11.4m/s | -61.3°C | 1.6% | 50.6hPa | 0V | 00:00:00 | 00:00:00 | 00:00:00 | |
| PU1XMG-16 | 2026-08-31 12:57:51 | -22.80922 | -42.80127 | 328° | 24km/h | 20866m | -11.1m/s | -61.3°C | 1.6% | 50.2hPa | 0V | 00:00:00 | 00:00:00 | 00:00:00 | |
| PU1XMG-16 | 2026-08-31 12:57:45 | -22.80952 | -42.80103 | 314° | 27km/h | 20932m | -12.7m/s | -61.2°C | 1.6% | 49.6hPa | 0V | 00:00:00 | 00:00:00 | 00:00:00 | |
| PU1XMG-16 | 2026-08-31 12:57:40 | -22.80974 | -42.80063 | 297° | 27km/h | 21001m | -10.8m/s | -61.1°C | 1.7% | 49.1hPa | 0V | 00:00:00 | 00:00:00 | 00:00:00 | |
| PU1XMG-16 | 2026-08-31 12:57:11 | -22.81019 | -42.79951 | 303° | 7km/h | 21318m | -11.0m/s | -60.7°C | 1.5% | 46.6hPa | 0V | 08:24:00 | 00:00:00 | 00:00:00 | |
| PU1XMG-16 | 2026-08-31 12:57:06 | -22.81026 | -42.79942 | 326° | 9km/h | 21373m | -12.1m/s | -60.7°C | 1.6% | 46.2hPa | 0V | 08:24:00 | 00:00:00 | 00:00:00 | |
| PU1XMG-16 | 2026-08-31 12:57:00 | -22.81041 | -42.79934 | 335° | 13km/h | 21443m | -11.4m/s | -60.2°C | 1.5% | 45.7hPa | 0V | 08:24:00 | 00:00:00 | 00:00:00 | |
| PU1XMG-16 | 2026-08-31 12:56:50 | -22.81067 | -42.79908 | 326° | 15km/h | 21572m | -11.7m/s | -59.8°C | 1.5% | 44.8hPa | 0V | 08:24:00 | 00:00:00 | 00:00:00 | |
| PU1XMG-16 | 2026-08-31 12:56:45 | -22.81084 | -42.79899 | 339° | 15km/h | 21631m | -12.2m/s | -59.8°C | 1.5% | 44.3hPa | 0V | 00:00:00 | 00:00:00 | 00:00:00 | |
| PU1XMG-16 | 2026-08-31 12:56:33 | -22.81097 | -42.79873 | 228° | 11km/h | 21777m | -12.5m/s | -59.1°C | 1.4% | 43.3hPa | 0V | 00:00:00 | 00:00:00 | 00:00:00 | |
| PU1XMG-16 | 2026-08-31 12:56:27 | -22.81082 | -42.79855 | 244° | 15km/h | 21852m | -12.8m/s | -58.7°C | 1.3% | 42.8hPa | 0V | 00:00:00 | 00:00:00 | 00:00:00 | |
| PU1XMG-16 | 2026-08-31 12:56:21 | -22.81080 | -42.79838 | 288° | 9km/h | 21926m | -12.4m/s | -58.4°C | 1.3% | 42.3hPa | 0V | 00:00:00 | 00:00:00 | 00:00:00 | |
| PU1XMG-16 | 2026-08-31 12:56:15 | -22.81082 | -42.79820 | 258° | 15km/h | 22001m | -12.7m/s | -58.6°C | 1.4% | 41.8hPa | 0V | 00:00:00 | 00:00:00 | 00:00:00 | |
| PU1XMG-16 | 2026-08-31 12:56:01 | -22.81034 | -42.79764 | 215° | 20km/h | 22178m | -12.2m/s | -58.6°C | 1.3% | 40.6hPa | 0V | 00:00:00 | 00:00:00 | 00:00:00 | |
| PU1XMG-16 | 2026-08-31 12:55:47 | -22.80970 | -42.79726 | 205° | 22km/h | 22344m | -13.5m/s | -59.3°C | 1.4% | 39.6hPa | 0V | 00:00:00 | 00:00:00 | 00:00:00 | |
| PU1XMG-16 | 2026-08-31 12:55:35 | -22.80909 | -42.79708 | 203° | 9km/h | 22520m | -13.9m/s | -59.7°C | 1.4% | 38.5hPa | 0V | 00:00:00 | 00:00:00 | 00:00:00 | |
| PU1XMG-16 | 2026-08-31 12:55:27 | -22.80888 | -42.79697 | 189° | 11km/h | 22630m | -13.8m/s | -59.3°C | 1.3% | 37.8hPa | 0V | 00:00:00 | 00:00:00 | 00:00:00 | |
| PU1XMG-16 | 2026-08-31 12:55:21 | -22.80876 | -42.79697 | 161° | 4km/h | 22714m | -14.5m/s | -59.6°C | 1.4% | 37.3hPa | 0V | 00:00:00 | 00:00:00 | 00:00:00 | |
| PU1XMG-16 | 2026-08-31 12:55:14 | -22.80866 | -42.79697 | 179° | 9km/h | 22798m | -14.9m/s | -59.8°C | 1.4% | 36.8hPa | 0V | 00:00:00 | 00:00:00 | 00:00:00 | |
| PU1XMG-16 | 2026-08-31 12:55:07 | -22.80851 | -42.79707 | 131° | 9km/h | 22912m | -13.7m/s | -59.9°C | 1.4% | 36.1hPa | 0V | 00:00:00 | 00:00:00 | 00:00:00 | |
| PU1XMG-16 | 2026-08-31 12:55:00 | -22.80845 | -42.79726 | 92° | 11km/h | 23013m | -14.8m/s | -60.1°C | 1.4% | 35.5hPa | 0V | 08:26:00 | 00:00:00 | 00:00:00 | |
| PU1XMG-16 | 2026-08-31 12:54:50 | -22.80853 | -42.79760 | 82° | 13km/h | 23158m | -14.8m/s | -60.8°C | 1.5% | 34.7hPa | 0V | 08:26:00 | 00:00:00 | 00:00:00 | |
| PU1XMG-16 | 2026-08-31 12:54:43 | -22.80862 | -42.79772 | 346° | 5km/h | 23259m | -17.3m/s | -60.5°C | 1.5% | 34.2hPa | 0V | 08:26:00 | 00:00:00 | 00:00:00 | |
| PU1XMG-16 | 2026-08-31 12:54:36 | -22.80855 | -42.79778 | 140° | 20km/h | 23349m | -14.0m/s | -60.6°C | 1.5% | 33.6hPa | 0V | 08:26:00 | 00:00:00 | 00:00:00 | |
| PU1XMG-16 | 2026-08-31 12:54:31 | -22.80837 | -42.79799 | 123° | 16km/h | 23419m | -15.2m/s | -60.1°C | 1.5% | 33.3hPa | 0V | 08:26:00 | 00:00:00 | 00:00:00 | |
| PU1XMG-16 | 2026-08-31 12:54:26 | -22.80830 | -42.79811 | 174° | 7km/h | 23511m | -13.6m/s | -59.4°C | 1.5% | 32.8hPa | 0V | 08:26:00 | 00:00:00 | 00:00:00 | |
| PU1XMG-16 | 2026-08-31 12:54:20 | -22.80813 | -42.79814 | 164° | 20km/h | 23578m | -14.0m/s | -59.3°C | 1.5% | 32.4hPa | 0V | 08:26:00 | 00:00:00 | 00:00:00 | |
| PU1XMG-16 | 2026-08-31 12:54:13 | -22.80771 | -42.79848 | 127° | 31km/h | 23703m | -15.1m/s | -58.0°C | 1.3% | 31.8hPa | 0V | 08:26:00 | 00:00:00 | 00:00:00 | |
| PU1XMG-16 | 2026-08-31 12:54:04 | -22.80742 | -42.79891 | 125° | 20km/h | 23821m | -14.9m/s | -58.0°C | 1.3% | 31.2hPa | 0V | 00:00:00 | 00:00:00 | 00:00:00 | |
| PU1XMG-16 | 2026-08-31 12:53:59 | -22.80729 | -42.79918 | 118° | 27km/h | 23896m | -15.5m/s | -57.7°C | 1.3% | 30.8hPa | 0V | 00:00:00 | 00:00:00 | 00:00:00 | |
| PU1XMG-16 | 2026-08-31 12:53:55 | -22.80712 | -42.79967 | 103° | 31km/h | 23988m | -15.7m/s | -57.4°C | 1.2% | 30.4hPa | 0V | 00:00:00 | 00:00:00 | 00:00:00 | |
| PU1XMG-16 | 2026-08-31 12:53:47 | -22.80704 | -42.80009 | 113° | 20km/h | 24082m | -15.2m/s | -56.9°C | 1.2% | 29.9hPa | 0V | 00:00:00 | 00:00:00 | 00:00:00 | |
| PU1XMG-16 | 2026-08-31 12:53:42 | -22.80690 | -42.80037 | 116° | 29km/h | 24160m | -15.6m/s | -56.7°C | 1.2% | 29.5hPa | 0V | 00:00:00 | 00:00:00 | 00:00:00 | |
| PU1XMG-16 | 2026-08-31 12:53:38 | -22.80680 | -42.80076 | 93° | 27km/h | 24236m | -15.3m/s | -56.6°C | 1.1% | 29.2hPa | 0V | 00:00:00 | 00:00:00 | 00:00:00 | |
| PU1XMG-16 | 2026-08-31 12:53:31 | -22.80689 | -42.80114 | 65° | 22km/h | 24329m | -15.1m/s | -56.4°C | 1.1% | 28.7hPa | 0V | 00:00:00 | 00:00:00 | 00:00:00 | |
| PU1XMG-16 | 2026-08-31 12:53:11 | -22.80709 | -42.80185 | 48° | 11km/h | 24646m | -16.2m/s | -56.4°C | 1.1% | 27.3hPa | 0V | 08:28:00 | 00:00:00 | 00:00:00 | |
| PU1XMG-16 | 2026-08-31 12:53:04 | -22.80713 | -42.80210 | 111° | 16km/h | 24757m | -15.6m/s | -56.4°C | 1.2% | 26.8hPa | 0V | 08:28:00 | 00:00:00 | 00:00:00 | |
| PU1XMG-16 | 2026-08-31 12:53:01 | -22.80706 | -42.80231 | 102° | 16km/h | 24835m | -15.4m/s | -56.5°C | 1.1% | 26.5hPa | 0V | 08:28:00 | 00:00:00 | 00:00:00 | |
| PU1XMG-16 | 2026-08-31 12:52:55 | -22.80708 | -42.80253 | 82° | 15km/h | 24913m | -17.6m/s | -56.4°C | 1.2% | 26.2hPa | 0V | 08:28:00 | 00:00:00 | 00:00:00 | |
| PU1XMG-16 | 2026-08-31 12:52:51 | -22.80698 | -42.80262 | 173° | 20km/h | 24997m | -17.2m/s | -56.6°C | 1.2% | 25.8hPa | 0V | 08:28:00 | 00:00:00 | 00:00:00 | |
| PU1XMG-16 | 2026-08-31 12:52:43 | -22.80668 | -42.80282 | 117° | 27km/h | 25103m | -16.6m/s | -56.3°C | 1.2% | 25.4hPa | 0V | 08:28:00 | 00:00:00 | 00:00:00 | |
| PU1XMG-16 | 2026-08-31 12:52:38 | -22.80666 | -42.80318 | 86° | 26km/h | 25190m | -17.5m/s | -55.4°C | 1.2% | 25.1hPa | 0V | 08:28:00 | 00:00:00 | 00:00:00 | |
| PU1XMG-16 | 2026-08-31 12:52:33 | -22.80660 | -42.80350 | 118° | 27km/h | 25277m | -17.3m/s | -54.7°C | 1.1% | 24.7hPa | 0V | 08:28:00 | 00:00:00 | 00:00:00 | |
| PU1XMG-16 | 2026-08-31 12:52:28 | -22.80645 | -42.80386 | 106° | 29km/h | 25367m | -18.0m/s | -54.4°C | 1.1% | 24.4hPa | 0V | 08:29:00 | 00:00:00 | 00:00:00 | |
| PU1XMG-16 | 2026-08-31 12:52:23 | -22.80638 | -42.80425 | 105° | 22km/h | 25475m | -17.8m/s | -53.1°C | 1.0% | 24.0hPa | 0V | 08:29:00 | 00:00:00 | 00:00:00 | |
| PU1XMG-16 | 2026-08-31 12:52:17 | -22.80628 | -42.80466 | 111° | 29km/h | 25587m | -18.2m/s | -52.3°C | 1.0% | 23.6hPa | 0V | 08:29:00 | 00:00:00 | 00:00:00 | |
| PU1XMG-16 | 2026-08-31 12:52:06 | -22.80574 | -42.80542 | 128° | 27km/h | 25792m | -18.9m/s | -50.8°C | 0.9% | 22.8hPa | 0V | 08:29:00 | 00:00:00 | 00:00:00 | |
| PU1XMG-16 | 2026-08-31 12:51:59 | -22.80557 | -42.80586 | 110° | 31km/h | 25900m | -18.7m/s | -50.0°C | 0.8% | 22.4hPa | 0V | 08:29:00 | 00:00:00 | 00:00:00 | |
| PU1XMG-16 | 2026-08-31 12:51:54 | -22.80538 | -42.80628 | 125° | 24km/h | 26019m | -19.1m/s | -49.5°C | 0.8% | 22.0hPa | 0V | 08:29:00 | 00:00:00 | 00:00:00 | |
| PU1XMG-16 | 2026-08-31 12:51:48 | -22.80527 | -42.80656 | 103° | 26km/h | 26116m | -24.3m/s | -49.9°C | 0.8% | 21.7hPa | 0V | 08:29:00 | 00:00:00 | 00:00:00 | |
| PU1XMG-16 | 2026-08-31 12:51:43 | -22.80510 | -42.80691 | 132° | 26km/h | 26239m | -18.8m/s | -50.1°C | 0.8% | 21.3hPa | 0V | 08:29:00 | 00:00:00 | 00:00:00 | |
| PU1XMG-16 | 2026-08-31 12:51:37 | -22.80493 | -42.80717 | 113° | 22km/h | 26345m | -21.9m/s | -50.3°C | 0.8% | 20.9hPa | 0V | 00:00:00 | 00:00:00 | 00:00:00 | |
| PU1XMG-16 | 2026-08-31 12:51:31 | -22.80490 | -42.80753 | 105° | 24km/h | 26467m | -19.2m/s | -50.5°C | 0.8% | 20.5hPa | 0V | 00:00:00 | 00:00:00 | 00:00:00 | |
| PU1XMG-16 | 2026-08-31 12:51:25 | -22.80467 | -42.80782 | 147° | 24km/h | 26593m | -24.6m/s | -50.4°C | 0.8% | 20.2hPa | 0V | 00:00:00 | 00:00:00 | 00:00:00 | |
| PU1XMG-16 | 2026-08-31 12:51:21 | -22.80446 | -42.80801 | 139° | 24km/h | 26701m | -20.3m/s | -50.4°C | 0.9% | 19.8hPa | 0V | 00:00:00 | 00:00:00 | 00:00:00 | |
| PU1XMG-16 | 2026-08-31 12:51:02 | -22.80370 | -42.80884 | 119° | 11km/h | 27073m | -20.4m/s | -49.4°C | 0.8% | 18.7hPa | 0V | 00:00:00 | 00:00:00 | 00:00:00 | |
| PU1XMG-16 | 2026-08-31 12:50:57 | -22.80363 | -42.80903 | 111° | 20km/h | 27172m | -18.9m/s | -49.4°C | 0.8% | 18.4hPa | 0V | 00:00:00 | 00:00:00 | 00:00:00 | |
| PU1XMG-16 | 2026-08-31 12:50:53 | -22.80352 | -42.80937 | 119° | 27km/h | 27265m | -20.5m/s | -49.7°C | 0.8% | 18.1hPa | 0V | 00:00:00 | 00:00:00 | 00:00:00 | |
| PU1XMG-16 | 2026-08-31 12:50:47 | -22.80334 | -42.80953 | 184° | 7km/h | 27395m | -20.5m/s | -49.8°C | 0.8% | 17.8hPa | 0V | 00:00:00 | 00:00:00 | 00:00:00 | |
| PU1XMG-16 | 2026-08-31 12:50:42 | -22.80335 | -42.80956 | 59° | 13km/h | 27493m | -25.8m/s | -49.5°C | 0.8% | 17.5hPa | 0V | 00:00:00 | 00:00:00 | 00:00:00 | |
| PU1XMG-16 | 2026-08-31 12:50:35 | -22.80329 | -42.80986 | 131° | 24km/h | 27669m | -36.2m/s | -49.0°C | 0.7% | 17.1hPa | 0V | 00:00:00 | 00:00:00 | 00:00:00 | |
| PU1XMG-16 | 2026-08-31 12:50:30 | -22.80309 | -42.81004 | 147° | 18km/h | 27833m | -27.8m/s | -49.1°C | 0.8% | 16.6hPa | 0V | 00:00:00 | 00:00:00 | 00:00:00 | |
| PU1XMG-16 | 2026-08-31 12:50:24 | -22.80290 | -42.81035 | 113° | 27km/h | 27944m | -0.4m/s | -48.3°C | 0.8% | 16.3hPa | 0V | 00:00:00 | 00:00:00 | 00:00:00 | |
| PU1XMG-16 | 2026-08-31 12:50:19 | -22.80269 | -42.81067 | 131° | 31km/h | 27912m | 7.2m/s | -48.9°C | 0.9% | 16.4hPa | 0V | 00:00:00 | 00:00:00 | 00:00:00 | |
| PU1XMG-16 | 2026-08-31 12:50:14 | -22.80238 | -42.81097 | 143° | 20km/h | 27872m | 8.2m/s | -48.8°C | 0.8% | 16.4hPa | 0V | 00:00:00 | 00:00:00 | 00:00:00 | |
| PU1XMG-16 | 2026-08-31 12:50:08 | -22.80218 | -42.81114 | 143° | 24km/h | 27833m | 5.3m/s | -49.0°C | 0.8% | 16.5hPa | 0V | 00:00:00 | 00:00:00 | 00:00:00 | |
| PU1XMG-16 | 2026-08-31 12:50:01 | -22.80190 | -42.81152 | 134° | 27km/h | 27791m | 6.1m/s | -49.0°C | 0.8% | 16.7hPa | 0V | 00:00:00 | 00:00:00 | 00:00:00 | |
| PU1XMG-16 | 2026-08-31 12:49:55 | -22.80171 | -42.81180 | 139° | 18km/h | 27749m | 5.9m/s | -48.9°C | 0.8% | 16.8hPa | 0V | 00:00:00 | 00:00:00 | 00:00:00 | |
| PU1XMG-16 | 2026-08-31 12:49:45 | -22.80143 | -42.81234 | 106° | 24km/h | 27679m | 6.5m/s | -49.0°C | 0.8% | 16.9hPa | 0V | 00:00:00 | 00:00:00 | 00:00:00 | |
| PU1XMG-16 | 2026-08-31 12:49:40 | -22.80137 | -42.81259 | 84° | 16km/h | 27636m | 5.4m/s | -48.9°C | 0.8% | 17.1hPa | 0V | 00:00:00 | 00:00:00 | 00:00:00 | |
| PU1XMG-16 | 2026-08-31 12:49:34 | -22.80129 | -42.81292 | 108° | 26km/h | 27594m | 4.6m/s | -49.0°C | 0.8% | 17.2hPa | 0V | 00:00:00 | 00:00:00 | 00:00:00 | |
| PU1XMG-16 | 2026-08-31 12:49:27 | -22.80133 | -42.81319 | 33° | 22km/h | 27551m | 6.3m/s | -49.1°C | 0.8% | 17.3hPa | 0V | 00:00:00 | 00:00:00 | 00:00:00 | |
| PU1XMG-16 | 2026-08-31 12:49:21 | -22.80149 | -42.81342 | 82° | 26km/h | 27512m | 7.3m/s | -49.0°C | 0.9% | 17.4hPa | 0V | 00:00:00 | 00:00:00 | 00:00:00 | |
| PU1XMG-16 | 2026-08-31 12:49:15 | -22.80158 | -42.81370 | 45° | 16km/h | 27469m | 6.6m/s | -49.3°C | 0.9% | 17.5hPa | 0V | 00:00:00 | 00:00:00 | 00:00:00 | |
| PU1XMG-16 | 2026-08-31 12:49:11 | -22.80166 | -42.81376 | 108° | 5km/h | 27437m | 7.3m/s | -49.4°C | 0.9% | 17.6hPa | 0V | 00:00:00 | 00:00:00 | 00:00:00 | |
| PU1XMG-16 | 2026-08-31 12:49:04 | -22.80154 | -42.81403 | 117° | 22km/h | 27393m | 6.8m/s | -49.3°C | 0.9% | 17.7hPa | 0V | 00:00:00 | 00:00:00 | 00:00:00 | |
| PU1XMG-16 | 2026-08-31 12:48:56 | -22.80151 | -42.81433 | 113° | 20km/h | 27338m | 5.2m/s | -49.6°C | 0.9% | 17.9hPa | 0V | 00:00:00 | 00:00:00 | 00:00:00 | |
| PU1XMG-16 | 2026-08-31 12:48:45 | -22.80112 | -42.81505 | 98° | 16km/h | 27257m | 5.7m/s | -49.1°C | 0.9% | 18.1hPa | 0V | 00:00:00 | 00:00:00 | 00:00:00 | |
| PU1XMG-16 | 2026-08-31 12:48:34 | -22.80092 | -42.81547 | 119° | 18km/h | 27188m | 7.6m/s | -48.9°C | 0.8% | 18.3hPa | 0V | 00:00:00 | 00:00:00 | 00:00:00 | |
| PU1XMG-16 | 2026-08-31 12:48:28 | -22.80077 | -42.81578 | 112° | 26km/h | 27148m | 8.0m/s | -48.8°C | 0.8% | 18.4hPa | 0V | 00:00:00 | 00:00:00 | 00:00:00 | |
| PU1XMG-16 | 2026-08-31 12:48:22 | -22.80064 | -42.81613 | 115° | 20km/h | 27108m | 7.1m/s | -48.7°C | 0.9% | 18.5hPa | 0V | 00:00:00 | 00:00:00 | 00:00:00 | |
| PU1XMG-16 | 2026-08-31 12:48:17 | -22.80054 | -42.81635 | 124° | 16km/h | 27077m | 4.5m/s | -48.8°C | 0.9% | 18.6hPa | 0V | 00:00:00 | 00:00:00 | 00:00:00 | |
| PU1XMG-16 | 2026-08-31 12:48:12 | -22.80051 | -42.81660 | 94° | 20km/h | 27043m | 6.6m/s | -49.0°C | 0.9% | 18.7hPa | 0V | 00:00:00 | 00:00:00 | 00:00:00 | |
| PU1XMG-16 | 2026-08-31 12:48:07 | -22.80050 | -42.81683 | 130° | 15km/h | 27011m | 8.7m/s | -48.9°C | 0.8% | 18.8hPa | 0V | 00:00:00 | 00:00:00 | 00:00:00 | |
| PU1XMG-16 | 2026-08-31 12:48:01 | -22.80034 | -42.81699 | 139° | 16km/h | 26971m | 7.3m/s | -48.9°C | 0.8% | 18.9hPa | 0V | 00:00:00 | 00:00:00 | 00:00:00 | |
| PU1XMG-16 | 2026-08-31 12:47:55 | -22.80021 | -42.81727 | 116° | 22km/h | 26934m | 7.4m/s | -49.0°C | 0.8% | 19.0hPa | 0V | 00:00:00 | 00:00:00 | 00:00:00 | |
| PU1XMG-16 | 2026-08-31 12:47:49 | -22.79993 | -42.81757 | 156° | 31km/h | 26895m | 8.9m/s | -49.2°C | 0.8% | 19.1hPa | 0V | 00:00:00 | 00:00:00 | 00:00:00 | |
| PU1XMG-16 | 2026-08-31 12:47:44 | -22.79956 | -42.81781 | 138° | 31km/h | 26857m | 7.5m/s | -49.4°C | 0.9% | 19.3hPa | 0V | 00:00:00 | 00:00:00 | 00:00:00 | |
| PU1XMG-16 | 2026-08-31 12:47:38 | -22.79932 | -42.81816 | 126° | 27km/h | 26825m | 5.8m/s | -49.5°C | 0.9% | 19.4hPa | 0V | 00:00:00 | 00:00:00 | 00:00:00 | |
| PU1XMG-16 | 2026-08-31 12:47:34 | -22.79905 | -42.81832 | 165° | 20km/h | 26793m | 6.1m/s | -49.6°C | 0.9% | 19.4hPa | 0V | 00:00:00 | 00:00:00 | 00:00:00 | |
| PU1XMG-16 | 2026-08-31 12:47:28 | -22.79878 | -42.81853 | 128° | 22km/h | 26755m | 7.1m/s | -49.7°C | 0.9% | 19.6hPa | 0V | 00:00:00 | 00:00:00 | 00:00:00 | |
| PU1XMG-16 | 2026-08-31 12:47:22 | -22.79858 | -42.81881 | 136° | 27km/h | 26724m | 6.2m/s | -49.9°C | 0.9% | 19.7hPa | 0V | 00:00:00 | 00:00:00 | 00:00:00 | |
| PU1XMG-16 | 2026-08-31 12:47:17 | -22.79834 | -42.81900 | 157° | 29km/h | 26691m | 5.9m/s | -50.2°C | 0.9% | 19.8hPa | 0V | 00:00:00 | 00:00:00 | 00:00:00 | |
| PU1XMG-16 | 2026-08-31 12:47:12 | -22.79805 | -42.81917 | 146° | 26km/h | 26661m | 7.7m/s | -50.2°C | 0.9% | 19.9hPa | 0V | 00:00:00 | 00:00:00 | 00:00:00 | |
| PU1XMG-16 | 2026-08-31 12:47:07 | -22.79783 | -42.81941 | 132° | 24km/h | 26628m | 5.8m/s | -50.1°C | 0.9% | 20.0hPa | 0V | 00:00:00 | 00:00:00 | 00:00:00 | |
| PU1XMG-16 | 2026-08-31 12:47:02 | -22.79754 | -42.81961 | 163° | 16km/h | 26591m | 4.5m/s | -50.2°C | 0.9% | 20.1hPa | 0V | 00:00:00 | 00:00:00 | 00:00:00 | |
| PU1XMG-16 | 2026-08-31 12:46:56 | -22.79735 | -42.81974 | 113° | 16km/h | 26559m | 7.9m/s | -50.3°C | 0.9% | 20.2hPa | 0V | 00:00:00 | 00:00:00 | 00:00:00 | |
| PU1XMG-16 | 2026-08-31 12:46:51 | -22.79728 | -42.82008 | 107° | 18km/h | 26521m | 7.7m/s | -50.4°C | 0.9% | 20.3hPa | 0V | 00:00:00 | 00:00:00 | 00:00:00 | |
| PU1XMG-16 | 2026-08-31 12:46:44 | -22.79722 | -42.82027 | 109° | 13km/h | 26484m | 6.0m/s | -50.4°C | 1.0% | 20.4hPa | 0V | 00:00:00 | 00:00:00 | 00:00:00 | |
| PU1XMG-16 | 2026-08-31 12:46:38 | -22.79723 | -42.82062 | 100° | 29km/h | 26447m | 4.9m/s | -50.4°C | 1.0% | 20.5hPa | 0V | 00:00:00 | 00:00:00 | 00:00:00 | |
| PU1XMG-16 | 2026-08-31 12:46:32 | -22.79708 | -42.82089 | 141° | 20km/h | 26409m | 5.3m/s | -50.3°C | 1.0% | 20.7hPa | 0V | 00:00:00 | 00:00:00 | 00:00:00 | |
| PU1XMG-16 | 2026-08-31 12:46:26 | -22.79698 | -42.82116 | 101° | 26km/h | 26370m | 4.7m/s | -50.2°C | 1.0% | 20.8hPa | 0V | 00:00:00 | 00:00:00 | 00:00:00 | |
| PU1XMG-16 | 2026-08-31 12:46:21 | -22.79690 | -42.82146 | 123° | 26km/h | 26337m | 6.2m/s | -50.1°C | 0.9% | 20.9hPa | 0V | 00:00:00 | 00:00:00 | 00:00:00 | |
| PU1XMG-16 | 2026-08-31 12:46:16 | -22.79678 | -42.82173 | 96° | 22km/h | 26305m | 7.3m/s | -50.1°C | 0.9% | 21.0hPa | 0V | 00:00:00 | 00:00:00 | 00:00:00 | |
| PU1XMG-16 | 2026-08-31 12:46:11 | -22.79677 | -42.82208 | 115° | 18km/h | 26266m | 8.3m/s | -50.1°C | 0.9% | 21.1hPa | 0V | 00:00:00 | 00:00:00 | 00:00:00 | |
| PU1XMG-16 | 2026-08-31 12:46:04 | -22.79656 | -42.82241 | 103° | 27km/h | 26219m | 5.7m/s | -49.8°C | 0.9% | 21.3hPa | 0V | 00:00:00 | 00:00:00 | 00:00:00 | |
| PU1XMG-16 | 2026-08-31 12:45:58 | -22.79661 | -42.82280 | 88° | 20km/h | 26179m | 5.8m/s | -49.9°C | 0.9% | 21.4hPa | 0V | 00:00:00 | 00:00:00 | 00:00:00 | |
| PU1XMG-16 | 2026-08-31 12:44:57 | -22.79559 | -42.82689 | 141° | 31km/h | 25770m | 5.4m/s | -50.6°C | 0.9% | 22.8hPa | 0V | 00:00:00 | 00:00:00 | 00:00:00 | |
| PU1XMG-16 | 2026-08-31 12:44:51 | -22.79527 | -42.82739 | 112° | 46km/h | 25728m | 5.9m/s | -50.8°C | 0.9% | 23.0hPa | 0V | 00:00:00 | 00:00:00 | 00:00:00 | |
| PU1XMG-16 | 2026-08-31 12:44:46 | -22.79511 | -42.82782 | 134° | 24km/h | 25693m | 6.2m/s | -51.0°C | 1.0% | 23.1hPa | 0V | 00:00:00 | 00:00:00 | 00:00:00 | |
| PU1XMG-16 | 2026-08-31 12:44:41 | -22.79489 | -42.82810 | 122° | 33km/h | 25653m | 6.0m/s | -51.5°C | 1.0% | 23.3hPa | 0V | 00:00:00 | 00:00:00 | 00:00:00 | |
| PU1XMG-16 | 2026-08-31 12:44:34 | -22.79473 | -42.82863 | 105° | 35km/h | 25611m | 5.6m/s | -51.7°C | 1.0% | 23.4hPa | 0V | 00:00:00 | 00:00:00 | 00:00:00 | |
| PU1XMG-16 | 2026-08-31 12:44:29 | -22.79464 | -42.82898 | 115° | 24km/h | 25577m | 6.9m/s | -51.8°C | 1.0% | 23.5hPa | 0V | 00:00:00 | 00:00:00 | 00:00:00 | |
| PU1XMG-16 | 2026-08-31 12:44:24 | -22.79452 | -42.82929 | 108° | 24km/h | 25543m | 6.2m/s | -52.0°C | 1.0% | 23.6hPa | 0V | 00:00:00 | 00:00:00 | 00:00:00 | |
| PU1XMG-16 | 2026-08-31 12:44:18 | -22.79444 | -42.82967 | 85° | 24km/h | 25503m | 5.7m/s | -52.3°C | 1.0% | 23.8hPa | 0V | 00:00:00 | 00:00:00 | 00:00:00 | |
| PU1XMG-16 | 2026-08-31 12:44:13 | -22.79445 | -42.83000 | 88° | 18km/h | 25469m | 5.9m/s | -52.6°C | 1.0% | 23.9hPa | 0V | 00:00:00 | 00:00:00 | 00:00:00 | |
| PU1XMG-16 | 2026-08-31 12:44:07 | -22.79447 | -42.83036 | 74° | 27km/h | 25428m | 4.6m/s | -52.8°C | 1.0% | 24.1hPa | 0V | 00:00:00 | 00:00:00 | 00:00:00 | |
| PU1XMG-16 | 2026-08-31 12:44:02 | -22.79457 | -42.83090 | 93° | 31km/h | 25388m | 6.4m/s | -53.7°C | 1.1% | 24.2hPa | 0V | 00:00:00 | 00:00:00 | 00:00:00 | |
| PU1XMG-16 | 2026-08-31 12:43:56 | -22.79439 | -42.83123 | 148° | 24km/h | 25354m | 6.2m/s | -54.0°C | 1.1% | 24.3hPa | 0V | 00:00:00 | 00:00:00 | 00:00:00 | |
| PU1XMG-16 | 2026-08-31 12:43:52 | -22.79420 | -42.83147 | 101° | 26km/h | 25321m | 7.6m/s | -54.1°C | 1.1% | 24.5hPa | 0V | 00:00:00 | 00:00:00 | 00:00:00 | |
| PU1XMG-16 | 2026-08-31 12:43:46 | -22.79415 | -42.83187 | 100° | 26km/h | 25289m | 8.0m/s | -54.1°C | 1.2% | 24.6hPa | 0V | 00:00:00 | 00:00:00 | 00:00:00 | |
| PU1XMG-16 | 2026-08-31 12:43:40 | -22.79406 | -42.83219 | 85° | 22km/h | 25252m | 6.1m/s | -54.3°C | 1.2% | 24.8hPa | 0V | 00:00:00 | 00:00:00 | 00:00:00 | |
| PU1XMG-16 | 2026-08-31 12:43:35 | -22.79420 | -42.83254 | 74° | 31km/h | 25219m | 5.4m/s | -54.4°C | 1.1% | 24.9hPa | 0V | 00:00:00 | 00:00:00 | 00:00:00 | |
| PU1XMG-16 | 2026-08-31 12:43:30 | -22.79422 | -42.83296 | 105° | 26km/h | 25179m | 7.1m/s | -55.0°C | 1.2% | 25.0hPa | 0V | 00:00:00 | 00:00:00 | 00:00:00 | |
| PU1XMG-16 | 2026-08-31 12:43:23 | -22.79418 | -42.83339 | 93° | 27km/h | 25140m | 7.2m/s | -55.4°C | 1.2% | 25.2hPa | 0V | 00:00:00 | 00:00:00 | 00:00:00 | |
| PU1XMG-16 | 2026-08-31 12:43:18 | -22.79407 | -42.83371 | 141° | 24km/h | 25102m | 6.3m/s | -55.9°C | 1.2% | 25.3hPa | 0V | 00:00:00 | 00:00:00 | 00:00:00 | |
| PU1XMG-16 | 2026-08-31 12:43:11 | -22.79376 | -42.83391 | 156° | 16km/h | 25057m | 7.7m/s | -55.8°C | 1.2% | 25.5hPa | 0V | 00:00:00 | 00:00:00 | 00:00:00 | |
| PU1XMG-16 | 2026-08-31 12:42:59 | -22.79353 | -42.83408 | 118° | 13km/h | 24990m | 5.5m/s | -56.2°C | 1.2% | 25.8hPa | 0V | 00:00:00 | 00:00:00 | 00:00:00 | |
| PU1XMG-16 | 2026-08-31 12:42:28 | -22.79341 | -42.83496 | 106° | 24km/h | 24787m | 7.3m/s | -56.1°C | 1.2% | 26.6hPa | 0V | 00:00:00 | 00:00:00 | 00:00:00 | |
| PU1XMG-16 | 2026-08-31 12:42:13 | -22.79338 | -42.83553 | 98° | 18km/h | 24703m | 5.9m/s | -55.8°C | 1.2% | 27.0hPa | 0V | 00:00:00 | 00:00:00 | 00:00:00 | |
| PU1XMG-16 | 2026-08-31 12:42:08 | -22.79340 | -42.83579 | 77° | 13km/h | 24672m | 5.7m/s | -55.7°C | 1.2% | 27.2hPa | 0V | 00:00:00 | 00:00:00 | 00:00:00 | |
| PU1XMG-16 | 2026-08-31 12:42:02 | -22.79354 | -42.83580 | 332° | 5km/h | 24634m | 4.8m/s | -55.8°C | 1.3% | 27.3hPa | 0V | 00:00:00 | 00:00:00 | 00:00:00 | |
| PU1XMG-16 | 2026-08-31 12:41:54 | -22.79358 | -42.83592 | 86° | 11km/h | 24584m | 4.8m/s | -56.0°C | 1.3% | 27.5hPa | 0V | 00:00:00 | 00:00:00 | 00:00:00 | |
| PU1XMG-16 | 2026-08-31 12:41:48 | -22.79360 | -42.83600 | 42° | 7km/h | 24547m | 4.0m/s | -56.0°C | 1.2% | 27.7hPa | 0V | 00:00:00 | 00:00:00 | 00:00:00 | |
| PU1XMG-16 | 2026-08-31 12:41:43 | -22.79362 | -42.83607 | 83° | 9km/h | 24515m | 5.8m/s | -56.0°C | 1.2% | 27.8hPa | 0V | 00:00:00 | 00:00:00 | 00:00:00 | |
| PU1XMG-16 | 2026-08-31 12:41:39 | -22.79358 | -42.83627 | 71° | 11km/h | 24476m | 5.4m/s | -56.1°C | 1.2% | 28.0hPa | 0V | 00:00:00 | 00:00:00 | 00:00:00 | |
| PU1XMG-16 | 2026-08-31 12:41:31 | -22.79362 | -42.83638 | 75° | 9km/h | 24439m | 5.8m/s | -55.9°C | 1.2% | 28.2hPa | 0V | 00:00:00 | 00:00:00 | 00:00:00 | |
| PU1XMG-16 | 2026-08-31 12:41:27 | -22.79359 | -42.83654 | 86° | 15km/h | 24406m | 6.5m/s | -56.2°C | 1.2% | 28.3hPa | 0V | 00:00:00 | 00:00:00 | 00:00:00 | |
| PU1XMG-16 | 2026-08-31 12:41:20 | -22.79364 | -42.83675 | 61° | 18km/h | 24369m | 5.1m/s | -56.3°C | 1.2% | 28.5hPa | 0V | 00:00:00 | 00:00:00 | 00:00:00 | |
| PU1XMG-16 | 2026-08-31 12:41:15 | -22.79369 | -42.83697 | 81° | 18km/h | 24336m | 6.5m/s | -56.3°C | 1.2% | 28.7hPa | 0V | 00:00:00 | 00:00:00 | 00:00:00 | |
| PU1XMG-16 | 2026-08-31 12:41:09 | -22.79367 | -42.83732 | 92° | 22km/h | 24297m | 4.3m/s | -56.3°C | 1.2% | 28.8hPa | 0V | 00:00:00 | 00:00:00 | 00:00:00 | |
| PU1XMG-16 | 2026-08-31 12:41:04 | -22.79362 | -42.83762 | 96° | 24km/h | 24263m | 5.7m/s | -56.5°C | 1.2% | 29.0hPa | 0V | 00:00:00 | 00:00:00 | 00:00:00 | |
| PU1XMG-16 | 2026-08-31 12:40:58 | -22.79350 | -42.83801 | 118° | 26km/h | 24223m | 6.3m/s | -56.7°C | 1.3% | 29.2hPa | 0V | 00:00:00 | 00:00:00 | 00:00:00 | |
| PU1XMG-16 | 2026-08-31 12:40:53 | -22.79328 | -42.83831 | 120° | 26km/h | 24191m | 7.1m/s | -56.8°C | 1.3% | 29.3hPa | 0V | 00:00:00 | 00:00:00 | 00:00:00 | |
| PU1XMG-16 | 2026-08-31 12:40:47 | -22.79316 | -42.83860 | 120° | 18km/h | 24153m | 7.8m/s | -56.8°C | 1.3% | 29.5hPa | 0V | 00:00:00 | 00:00:00 | 00:00:00 | |
| PU1XMG-16 | 2026-08-31 12:40:42 | -22.79297 | -42.83890 | 116° | 27km/h | 24112m | 7.3m/s | -57.1°C | 1.3% | 29.7hPa | 0V | 00:00:00 | 00:00:00 | 00:00:00 | |
| PU1XMG-16 | 2026-08-31 12:40:36 | -22.79284 | -42.83930 | 114° | 20km/h | 24074m | 6.1m/s | -57.3°C | 1.3% | 29.9hPa | 0V | 00:00:00 | 00:00:00 | 00:00:00 | |
| PU1XMG-16 | 2026-08-31 12:40:29 | -22.79264 | -42.83970 | 119° | 37km/h | 24034m | 8.1m/s | -57.6°C | 1.4% | 30.1hPa | 0V | 00:00:00 | 00:00:00 | 00:00:00 | |
| PU1XMG-16 | 2026-08-31 12:40:24 | -22.79241 | -42.84012 | 122° | 35km/h | 24001m | 7.1m/s | -57.4°C | 1.3% | 30.2hPa | 0V | 00:00:00 | 00:00:00 | 00:00:00 | |
| PU1XMG-16 | 2026-08-31 12:40:19 | -22.79219 | -42.84056 | 127° | 37km/h | 23968m | 6.5m/s | -57.4°C | 1.3% | 30.4hPa | 0V | 00:00:00 | 00:00:00 | 00:00:00 | |
| PU1XMG-16 | 2026-08-31 12:40:13 | -22.79195 | -42.84093 | 126° | 22km/h | 23929m | 5.2m/s | -57.6°C | 1.3% | 30.6hPa | 0V | 00:00:00 | 00:00:00 | 00:00:00 | |
| PU1XMG-16 | 2026-08-31 12:40:07 | -22.79176 | -42.84133 | 133° | 31km/h | 23889m | 5.8m/s | -57.7°C | 1.3% | 30.8hPa | 0V | 00:00:00 | 00:00:00 | 00:00:00 | |
| PU1XMG-16 | 2026-08-31 12:39:55 | -22.79117 | -42.84173 | 115° | 26km/h | 23806m | 6.1m/s | -57.6°C | 1.3% | 31.2hPa | 0V | 00:00:00 | 00:00:00 | 00:00:00 | |
| PU1XMG-16 | 2026-08-31 12:39:50 | -22.79092 | -42.84215 | 127° | 40km/h | 23773m | 6.7m/s | -57.6°C | 1.3% | 31.3hPa | 0V | 00:00:00 | 00:00:00 | 00:00:00 | |
| PU1XMG-16 | 2026-08-31 12:39:44 | -22.79056 | -42.84249 | 143° | 24km/h | 23731m | 6.6m/s | -57.5°C | 1.2% | 31.6hPa | 0V | 00:00:00 | 00:00:00 | 00:00:00 | |
| PU1XMG-16 | 2026-08-31 12:39:39 | -22.79024 | -42.84287 | 127° | 37km/h | 23692m | 6.0m/s | -57.6°C | 1.2% | 31.8hPa | 0V | 00:00:00 | 00:00:00 | 00:00:00 | |
| PU1XMG-16 | 2026-08-31 12:39:32 | -22.78976 | -42.84321 | 160° | 35km/h | 23652m | 6.9m/s | -57.9°C | 1.4% | 31.9hPa | 0V | 00:00:00 | 00:00:00 | 00:00:00 | |
| PU1XMG-16 | 2026-08-31 12:39:26 | -22.78932 | -42.84344 | 142° | 27km/h | 23610m | 5.5m/s | -58.2°C | 1.3% | 32.2hPa | 0V | 00:00:00 | 00:00:00 | 00:00:00 | |
| PU1XMG-16 | 2026-08-31 12:39:20 | -22.78890 | -42.84369 | 168° | 27km/h | 23569m | 6.6m/s | -58.7°C | 1.4% | 32.4hPa | 0V | 00:00:00 | 00:00:00 | 00:00:00 | |
| PU1XMG-16 | 2026-08-31 12:39:14 | -22.78851 | -42.84372 | 177° | 16km/h | 23528m | 5.3m/s | -58.8°C | 1.3% | 32.6hPa | 0V | 00:00:00 | 00:00:00 | 00:00:00 | |
| PU1XMG-16 | 2026-08-31 12:39:09 | -22.78831 | -42.84378 | 153° | 13km/h | 23486m | 8.4m/s | -58.9°C | 1.4% | 32.8hPa | 0V | 00:00:00 | 00:00:00 | 00:00:00 | |
| PU1XMG-16 | 2026-08-31 12:39:03 | -22.78818 | -42.84385 | 158° | 11km/h | 23453m | 6.1m/s | -59.0°C | 1.4% | 33.0hPa | 0V | 00:00:00 | 00:00:00 | 00:00:00 | |
| PU1XMG-16 | 2026-08-31 12:38:58 | -22.78802 | -42.84397 | 125° | 18km/h | 23420m | 5.4m/s | -59.3°C | 1.4% | 33.2hPa | 0V | 00:00:00 | 00:00:00 | 00:00:00 | |
| PU1XMG-16 | 2026-08-31 12:38:52 | -22.78777 | -42.84422 | 158° | 22km/h | 23381m | 6.6m/s | -59.2°C | 1.3% | 33.4hPa | 0V | 00:00:00 | 00:00:00 | 00:00:00 | |
| PU1XMG-16 | 2026-08-31 12:38:47 | -22.78746 | -42.84439 | 127° | 18km/h | 23341m | 6.9m/s | -59.9°C | 1.4% | 33.6hPa | 0V | 00:00:00 | 00:00:00 | 00:00:00 | |
| PU1XMG-16 | 2026-08-31 12:38:41 | -22.78739 | -42.84461 | 117° | 7km/h | 23309m | 4.8m/s | -60.0°C | 1.4% | 33.8hPa | 0V | 00:00:00 | 00:00:00 | 00:00:00 | |
| PU1XMG-16 | 2026-08-31 12:38:36 | -22.78726 | -42.84462 | 182° | 9km/h | 23270m | 7.8m/s | -60.1°C | 1.5% | 34.0hPa | 0V | 00:00:00 | 00:00:00 | 00:00:00 | |
| PU1XMG-16 | 2026-08-31 12:38:30 | -22.78720 | -42.84471 | 78° | 9km/h | 23239m | 5.0m/s | -59.9°C | 1.4% | 34.2hPa | 0V | 00:00:00 | 00:00:00 | 00:00:00 | |
| PU1XMG-16 | 2026-08-31 12:38:25 | -22.78718 | -42.84483 | 122° | 2km/h | 23207m | 6.7m/s | -60.0°C | 1.4% | 34.3hPa | 0V | 00:00:00 | 00:00:00 | 00:00:00 | |
| PU1XMG-16 | 2026-08-31 12:38:19 | -22.78711 | -42.84483 | 86° | 4km/h | 23169m | 5.3m/s | -60.2°C | 1.5% | 34.5hPa | 0V | 00:00:00 | 00:00:00 | 00:00:00 | |
| PU1XMG-16 | 2026-08-31 12:38:15 | -22.78715 | -42.84499 | 52° | 18km/h | 23136m | 6.6m/s | -60.1°C | 1.5% | 34.7hPa | 0V | 00:00:00 | 00:00:00 | 00:00:00 | |
| PU1XMG-16 | 2026-08-31 12:38:09 | -22.78725 | -42.84515 | 76° | 9km/h | 23105m | 7.6m/s | -60.2°C | 1.5% | 34.9hPa | 0V | 00:00:00 | 00:00:00 | 00:00:00 | |
| PU1XMG-16 | 2026-08-31 12:38:04 | -22.78724 | -42.84533 | 81° | 13km/h | 23067m | 7.3m/s | -60.0°C | 1.5% | 35.1hPa | 0V | 00:00:00 | 00:00:00 | 00:00:00 | |
| PU1XMG-16 | 2026-08-31 12:37:58 | -22.78732 | -42.84556 | 64° | 15km/h | 23037m | 7.7m/s | -59.9°C | 1.4% | 35.3hPa | 0V | 00:00:00 | 00:00:00 | 00:00:00 | |
| PU1XMG-16 | 2026-08-31 12:37:52 | -22.78729 | -42.84573 | 133° | 13km/h | 22998m | 5.7m/s | -59.8°C | 1.4% | 35.5hPa | 0V | 00:00:00 | 00:00:00 | 00:00:00 | |
| PU1XMG-16 | 2026-08-31 12:37:47 | -22.78721 | -42.84597 | 88° | 9km/h | 22962m | 5.2m/s | -59.5°C | 1.4% | 35.7hPa | 0V | 00:00:00 | 00:00:00 | 00:00:00 | |
| PU1XMG-16 | 2026-08-31 12:37:41 | -22.78723 | -42.84610 | 61° | 7km/h | 22931m | 6.0m/s | -59.3°C | 1.4% | 35.9hPa | 0V | 00:00:00 | 00:00:00 | 00:00:00 | |
| PU1XMG-16 | 2026-08-31 12:37:36 | -22.78719 | -42.84623 | 123° | 13km/h | 22901m | 7.9m/s | -59.5°C | 1.4% | 36.0hPa | 0V | 00:00:00 | 00:00:00 | 00:00:00 | |
| PU1XMG-16 | 2026-08-31 12:37:30 | -22.78703 | -42.84642 | 151° | 11km/h | 22864m | 5.0m/s | -59.4°C | 1.4% | 36.3hPa | 0V | 00:00:00 | 00:00:00 | 00:00:00 | |
| PU1XMG-16 | 2026-08-31 12:37:25 | -22.78690 | -42.84647 | 195° | 7km/h | 22833m | 5.6m/s | -59.3°C | 1.4% | 36.5hPa | 0V | 00:00:00 | 00:00:00 | 00:00:00 | |
| PU1XMG-16 | 2026-08-31 12:37:19 | -22.78675 | -42.84645 | 180° | 11km/h | 22794m | 7.8m/s | -59.4°C | 1.4% | 36.7hPa | 0V | 00:00:00 | 00:00:00 | 00:00:00 | |
| PU1XMG-16 | 2026-08-31 12:37:14 | -22.78662 | -42.84647 | 167° | 11km/h | 22764m | 8.2m/s | -59.4°C | 1.4% | 36.9hPa | 0V | 00:00:00 | 00:00:00 | 00:00:00 | |
| PU1XMG-16 | 2026-08-31 12:37:08 | -22.78649 | -42.84648 | 186° | 7km/h | 22729m | 4.8m/s | -59.3°C | 1.4% | 37.1hPa | 0V | 00:00:00 | 00:00:00 | 00:00:00 | |
| PU1XMG-16 | 2026-08-31 12:37:02 | -22.78637 | -42.84645 | 182° | 11km/h | 22693m | 6.0m/s | -59.2°C | 1.4% | 37.3hPa | 0V | 00:00:00 | 00:00:00 | 00:00:00 | |
| PU1XMG-16 | 2026-08-31 12:36:57 | -22.78624 | -42.84642 | 193° | 13km/h | 22662m | 3.9m/s | -59.2°C | 1.4% | 37.5hPa | 0V | 00:00:00 | 00:00:00 | 00:00:00 | |
| PU1XMG-16 | 2026-08-31 12:36:52 | -22.78608 | -42.84636 | 193° | 13km/h | 22633m | 5.0m/s | -59.1°C | 1.4% | 37.7hPa | 0V | 00:00:00 | 00:00:00 | 00:00:00 | |
| PU1XMG-16 | 2026-08-31 12:36:47 | -22.78594 | -42.84626 | 206° | 11km/h | 22603m | 6.0m/s | -59.0°C | 1.4% | 37.9hPa | 0V | 00:00:00 | 00:00:00 | 00:00:00 | |
| PU1XMG-16 | 2026-08-31 12:36:41 | -22.78581 | -42.84612 | 232° | 9km/h | 22568m | 5.4m/s | -59.2°C | 1.4% | 38.1hPa | 0V | 00:00:00 | 00:00:00 | 00:00:00 | |
| PU1XMG-16 | 2026-08-31 12:36:35 | -22.78563 | -42.84601 | 194° | 16km/h | 22534m | 4.6m/s | -59.2°C | 1.4% | 38.3hPa | 0V | 00:00:00 | 00:00:00 | 00:00:00 | |
| PU1XMG-16 | 2026-08-31 12:36:30 | -22.78542 | -42.84591 | 214° | 18km/h | 22503m | 3.2m/s | -59.0°C | 1.3% | 38.5hPa | 0V | 00:00:00 | 00:00:00 | 00:00:00 | |
| PU1XMG-16 | 2026-08-31 12:36:25 | -22.78519 | -42.84576 | 203° | 22km/h | 22474m | 4.6m/s | -59.2°C | 1.5% | 38.7hPa | 0V | 00:00:00 | 00:00:00 | 00:00:00 | |
| PU1XMG-16 | 2026-08-31 12:36:19 | -22.78485 | -42.84563 | 200° | 22km/h | 22437m | 7.1m/s | -59.1°C | 1.4% | 38.9hPa | 0V | 00:00:00 | 00:00:00 | 00:00:00 | |
| PU1XMG-16 | 2026-08-31 12:36:13 | -22.78453 | -42.84548 | 212° | 20km/h | 22402m | 8.0m/s | -59.0°C | 1.4% | 39.1hPa | 0V | 00:00:00 | 00:00:00 | 00:00:00 | |
| PU1XMG-16 | 2026-08-31 12:36:08 | -22.78432 | -42.84530 | 222° | 24km/h | 22372m | 7.9m/s | -58.9°C | 1.4% | 39.3hPa | 0V | 00:00:00 | 00:00:00 | 00:00:00 | |
| PU1XMG-16 | 2026-08-31 12:36:02 | -22.78399 | -42.84504 | 215° | 31km/h | 22335m | 5.5m/s | -58.7°C | 1.4% | 39.5hPa | 0V | 00:00:00 | 00:00:00 | 00:00:00 | |
| PU1XMG-16 | 2026-08-31 12:35:59 | -22.78369 | -42.84484 | 220° | 26km/h | 22304m | 3.4m/s | -58.5°C | 1.3% | 39.7hPa | 0V | 00:00:00 | 00:00:00 | 00:00:00 | |
| PU1XMG-16 | 2026-08-31 12:35:51 | -22.78340 | -42.84464 | 206° | 22km/h | 22269m | 7.2m/s | -58.6°C | 1.4% | 39.9hPa | 0V | 00:00:00 | 00:00:00 | 00:00:00 | |
| PU1XMG-16 | 2026-08-31 12:35:46 | -22.78319 | -42.84447 | 233° | 20km/h | 22239m | 8.0m/s | -58.6°C | 1.4% | 40.1hPa | 0V | 00:00:00 | 00:00:00 | 00:00:00 | |
| PU1XMG-16 | 2026-08-31 12:35:40 | -22.78290 | -42.84423 | 200° | 26km/h | 22202m | 4.6m/s | -58.4°C | 1.4% | 40.4hPa | 0V | 00:00:00 | 00:00:00 | 00:00:00 | |
| PU1XMG-16 | 2026-08-31 12:35:35 | -22.78262 | -42.84404 | 234° | 22km/h | 22173m | 7.2m/s | -58.3°C | 1.3% | 40.6hPa | 0V | 00:00:00 | 00:00:00 | 00:00:00 | |
| PU1XMG-16 | 2026-08-31 12:35:29 | -22.78246 | -42.84374 | 229° | 20km/h | 22136m | 5.3m/s | -58.4°C | 1.3% | 40.8hPa | 0V | 00:00:00 | 00:00:00 | 00:00:00 | |
| PU1XMG-16 | 2026-08-31 12:35:23 | -22.78210 | -42.84347 | 218° | 29km/h | 22098m | 4.9m/s | -58.5°C | 1.3% | 41.0hPa | 0V | 00:00:00 | 00:00:00 | 00:00:00 | |
| PU1XMG-16 | 2026-08-31 12:35:18 | -22.78188 | -42.84322 | 243° | 16km/h | 22069m | 5.5m/s | -58.4°C | 1.4% | 41.2hPa | 0V | 00:00:00 | 00:00:00 | 00:00:00 | |
| PU1XMG-16 | 2026-08-31 12:35:12 | -22.78171 | -42.84299 | 217° | 18km/h | 22031m | 6.5m/s | -58.4°C | 1.3% | 41.5hPa | 0V | 00:00:00 | 00:00:00 | 00:00:00 | |
| PU1XMG-16 | 2026-08-31 12:35:07 | -22.78155 | -42.84283 | 241° | 13km/h | 21998m | 6.6m/s | -58.6°C | 1.4% | 41.7hPa | 0V | 00:00:00 | 00:00:00 | 00:00:00 | |
| PU1XMG-16 | 2026-08-31 12:35:02 | -22.78155 | -42.84264 | 276° | 13km/h | 21961m | 6.4m/s | -58.4°C | 1.4% | 42.0hPa | 0V | 00:00:00 | 00:00:00 | 00:00:00 | |
| PU1XMG-16 | 2026-08-31 12:34:57 | -22.78152 | -42.84252 | 223° | 7km/h | 21933m | 5.2m/s | -58.3°C | 1.3% | 42.1hPa | 0V | 00:00:00 | 00:00:00 | 00:00:00 | |
| PU1XMG-16 | 2026-08-31 12:34:51 | -22.78149 | -42.84232 | 273° | 18km/h | 21896m | 6.7m/s | -58.6°C | 1.4% | 42.4hPa | 0V | 00:00:00 | 00:00:00 | 00:00:00 | |
| PU1XMG-16 | 2026-08-31 12:34:45 | -22.78136 | -42.84214 | 192° | 20km/h | 21861m | 6.7m/s | -58.6°C | 1.4% | 42.6hPa | 0V | 00:00:00 | 00:00:00 | 00:00:00 | |
| PU1XMG-16 | 2026-08-31 12:34:39 | -22.78116 | -42.84207 | 228° | 16km/h | 21833m | 6.9m/s | -58.5°C | 1.4% | 42.8hPa | 0V | 00:00:00 | 00:00:00 | 00:00:00 | |
| PU1XMG-16 | 2026-08-31 12:34:33 | -22.78102 | -42.84181 | 232° | 16km/h | 21796m | 7.5m/s | -59.0°C | 1.4% | 43.1hPa | 0V | 00:00:00 | 00:00:00 | 00:00:00 | |
| PU1XMG-16 | 2026-08-31 12:34:28 | -22.78089 | -42.84171 | 216° | 7km/h | 21767m | 4.2m/s | -59.2°C | 1.4% | 43.3hPa | 0V | 00:00:00 | 00:00:00 | 00:00:00 | |
| PU1XMG-16 | 2026-08-31 12:34:23 | -22.78079 | -42.84154 | 248° | 15km/h | 21730m | 6.9m/s | -59.4°C | 1.4% | 43.5hPa | 0V | 00:00:00 | 00:00:00 | 00:00:00 | |
| PU1XMG-16 | 2026-08-31 12:34:16 | -22.78081 | -42.84138 | 338° | 7km/h | 21693m | 6.5m/s | -59.8°C | 1.5% | 43.8hPa | 0V | 00:00:00 | 00:00:00 | 00:00:00 | |
| PU1XMG-16 | 2026-08-31 12:34:10 | -22.78087 | -42.84142 | 273° | 7km/h | 21656m | 4.6m/s | -59.9°C | 1.5% | 44.1hPa | 0V | 00:00:00 | 00:00:00 | 00:00:00 | |
| PU1XMG-16 | 2026-08-31 12:34:05 | -22.78094 | -42.84124 | 300° | 22km/h | 21625m | 5.8m/s | -59.8°C | 1.4% | 44.3hPa | 0V | 00:00:00 | 00:00:00 | 00:00:00 | |
| PU1XMG-16 | 2026-08-31 12:33:59 | -22.78112 | -42.84110 | 334° | 7km/h | 21590m | 5.8m/s | -59.7°C | 1.5% | 44.5hPa | 0V | 00:00:00 | 00:00:00 | 00:00:00 | |
| PU1XMG-16 | 2026-08-31 12:33:54 | -22.78117 | -42.84099 | 269° | 20km/h | 21558m | 4.9m/s | -59.8°C | 1.5% | 44.8hPa | 0V | 00:00:00 | 00:00:00 | 00:00:00 | |
| PU1XMG-16 | 2026-08-31 12:33:48 | -22.78122 | -42.84073 | 316° | 5km/h | 21522m | 6.6m/s | -59.9°C | 1.5% | 45.0hPa | 0V | 00:00:00 | 00:00:00 | 00:00:00 | |
| PU1XMG-16 | 2026-08-31 12:33:37 | -22.78140 | -42.84054 | 304° | 20km/h | 21452m | 7.3m/s | -60.2°C | 1.5% | 45.5hPa | 0V | 00:00:00 | 00:00:00 | 00:00:00 | |
| PU1XMG-16 | 2026-08-31 12:33:31 | -22.78148 | -42.84042 | 38° | 2km/h | 21413m | 5.6m/s | -60.4°C | 1.5% | 45.8hPa | 0V | 00:00:00 | 00:00:00 | 00:00:00 | |
| PU1XMG-16 | 2026-08-31 12:33:26 | -22.78151 | -42.84031 | 304° | 16km/h | 21377m | 5.4m/s | -60.4°C | 1.5% | 46.1hPa | 0V | 00:00:00 | 00:00:00 | 00:00:00 | |
| PU1XMG-16 | 2026-08-31 12:32:15 | -22.78269 | -42.83782 | 313° | 29km/h | 20939m | 5.8m/s | -60.8°C | 1.7% | 49.4hPa | 0V | 00:00:00 | 00:00:00 | 00:00:00 | |
| PU1XMG-16 | 2026-08-31 12:32:06 | -22.78297 | -42.83735 | 313° | 22km/h | 20895m | 6.7m/s | -60.8°C | 1.6% | 49.8hPa | 0V | 00:00:00 | 00:00:00 | 00:00:00 | |
| PU1XMG-16 | 2026-08-31 12:32:00 | -22.78321 | -42.83714 | 327° | 24km/h | 20860m | 4.8m/s | -60.9°C | 1.7% | 50.1hPa | 0V | 00:00:00 | 00:00:00 | 00:00:00 | |
| PU1XMG-16 | 2026-08-31 12:31:54 | -22.78362 | -42.83697 | 350° | 27km/h | 20824m | 6.2m/s | -61.0°C | 1.7% | 50.4hPa | 0V | 00:00:00 | 00:00:00 | 00:00:00 | |
| PU1XMG-16 | 2026-08-31 12:31:48 | -22.78398 | -42.83691 | 354° | 24km/h | 20789m | 6.6m/s | -61.3°C | 1.7% | 50.7hPa | 0V | 00:00:00 | 00:00:00 | 00:00:00 | |
| PU1XMG-16 | 2026-08-31 12:31:43 | -22.78441 | -42.83690 | 360° | 31km/h | 20756m | 4.1m/s | -61.5°C | 1.7% | 50.9hPa | 0V | 00:00:00 | 00:00:00 | 00:00:00 | |
| PU1XMG-16 | 2026-08-31 12:31:37 | -22.78477 | -42.83694 | 6° | 24km/h | 20727m | 3.6m/s | -61.5°C | 1.7% | 51.2hPa | 0V | 00:00:00 | 00:00:00 | 00:00:00 | |
| PU1XMG-16 | 2026-08-31 12:31:32 | -22.78498 | -42.83697 | 358° | 15km/h | 20699m | 4.3m/s | -61.8°C | 1.7% | 51.4hPa | 0V | 00:00:00 | 00:00:00 | 00:00:00 | |
| PU1XMG-16 | 2026-08-31 12:31:27 | -22.78516 | -42.83694 | 345° | 16km/h | 20670m | 4.8m/s | -62.0°C | 1.8% | 51.7hPa | 0V | 00:00:00 | 00:00:00 | 00:00:00 | |
| PU1XMG-16 | 2026-08-31 12:31:21 | -22.78536 | -42.83689 | 359° | 13km/h | 20634m | 6.4m/s | -62.2°C | 1.9% | 52.0hPa | 0V | 00:00:00 | 00:00:00 | 00:00:00 | |
| PU1XMG-16 | 2026-08-31 12:31:15 | -22.78561 | -42.83680 | 342° | 22km/h | 20601m | 4.6m/s | -62.5°C | 1.8% | 52.3hPa | 0V | 00:00:00 | 00:00:00 | 00:00:00 | |
| PU1XMG-16 | 2026-08-31 12:31:10 | -22.78585 | -42.83670 | 3° | 13km/h | 20573m | 4.7m/s | -62.7°C | 1.9% | 52.5hPa | 0V | 00:00:00 | 00:00:00 | 00:00:00 | |
| PU1XMG-16 | 2026-08-31 12:31:04 | -22.78601 | -42.83675 | 15° | 16km/h | 20540m | 5.7m/s | -62.9°C | 1.9% | 52.8hPa | 0V | 00:00:00 | 00:00:00 | 00:00:00 | |
| PU1XMG-16 | 2026-08-31 12:30:59 | -22.78627 | -42.83679 | 27° | 22km/h | 20513m | 4.7m/s | -62.7°C | 2.0% | 53.0hPa | 0V | 00:00:00 | 00:00:00 | 00:00:00 | |
| PU1XMG-16 | 2026-08-31 12:30:53 | -22.78650 | -42.83696 | 39° | 18km/h | 20481m | 4.3m/s | -62.7°C | 2.0% | 53.3hPa | 0V | 00:00:00 | 00:00:00 | 00:00:00 | |
| PU1XMG-16 | 2026-08-31 12:30:48 | -22.78669 | -42.83706 | 17° | 20km/h | 20453m | 3.6m/s | -62.7°C | 2.0% | 53.5hPa | 0V | 00:00:00 | 00:00:00 | 00:00:00 | |
| PU1XMG-16 | 2026-08-31 12:30:43 | -22.78691 | -42.83714 | 33° | 20km/h | 20425m | 3.9m/s | -62.6°C | 2.0% | 53.8hPa | 0V | 00:00:00 | 00:00:00 | 00:00:00 | |
| PU1XMG-16 | 2026-08-31 12:30:39 | -22.78707 | -42.83724 | 24° | 15km/h | 20397m | 5.4m/s | -62.5°C | 2.0% | 54.0hPa | 0V | 00:00:00 | 00:00:00 | 00:00:00 | |
| PU1XMG-16 | 2026-08-31 12:30:32 | -22.78730 | -42.83723 | 8° | 15km/h | 20366m | 4.2m/s | -62.4°C | 2.0% | 54.3hPa | 0V | 00:00:00 | 00:00:00 | 00:00:00 | |
| PU1XMG-16 | 2026-08-31 12:30:27 | -22.78740 | -42.83731 | 95° | 7km/h | 20338m | 5.2m/s | -62.6°C | 1.9% | 54.5hPa | 0V | 00:00:00 | 00:00:00 | 00:00:00 | |
| PU1XMG-16 | 2026-08-31 12:30:21 | -22.78742 | -42.83734 | 328° | 9km/h | 20303m | 4.9m/s | -63.1°C | 2.0% | 54.9hPa | 0V | 00:00:00 | 00:00:00 | 00:00:00 | |
| PU1XMG-16 | 2026-08-31 12:30:17 | -22.78758 | -42.83730 | 353° | 7km/h | 20276m | 3.9m/s | -63.2°C | 2.0% | 55.1hPa | 0V | 00:00:00 | 00:00:00 | 00:00:00 | |
| PU1XMG-16 | 2026-08-31 12:30:11 | -22.78762 | -42.83733 | 0° | 0km/h | 20249m | 5.4m/s | -64.1°C | 2.1% | 55.3hPa | 0V | 00:00:00 | 00:00:00 | 00:00:00 | |
| PU1XMG-16 | 2026-08-31 12:30:05 | -22.78774 | -42.83738 | 25° | 15km/h | 20217m | 5.0m/s | -64.4°C | 2.2% | 55.6hPa | 0V | 00:00:00 | 00:00:00 | 00:00:00 | |
| PU1XMG-16 | 2026-08-31 12:29:58 | -22.78788 | -42.83751 | 49° | 7km/h | 20180m | 6.2m/s | -65.1°C | 2.3% | 56.0hPa | 0V | 00:00:00 | 00:00:00 | 00:00:00 | |
| PU1XMG-16 | 2026-08-31 12:29:53 | -22.78800 | -42.83767 | 65° | 18km/h | 20151m | 4.7m/s | -65.1°C | 2.4% | 56.2hPa | 0V | 00:00:00 | 00:00:00 | 00:00:00 | |
| PU1XMG-16 | 2026-08-31 12:29:46 | -22.78806 | -42.83805 | 96° | 20km/h | 20112m | 6.3m/s | -64.9°C | 2.4% | 56.6hPa | 0V | 00:00:00 | 00:00:00 | 00:00:00 | |
| PU1XMG-16 | 2026-08-31 12:29:42 | -22.78804 | -42.83830 | 100° | 20km/h | 20082m | 4.3m/s | -64.9°C | 2.4% | 56.9hPa | 0V | 00:00:00 | 00:00:00 | 00:00:00 | |
| PU1XMG-16 | 2026-08-31 12:29:37 | -22.78799 | -42.83853 | 108° | 20km/h | 20053m | 5.5m/s | -64.8°C | 2.4% | 57.1hPa | 0V | 00:00:00 | 00:00:00 | 00:00:00 | |
| PU1XMG-16 | 2026-08-31 12:29:30 | -22.78792 | -42.83882 | 101° | 20km/h | 20020m | 5.0m/s | -64.6°C | 2.3% | 57.5hPa | 0V | 00:00:00 | 00:00:00 | 00:00:00 | |
| PU1XMG-16 | 2026-08-31 12:29:24 | -22.78780 | -42.83915 | 128° | 16km/h | 19980m | 6.8m/s | -64.3°C | 2.3% | 57.8hPa | 0V | 00:00:00 | 00:00:00 | 00:00:00 | |
| PU1XMG-16 | 2026-08-31 12:28:43 | -22.78602 | -42.84030 | 160° | 13km/h | 19734m | 7.3m/s | -64.7°C | 2.4% | 60.2hPa | 0V | 00:00:00 | 00:00:00 | 00:00:00 | |
| PU1XMG-16 | 2026-08-31 12:28:35 | -22.78578 | -42.84042 | 151° | 16km/h | 19692m | 7.1m/s | -64.5°C | 2.3% | 60.7hPa | 0V | 00:00:00 | 00:00:00 | 00:00:00 | |
| PU1XMG-16 | 2026-08-31 12:28:29 | -22.78556 | -42.84055 | 147° | 16km/h | 19658m | 5.0m/s | -64.4°C | 2.4% | 61.0hPa | 0V | 00:00:00 | 00:00:00 | 00:00:00 | |
| PU1XMG-16 | 2026-08-31 12:28:24 | -22.78537 | -42.84066 | 156° | 18km/h | 19628m | 6.3m/s | -64.3°C | 2.3% | 61.3hPa | 0V | 00:00:00 | 00:00:00 | 00:00:00 | |
| PU1XMG-16 | 2026-08-31 12:28:18 | -22.78512 | -42.84080 | 156° | 18km/h | 19592m | 5.8m/s | -64.3°C | 2.3% | 61.6hPa | 0V | 00:00:00 | 00:00:00 | 00:00:00 | |
| PU1XMG-16 | 2026-08-31 12:28:13 | -22.78490 | -42.84093 | 160° | 22km/h | 19563m | 7.1m/s | -64.1°C | 2.3% | 61.9hPa | 0V | 00:00:00 | 00:00:00 | 00:00:00 | |
| PU1XMG-16 | 2026-08-31 12:28:07 | -22.78470 | -42.84101 | 194° | 7km/h | 19530m | 5.5m/s | -64.0°C | 2.3% | 62.3hPa | 0V | 00:00:00 | 00:00:00 | 00:00:00 | |
| PU1XMG-16 | 2026-08-31 12:28:02 | -22.78463 | -42.84101 | 182° | 11km/h | 19501m | 5.4m/s | -64.3°C | 2.3% | 62.6hPa | 0V | 00:00:00 | 00:00:00 | 00:00:00 | |
| PU1XMG-16 | 2026-08-31 12:27:56 | -22.78444 | -42.84100 | 200° | 9km/h | 19465m | 6.4m/s | -64.2°C | 2.5% | 63.0hPa | 0V | 00:00:00 | 00:00:00 | 00:00:00 | |
| PU1XMG-16 | 2026-08-31 12:27:51 | -22.78436 | -42.84094 | 206° | 4km/h | 19436m | 6.8m/s | -64.1°C | 2.3% | 63.2hPa | 0V | 00:00:00 | 00:00:00 | 00:00:00 | |
| PU1XMG-16 | 2026-08-31 12:27:46 | -22.78429 | -42.84090 | 234° | 5km/h | 19407m | 7.1m/s | -63.9°C | 2.3% | 63.5hPa | 0V | 00:00:00 | 00:00:00 | 00:00:00 | |
| PU1XMG-16 | 2026-08-31 12:27:41 | -22.78429 | -42.84078 | 300° | 15km/h | 19375m | 5.3m/s | -63.8°C | 2.4% | 63.9hPa | 0V | 00:00:00 | 00:00:00 | 00:00:00 | |
| PU1XMG-16 | 2026-08-31 12:27:36 | -22.78434 | -42.84061 | 261° | 5km/h | 19340m | 6.3m/s | -63.9°C | 2.4% | 64.2hPa | 0V | 00:00:00 | 00:00:00 | 00:00:00 | |
| PU1XMG-16 | 2026-08-31 12:27:29 | -22.78434 | -42.84053 | 288° | 13km/h | 19305m | 4.8m/s | -63.9°C | 2.4% | 64.6hPa | 0V | 00:00:00 | 00:00:00 | 00:00:00 | |
| PU1XMG-16 | 2026-08-31 12:27:24 | -22.78444 | -42.84034 | 296° | 18km/h | 19276m | 5.9m/s | -63.7°C | 2.4% | 64.9hPa | 0V | 00:00:00 | 00:00:00 | 00:00:00 | |
| PU1XMG-16 | 2026-08-31 12:27:19 | -22.78457 | -42.84023 | 349° | 13km/h | 19251m | 5.6m/s | -63.6°C | 2.4% | 65.2hPa | 0V | 00:00:00 | 00:00:00 | 00:00:00 | |
| PU1XMG-16 | 2026-08-31 12:27:13 | -22.78472 | -42.84022 | 315° | 11km/h | 19216m | 5.0m/s | -63.3°C | 2.5% | 65.6hPa | 0V | 00:00:00 | 00:00:00 | 00:00:00 | |
| PU1XMG-16 | 2026-08-31 12:26:34 | -22.78700 | -42.84040 | 24° | 37km/h | 18981m | 5.4m/s | -62.5°C | 2.5% | 68.1hPa | 0V | 00:00:00 | 00:00:00 | 00:00:00 | |
| PU1XMG-16 | 2026-08-31 12:26:27 | -22.78752 | -42.84069 | 33° | 37km/h | 18936m | 6.3m/s | -62.7°C | 2.5% | 68.6hPa | 0V | 00:00:00 | 00:00:00 | 00:00:00 | |
| PU1XMG-16 | 2026-08-31 12:26:18 | -22.78839 | -42.84119 | 30° | 47km/h | 18884m | 4.4m/s | -62.8°C | 2.6% | 69.2hPa | 0V | 00:00:00 | 00:00:00 | 00:00:00 | |
| PU1XMG-16 | 2026-08-31 12:26:08 | -22.78930 | -42.84193 | 45° | 44km/h | 18833m | 2.3m/s | -62.9°C | 2.6% | 69.8hPa | 0V | 00:00:00 | 00:00:00 | 00:00:00 | |
| PU1XMG-16 | 2026-08-31 12:26:03 | -22.78975 | -42.84243 | 47° | 44km/h | 18802m | 7.4m/s | -62.9°C | 2.7% | 70.1hPa | 0V | 00:00:00 | 00:00:00 | 00:00:00 | |
| PU1XMG-16 | 2026-08-31 12:25:57 | -22.79026 | -42.84299 | 48° | 49km/h | 18768m | 5.8m/s | -63.3°C | 2.6% | 70.5hPa | 0V | 00:00:00 | 00:00:00 | 00:00:00 | |
| PU1XMG-16 | 2026-08-31 12:25:50 | -22.79072 | -42.84360 | 53° | 46km/h | 18735m | 3.7m/s | -63.8°C | 2.9% | 70.9hPa | 0V | 00:00:00 | 00:00:00 | 00:00:00 | |
| PU1XMG-16 | 2026-08-31 12:25:45 | -22.79106 | -42.84409 | 53° | 44km/h | 18709m | 3.3m/s | -64.2°C | 2.8% | 71.2hPa | 0V | 00:00:00 | 00:00:00 | 00:00:00 | |
| PU1XMG-16 | 2026-08-31 12:25:40 | -22.79136 | -42.84466 | 66° | 51km/h | 18681m | 4.6m/s | -64.6°C | 3.0% | 71.5hPa | 0V | 00:00:00 | 00:00:00 | 00:00:00 | |
| PU1XMG-16 | 2026-08-31 12:25:34 | -22.79164 | -42.84536 | 64° | 44km/h | 18649m | 5.7m/s | -64.9°C | 3.2% | 71.9hPa | 0V | 00:00:00 | 00:00:00 | 00:00:00 | |
| PU1XMG-16 | 2026-08-31 12:25:28 | -22.79195 | -42.84600 | 61° | 46km/h | 18616m | 5.8m/s | -64.8°C | 3.2% | 72.3hPa | 0V | 00:00:00 | 00:00:00 | 00:00:00 | |
| PU1XMG-16 | 2026-08-31 12:25:19 | -22.79233 | -42.84690 | 75° | 31km/h | 18564m | 4.4m/s | -64.6°C | 3.3% | 72.9hPa | 0V | 00:00:00 | 00:00:00 | 00:00:00 | |
| PU1XMG-16 | 2026-08-31 12:25:14 | -22.79243 | -42.84737 | 75° | 38km/h | 18536m | 5.2m/s | -64.5°C | 3.3% | 73.2hPa | 0V | 00:00:00 | 00:00:00 | 00:00:00 | |
| PU1XMG-16 | 2026-08-31 12:25:09 | -22.79263 | -42.84798 | 71° | 38km/h | 18501m | 4.2m/s | -64.2°C | 3.3% | 73.7hPa | 0V | 00:00:00 | 00:00:00 | 00:00:00 | |
| PU1XMG-16 | 2026-08-31 12:25:02 | -22.79277 | -42.84854 | 78° | 37km/h | 18464m | 5.9m/s | -64.0°C | 3.4% | 74.1hPa | 0V | 00:00:00 | 00:00:00 | 00:00:00 | |
| PU1XMG-16 | 2026-08-31 12:24:57 | -22.79292 | -42.84908 | 71° | 40km/h | 18436m | 4.9m/s | -63.9°C | 3.4% | 74.5hPa | 0V | 00:00:00 | 00:00:00 | 00:00:00 | |
| PU1XMG-16 | 2026-08-31 12:24:53 | -22.79309 | -42.84966 | 77° | 33km/h | 18400m | 6.6m/s | -63.8°C | 3.4% | 74.9hPa | 0V | 00:00:00 | 00:00:00 | 00:00:00 | |
| PU1XMG-16 | 2026-08-31 12:24:46 | -22.79321 | -42.85011 | 75° | 38km/h | 18372m | 6.4m/s | -63.9°C | 3.2% | 75.2hPa | 0V | 00:00:00 | 00:00:00 | 00:00:00 | |
| PU1XMG-16 | 2026-08-31 12:24:40 | -22.79346 | -42.85073 | 64° | 40km/h | 18336m | 6.2m/s | -64.8°C | 3.7% | 75.6hPa | 0V | 00:00:00 | 00:00:00 | 00:00:00 | |
| PU1XMG-16 | 2026-08-31 12:24:34 | -22.79367 | -42.85121 | 67° | 29km/h | 18301m | 5.5m/s | -64.9°C | 4.0% | 76.1hPa | 0V | 00:00:00 | 00:00:00 | 00:00:00 | |
| PU1XMG-16 | 2026-08-31 12:24:28 | -22.79389 | -42.85167 | 61° | 35km/h | 18266m | 6.1m/s | -64.9°C | 3.9% | 76.5hPa | 0V | 00:00:00 | 00:00:00 | 00:00:00 | |
| PU1XMG-16 | 2026-08-31 12:24:23 | -22.79407 | -42.85203 | 72° | 27km/h | 18238m | 6.1m/s | -64.8°C | 3.8% | 76.9hPa | 0V | 00:00:00 | 00:00:00 | 00:00:00 | |
| PU1XMG-16 | 2026-08-31 12:24:17 | -22.79415 | -42.85247 | 82° | 29km/h | 18205m | 5.9m/s | -65.2°C | 4.1% | 77.3hPa | 0V | 00:00:00 | 00:00:00 | 00:00:00 | |
| PU1XMG-16 | 2026-08-31 12:24:11 | -22.79423 | -42.85292 | 83° | 24km/h | 18170m | 3.6m/s | -65.8°C | 4.2% | 77.8hPa | 0V | 00:00:00 | 00:00:00 | 00:00:00 | |
| PU1XMG-16 | 2026-08-31 12:24:06 | -22.79421 | -42.85327 | 104° | 27km/h | 18142m | 4.0m/s | -66.5°C | 4.5% | 78.1hPa | 0V | 00:00:00 | 00:00:00 | 00:00:00 | |
| PU1XMG-16 | 2026-08-31 12:24:00 | -22.79407 | -42.85391 | 99° | 47km/h | 18107m | 7.5m/s | -66.6°C | 4.5% | 78.6hPa | 0V | 00:00:00 | 00:00:00 | 00:00:00 | |
| PU1XMG-16 | 2026-08-31 12:23:55 | -22.79399 | -42.85450 | 107° | 38km/h | 18079m | 6.1m/s | -66.9°C | 5.1% | 78.9hPa | 0V | 00:00:00 | 00:00:00 | 00:00:00 | |
| PU1XMG-16 | 2026-08-31 12:23:50 | -22.79381 | -42.85499 | 115° | 42km/h | 18051m | 6.8m/s | -66.9°C | 5.1% | 79.3hPa | 0V | 00:00:00 | 00:00:00 | 00:00:00 | |
| PU1XMG-16 | 2026-08-31 12:23:44 | -22.79358 | -42.85566 | 111° | 42km/h | 18018m | 7.1m/s | -66.6°C | 5.1% | 79.7hPa | 0V | 00:00:00 | 00:00:00 | 00:00:00 | |
| PU1XMG-16 | 2026-08-31 12:23:38 | -22.79327 | -42.85623 | 129° | 38km/h | 17983m | 5.3m/s | -66.4°C | 5.3% | 80.2hPa | 0V | 00:00:00 | 00:00:00 | 00:00:00 | |
| PU1XMG-16 | 2026-08-31 12:23:33 | -22.79299 | -42.85670 | 121° | 42km/h | 17956m | 6.3m/s | -66.6°C | 5.5% | 80.5hPa | 0V | 00:00:00 | 00:00:00 | 00:00:00 | |
| PU1XMG-16 | 2026-08-31 12:23:26 | -22.79261 | -42.85745 | 119° | 37km/h | 17913m | 4.4m/s | -66.6°C | 5.7% | 81.1hPa | 0V | 00:00:00 | 00:00:00 | 00:00:00 | |
| PU1XMG-16 | 2026-08-31 12:23:19 | -22.79232 | -42.85798 | 128° | 37km/h | 17879m | 4.9m/s | -66.7°C | 6.2% | 81.6hPa | 0V | 00:00:00 | 00:00:00 | 00:00:00 | |
| PU1XMG-16 | 2026-08-31 12:23:14 | -22.79207 | -42.85832 | 132° | 31km/h | 17852m | 4.2m/s | -66.5°C | 6.3% | 82.0hPa | 0V | 00:00:00 | 00:00:00 | 00:00:00 | |
| PU1XMG-16 | 2026-08-31 12:23:07 | -22.79176 | -42.85879 | 122° | 31km/h | 17812m | 4.7m/s | -66.2°C | 6.6% | 82.5hPa | 0V | 00:00:00 | 00:00:00 | 00:00:00 | |
| PU1XMG-16 | 2026-08-31 12:23:00 | -22.79144 | -42.85926 | 133° | 31km/h | 17775m | 3.9m/s | -65.9°C | 6.8% | 83.0hPa | 0V | 00:00:00 | 00:00:00 | 00:00:00 | |
| PU1XMG-16 | 2026-08-31 12:22:54 | -22.79117 | -42.85964 | 123° | 31km/h | 17742m | 5.8m/s | -66.1°C | 6.9% | 83.4hPa | 0V | 00:00:00 | 00:00:00 | 00:00:00 | |
| PU1XMG-16 | 2026-08-31 12:22:47 | -22.79079 | -42.86015 | 133° | 33km/h | 17706m | 5.8m/s | -66.5°C | 7.8% | 84.0hPa | 0V | 00:00:00 | 00:00:00 | 00:00:00 | |
| PU1XMG-16 | 2026-08-31 12:22:41 | -22.79052 | -42.86049 | 136° | 27km/h | 17674m | 5.2m/s | -66.7°C | 8.1% | 84.4hPa | 0V | 00:00:00 | 00:00:00 | 00:00:00 | |
| PU1XMG-16 | 2026-08-31 12:22:34 | -22.79012 | -42.86095 | 135° | 31km/h | 17636m | 5.4m/s | -66.9°C | 9.0% | 84.9hPa | 0V | 00:00:00 | 00:00:00 | 00:00:00 | |
| PU1XMG-16 | 2026-08-31 12:22:28 | -22.78983 | -42.86127 | 133° | 27km/h | 17604m | 4.9m/s | -67.1°C | 9.5% | 85.4hPa | 0V | 00:00:00 | 00:00:00 | 00:00:00 | |
| PU1XMG-16 | 2026-08-31 12:22:23 | -22.78953 | -42.86158 | 139° | 33km/h | 17577m | 6.4m/s | -67.2°C | 10.0% | 85.8hPa | 0V | 00:00:00 | 00:00:00 | 00:00:00 | |
| PU1XMG-16 | 2026-08-31 12:22:16 | -22.78914 | -42.86188 | 149° | 26km/h | 17539m | 6.2m/s | -67.1°C | 10.0% | 86.3hPa | 0V | 00:00:00 | 00:00:00 | 00:00:00 | |
| PU1XMG-16 | 2026-08-31 12:22:10 | -22.78872 | -42.86218 | 141° | 37km/h | 17505m | 5.7m/s | -68.1°C | 11.2% | 86.8hPa | 0V | 00:00:00 | 00:00:00 | 00:00:00 | |
| PU1XMG-16 | 2026-08-31 12:22:04 | -22.78842 | -42.86257 | 118° | 27km/h | 17471m | 7.8m/s | -68.9°C | 12.7% | 87.3hPa | 0V | 00:00:00 | 00:00:00 | 00:00:00 | |
| PU1XMG-16 | 2026-08-31 12:21:59 | -22.78821 | -42.86293 | 137° | 27km/h | 17436m | 5.0m/s | -68.9°C | 12.4% | 87.8hPa | 0V | 00:00:00 | 00:00:00 | 00:00:00 | |
| PU1XMG-16 | 2026-08-31 12:21:53 | -22.78796 | -42.86314 | 142° | 20km/h | 17408m | 7.1m/s | -68.9°C | 13.6% | 88.3hPa | 0V | 00:00:00 | 00:00:00 | 00:00:00 | |
| PU1XMG-16 | 2026-08-31 12:21:48 | -22.78785 | -42.86330 | 124° | 15km/h | 17378m | 5.4m/s | -69.1°C | 12.9% | 88.7hPa | 0V | 00:00:00 | 00:00:00 | 00:00:00 | |
| PU1XMG-16 | 2026-08-31 12:21:42 | -22.78771 | -42.86349 | 117° | 18km/h | 17343m | 4.8m/s | -69.3°C | 12.4% | 89.2hPa | 0V | 00:00:00 | 00:00:00 | 00:00:00 | |
| PU1XMG-16 | 2026-08-31 12:21:36 | -22.78754 | -42.86377 | 143° | 18km/h | 17311m | 4.3m/s | -69.7°C | 10.8% | 89.6hPa | 0V | 00:00:00 | 00:00:00 | 00:00:00 | |
| PU1XMG-16 | 2026-08-31 12:21:30 | -22.78740 | -42.86399 | 105° | 20km/h | 17280m | 6.1m/s | -73.5°C | 14.9% | 90.1hPa | 0V | 00:00:00 | 00:00:00 | 00:00:00 | |
| PU1XMG-16 | 2026-08-31 12:21:24 | -22.78737 | -42.86446 | 93° | 33km/h | 17248m | 3.8m/s | -75.7°C | 18.7% | 90.6hPa | 0V | 00:00:00 | 00:00:00 | 00:00:00 | |
| PU1XMG-16 | 2026-08-31 12:21:19 | -22.78734 | -42.86484 | 96° | 24km/h | 17222m | 3.9m/s | -75.7°C | 19.4% | 91.0hPa | 0V | 00:00:00 | 00:00:00 | 00:00:00 | |
| PU1XMG-16 | 2026-08-31 12:21:14 | -22.78736 | -42.86510 | 85° | 18km/h | 17196m | 3.9m/s | -75.7°C | 19.3% | 91.5hPa | 0V | 00:00:00 | 00:00:00 | 00:00:00 | |
| PU1XMG-16 | 2026-08-31 12:21:10 | -22.78737 | -42.86531 | 98° | 13km/h | 17167m | 5.4m/s | -75.6°C | 19.0% | 91.9hPa | 0V | 00:00:00 | 00:00:00 | 00:00:00 | |
| PU1XMG-16 | 2026-08-31 12:21:03 | -22.78728 | -42.86545 | 132° | 7km/h | 17133m | 4.6m/s | -75.5°C | 18.8% | 92.4hPa | 0V | 00:00:00 | 00:00:00 | 00:00:00 | |
| PU1XMG-16 | 2026-08-31 12:20:58 | -22.78725 | -42.86554 | 89° | 7km/h | 17105m | 6.3m/s | -75.3°C | 18.7% | 92.9hPa | 0V | 00:00:00 | 00:00:00 | 00:00:00 | |
| PU1XMG-16 | 2026-08-31 12:20:53 | -22.78726 | -42.86561 | 98° | 5km/h | 17079m | 5.6m/s | -75.1°C | 18.6% | 93.3hPa | 0V | 00:00:00 | 00:00:00 | 00:00:00 | |
| PU1XMG-16 | 2026-08-31 12:20:48 | -22.78725 | -42.86569 | 87° | 7km/h | 17052m | 3.7m/s | -75.2°C | 19.5% | 93.8hPa | 0V | 00:00:00 | 00:00:00 | 00:00:00 | |
| PU1XMG-16 | 2026-08-31 12:20:37 | -22.78726 | -42.86578 | 42° | 4km/h | 16990m | 4.7m/s | -74.7°C | 18.8% | 94.8hPa | 0V | 00:00:00 | 00:00:00 | 00:00:00 | |
| PU1XMG-16 | 2026-08-31 12:20:32 | -22.78732 | -42.86584 | 22° | 7km/h | 16964m | 4.6m/s | -74.5°C | 19.0% | 95.2hPa | 0V | 00:00:00 | 00:00:00 | 00:00:00 | |
| PU1XMG-16 | 2026-08-31 12:20:26 | -22.78738 | -42.86589 | 57° | 4km/h | 16933m | 6.4m/s | -74.3°C | 19.0% | 95.7hPa | 0V | 00:00:00 | 00:00:00 | 00:00:00 | |
| PU1XMG-16 | 2026-08-31 12:20:21 | -22.78740 | -42.86594 | 80° | 7km/h | 16905m | 7.4m/s | -74.0°C | 18.8% | 96.2hPa | 0V | 00:00:00 | 00:00:00 | 00:00:00 | |
| PU1XMG-16 | 2026-08-31 12:20:15 | -22.78740 | -42.86604 | 0° | 0km/h | 16871m | 7.2m/s | -73.8°C | 18.5% | 96.8hPa | 0V | 00:00:00 | 00:00:00 | 00:00:00 | |
| PU1XMG-16 | 2026-08-31 12:19:54 | -22.78738 | -42.86628 | 104° | 5km/h | 16756m | 6.2m/s | -73.0°C | 18.3% | 98.6hPa | 0V | 00:00:00 | 00:00:00 | 00:00:00 | |
| PU1XMG-16 | 2026-08-31 12:19:44 | -22.78742 | -42.86645 | 90° | 9km/h | 16701m | 4.5m/s | -72.9°C | 19.1% | 99.6hPa | 0V | 00:00:00 | 00:00:00 | 00:00:00 | |
| PU1XMG-16 | 2026-08-31 12:19:40 | -22.78741 | -42.86659 | 96° | 11km/h | 16673m | 6.5m/s | -72.8°C | 18.9% | 100.0hPa | 0V | 00:00:00 | 00:00:00 | 00:00:00 | |
| PU1XMG-16 | 2026-08-31 12:19:34 | -22.78739 | -42.86680 | 103° | 15km/h | 16640m | 4.9m/s | -72.8°C | 19.6% | 100.6hPa | 0V | 00:00:00 | 00:00:00 | 00:00:00 | |
| PU1XMG-16 | 2026-08-31 12:19:28 | -22.78740 | -42.86703 | 81° | 18km/h | 16612m | 6.4m/s | -72.8°C | 20.2% | 101.1hPa | 0V | 00:00:00 | 00:00:00 | 00:00:00 | |
| PU1XMG-16 | 2026-08-31 12:19:22 | -22.78738 | -42.86735 | 108° | 24km/h | 16577m | 5.4m/s | -72.6°C | 20.0% | 101.7hPa | 0V | 00:00:00 | 00:00:00 | 00:00:00 | |
| PU1XMG-16 | 2026-08-31 12:19:17 | -22.78730 | -42.86766 | 95° | 22km/h | 16551m | 7.2m/s | -72.5°C | 20.1% | 102.1hPa | 0V | 00:00:00 | 00:00:00 | 00:00:00 | |
| PU1XMG-16 | 2026-08-31 12:19:11 | -22.78734 | -42.86797 | 103° | 16km/h | 16517m | 5.9m/s | -72.5°C | 20.6% | 102.7hPa | 0V | 00:00:00 | 00:00:00 | 00:00:00 | |
| PU1XMG-16 | 2026-08-31 12:19:05 | -22.78720 | -42.86824 | 110° | 22km/h | 16485m | 3.7m/s | -72.6°C | 21.5% | 103.3hPa | 0V | 00:00:00 | 00:00:00 | 00:00:00 | |
| PU1XMG-16 | 2026-08-31 12:19:00 | -22.78723 | -42.86861 | 77° | 22km/h | 16451m | 7.7m/s | -72.7°C | 21.0% | 103.9hPa | 0V | 00:00:00 | 00:00:00 | 00:00:00 | |
| PU1XMG-16 | 2026-08-31 12:18:53 | -22.78716 | -42.86896 | 113° | 26km/h | 16419m | 4.4m/s | -72.6°C | 22.2% | 104.5hPa | 0V | 00:00:00 | 00:00:00 | 00:00:00 | |
| PU1XMG-16 | 2026-08-31 12:18:48 | -22.78713 | -42.86929 | 79° | 24km/h | 16394m | 4.7m/s | -72.7°C | 23.1% | 104.9hPa | 0V | 00:00:00 | 00:00:00 | 00:00:00 | |
| PU1XMG-16 | 2026-08-31 12:18:43 | -22.78712 | -42.86961 | 110° | 24km/h | 16369m | 4.9m/s | -72.6°C | 22.9% | 105.4hPa | 0V | 00:00:00 | 00:00:00 | 00:00:00 | |
| PU1XMG-16 | 2026-08-31 12:18:37 | -22.78696 | -42.87001 | 106° | 26km/h | 16338m | 5.1m/s | -72.5°C | 22.8% | 105.9hPa | 0V | 00:00:00 | 00:00:00 | 00:00:00 | |
| PU1XMG-16 | 2026-08-31 12:18:32 | -22.78688 | -42.87036 | 106° | 22km/h | 16306m | 4.7m/s | -72.4°C | 22.4% | 106.5hPa | 0V | 00:00:00 | 00:00:00 | 00:00:00 | |
| PU1XMG-16 | 2026-08-31 12:18:25 | -22.78674 | -42.87070 | 122° | 26km/h | 16274m | 4.0m/s | -72.6°C | 25.0% | 107.1hPa | 0V | 00:00:00 | 00:00:00 | 00:00:00 | |
| PU1XMG-16 | 2026-08-31 12:18:20 | -22.78659 | -42.87104 | 112° | 26km/h | 16248m | 3.0m/s | -73.0°C | 25.4% | 107.6hPa | 0V | 00:00:00 | 00:00:00 | 00:00:00 | |
| PU1XMG-16 | 2026-08-31 12:18:15 | -22.78651 | -42.87138 | 102° | 27km/h | 16221m | 6.0m/s | -72.8°C | 25.3% | 108.0hPa | 0V | 00:00:00 | 00:00:00 | 00:00:00 | |
| PU1XMG-16 | 2026-08-31 12:18:09 | -22.78639 | -42.87185 | 110° | 31km/h | 16190m | 4.3m/s | -72.5°C | 25.5% | 108.6hPa | 0V | 00:00:00 | 00:00:00 | 00:00:00 | |
| PU1XMG-16 | 2026-08-31 12:18:03 | -22.78625 | -42.87230 | 101° | 26km/h | 16158m | 6.4m/s | -72.4°C | 25.8% | 109.2hPa | 0V | 00:00:00 | 00:00:00 | 00:00:00 | |
| PU1XMG-16 | 2026-08-31 12:17:57 | -22.78617 | -42.87270 | 110° | 24km/h | 16127m | 6.2m/s | -72.3°C | 25.0% | 109.7hPa | 0V | 00:00:00 | 00:00:00 | 00:00:00 | |
| PU1XMG-16 | 2026-08-31 12:17:51 | -22.78599 | -42.87308 | 121° | 27km/h | 16096m | 6.0m/s | -72.1°C | 24.1% | 110.4hPa | 0V | 00:00:00 | 00:00:00 | 00:00:00 | |
| PU1XMG-16 | 2026-08-31 12:17:45 | -22.78584 | -42.87345 | 117° | 18km/h | 16063m | 4.0m/s | -72.0°C | 25.3% | 111.0hPa | 0V | 00:00:00 | 00:00:00 | 00:00:00 | |
| PU1XMG-16 | 2026-08-31 12:17:39 | -22.78571 | -42.87366 | 139° | 15km/h | 16031m | 6.3m/s | -71.9°C | 23.7% | 111.6hPa | 0V | 00:00:00 | 00:00:00 | 00:00:00 | |
| PU1XMG-16 | 2026-08-31 12:17:26 | -22.78522 | -42.87410 | 157° | 15km/h | 15957m | 6.5m/s | -71.2°C | 22.3% | 113.0hPa | 0V | 00:00:00 | 00:00:00 | 00:00:00 | |
| PU1XMG-16 | 2026-08-31 12:17:02 | -22.78444 | -42.87475 | 122° | 20km/h | 15840m | 5.1m/s | -70.2°C | 19.4% | 115.3hPa | 0V | 00:00:00 | 00:00:00 | 00:00:00 | |
| PU1XMG-16 | 2026-08-31 12:16:47 | -22.78385 | -42.87504 | 147° | 16km/h | 15760m | 5.7m/s | -69.8°C | 16.9% | 116.8hPa | 0V | 00:00:00 | 00:00:00 | 00:00:00 | |
| PU1XMG-16 | 2026-08-31 12:16:41 | -22.78358 | -42.87518 | 168° | 24km/h | 15726m | 6.9m/s | -69.6°C | 15.0% | 117.4hPa | 0V | 00:00:00 | 00:00:00 | 00:00:00 | |
| PU1XMG-16 | 2026-08-31 12:16:34 | -22.78316 | -42.87526 | 159° | 26km/h | 15690m | 2.9m/s | -69.2°C | 15.4% | 118.2hPa | 0V | 00:00:00 | 00:00:00 | 00:00:00 | |
| PU1XMG-16 | 2026-08-31 12:16:29 | -22.78291 | -42.87542 | 149° | 22km/h | 15661m | 6.2m/s | -69.0°C | 14.1% | 118.8hPa | 0V | 00:00:00 | 00:00:00 | 00:00:00 | |
| PU1XMG-16 | 2026-08-31 12:16:23 | -22.78260 | -42.87554 | 166° | 18km/h | 15627m | 5.0m/s | -68.6°C | 12.8% | 119.5hPa | 0V | 00:00:00 | 00:00:00 | 00:00:00 | |
| PU1XMG-16 | 2026-08-31 12:16:17 | -22.78231 | -42.87570 | 144° | 26km/h | 15594m | 7.7m/s | -68.4°C | 12.6% | 120.1hPa | 0V | 00:00:00 | 00:00:00 | 00:00:00 | |
| PU1XMG-16 | 2026-08-31 12:16:12 | -22.78206 | -42.87590 | 155° | 24km/h | 15564m | 5.3m/s | -68.1°C | 11.7% | 120.7hPa | 0V | 00:00:00 | 00:00:00 | 00:00:00 | |
| PU1XMG-16 | 2026-08-31 12:16:07 | -22.78184 | -42.87597 | 170° | 20km/h | 15537m | 5.9m/s | -67.9°C | 10.6% | 121.3hPa | 0V | 00:00:00 | 00:00:00 | 00:00:00 | |
| PU1XMG-16 | 2026-08-31 12:16:01 | -22.78154 | -42.87616 | 138° | 24km/h | 15504m | 6.6m/s | -67.6°C | 10.6% | 121.9hPa | 0V | 00:00:00 | 00:00:00 | 00:00:00 | |
| PU1XMG-16 | 2026-08-31 12:15:55 | -22.78130 | -42.87635 | 158° | 16km/h | 15472m | 6.0m/s | -67.3°C | 9.7% | 122.6hPa | 0V | 00:00:00 | 00:00:00 | 00:00:00 | |
| PU1XMG-16 | 2026-08-31 12:15:49 | -22.78105 | -42.87649 | 144° | 22km/h | 15438m | 4.0m/s | -66.9°C | 9.1% | 123.3hPa | 0V | 00:00:00 | 00:00:00 | 00:00:00 | |
| PU1XMG-16 | 2026-08-31 12:15:43 | -22.78084 | -42.87668 | 143° | 15km/h | 15406m | 6.5m/s | -66.6°C | 8.8% | 123.9hPa | 0V | 00:00:00 | 00:00:00 | 00:00:00 | |
| PU1XMG-16 | 2026-08-31 12:15:37 | -22.78065 | -42.87680 | 151° | 16km/h | 15374m | 4.2m/s | -66.3°C | 8.7% | 124.6hPa | 0V | 00:00:00 | 00:00:00 | 00:00:00 | |
| PU1XMG-16 | 2026-08-31 12:15:31 | -22.78040 | -42.87696 | 149° | 18km/h | 15339m | 6.2m/s | -66.1°C | 8.6% | 125.3hPa | 0V | 00:00:00 | 00:00:00 | 00:00:00 | |
| PU1XMG-16 | 2026-08-31 12:15:26 | -22.78022 | -42.87712 | 142° | 18km/h | 15306m | 5.3m/s | -65.8°C | 8.4% | 125.9hPa | 0V | 00:00:00 | 00:00:00 | 00:00:00 | |
| PU1XMG-16 | 2026-08-31 12:15:16 | -22.77987 | -42.87737 | 134° | 16km/h | 15249m | 8.5m/s | -65.3°C | 7.8% | 127.2hPa | 0V | 00:00:00 | 00:00:00 | 00:00:00 | |
| PU1XMG-16 | 2026-08-31 12:15:08 | -22.77967 | -42.87760 | 140° | 15km/h | 15201m | 7.5m/s | -65.0°C | 7.6% | 128.1hPa | 0V | 00:00:00 | 00:00:00 | 00:00:00 | |
| PU1XMG-16 | 2026-08-31 12:14:57 | -22.77946 | -42.87799 | 115° | 15km/h | 15128m | 8.9m/s | -64.4°C | 7.4% | 129.7hPa | 0V | 00:00:00 | 00:00:00 | 00:00:00 | |
| PU1XMG-16 | 2026-08-31 12:14:46 | -22.77932 | -42.87844 | 96° | 15km/h | 15059m | 4.5m/s | -63.8°C | 7.0% | 131.1hPa | 0V | 00:00:00 | 00:00:00 | 00:00:00 | |
| PU1XMG-16 | 2026-08-31 12:14:40 | -22.77932 | -42.87868 | 89° | 13km/h | 15022m | 6.0m/s | -63.6°C | 6.6% | 131.9hPa | 0V | 00:00:00 | 00:00:00 | 00:00:00 | |
| PU1XMG-16 | 2026-08-31 12:14:36 | -22.77938 | -42.87880 | 49° | 9km/h | 14994m | 5.8m/s | -63.3°C | 6.7% | 132.5hPa | 0V | 00:00:00 | 00:00:00 | 00:00:00 | |
| PU1XMG-16 | 2026-08-31 12:14:30 | -22.77944 | -42.87910 | 82° | 29km/h | 14961m | 2.1m/s | -62.9°C | 7.1% | 133.3hPa | 0V | 00:00:00 | 00:00:00 | 00:00:00 | |
| PU1XMG-16 | 2026-08-31 12:14:23 | -22.77959 | -42.87940 | 56° | 5km/h | 14916m | 7.1m/s | -63.1°C | 6.6% | 134.2hPa | 0V | 00:00:00 | 00:00:00 | 00:00:00 | |
| PU1XMG-16 | 2026-08-31 12:14:16 | -22.77946 | -42.87970 | 107° | 42km/h | 14886m | 3.5m/s | -62.8°C | 6.3% | 134.8hPa | 0V | 00:00:00 | 00:00:00 | 00:00:00 | |
| PU1XMG-16 | 2026-08-31 12:14:11 | -22.77949 | -42.88018 | 24° | 29km/h | 14842m | 6.1m/s | -62.4°C | 6.4% | 135.9hPa | 0V | 00:00:00 | 00:00:00 | 00:00:00 | |
| PU1XMG-16 | 2026-08-31 12:14:04 | -22.77993 | -42.88067 | 74° | 44km/h | 14792m | 10.8m/s | -62.0°C | 6.2% | 136.9hPa | 0V | 00:00:00 | 00:00:00 | 00:00:00 | |
| PU1XMG-16 | 2026-08-31 12:14:00 | -22.78012 | -42.88093 | 30° | 16km/h | 14745m | 11.1m/s | -61.7°C | 6.0% | 138.0hPa | 0V | 00:00:00 | 00:00:00 | 00:00:00 | |
| PU1XMG-16 | 2026-08-31 12:13:53 | -22.78042 | -42.88131 | 62° | 44km/h | 14684m | 11.8m/s | -61.5°C | 6.0% | 139.3hPa | 0V | 00:00:00 | 00:00:00 | 00:00:00 | |
| PU1XMG-16 | 2026-08-31 12:13:49 | -22.78066 | -42.88178 | 33° | 40km/h | 14646m | 6.7m/s | -61.4°C | 5.9% | 140.2hPa | 0V | 00:00:00 | 00:00:00 | 00:00:00 | |
| PU1XMG-16 | 2026-08-31 12:13:43 | -22.78107 | -42.88206 | 68° | 37km/h | 14603m | 6.1m/s | -61.4°C | 5.9% | 141.2hPa | 0V | 00:00:00 | 00:00:00 | 00:00:00 | |
| PU1XMG-16 | 2026-08-31 12:13:38 | -22.78124 | -42.88260 | 46° | 46km/h | 14568m | 8.2m/s | -61.3°C | 5.7% | 142.0hPa | 0V | 00:00:00 | 00:00:00 | 00:00:00 | |
| PU1XMG-16 | 2026-08-31 12:13:33 | -22.78183 | -42.88310 | 55° | 58km/h | 14526m | 6.5m/s | -61.7°C | 5.5% | 142.9hPa | 0V | 00:00:00 | 00:00:00 | 00:00:00 | |
| PU1XMG-16 | 2026-08-31 12:13:27 | -22.78233 | -42.88389 | 47° | 71km/h | 14478m | 10.0m/s | -61.9°C | 6.0% | 144.1hPa | 0V | 00:00:00 | 00:00:00 | 00:00:00 | |
| PU1XMG-16 | 2026-08-31 12:13:22 | -22.78297 | -42.88469 | 52° | 80km/h | 14444m | 7.6m/s | -61.8°C | 6.4% | 144.9hPa | 0V | 00:00:00 | 00:00:00 | 00:00:00 | |
| PU1XMG-16 | 2026-08-31 12:13:16 | -22.78368 | -42.88571 | 51° | 78km/h | 14408m | 4.1m/s | -61.7°C | 6.2% | 145.7hPa | 0V | 00:00:00 | 00:00:00 | 00:00:00 | |
| PU1XMG-16 | 2026-08-31 12:13:10 | -22.78448 | -42.88657 | 48° | 71km/h | 14372m | 6.1m/s | -61.6°C | 5.9% | 146.5hPa | 0V | 00:00:00 | 00:00:00 | 00:00:00 | |
| PU1XMG-16 | 2026-08-31 12:13:04 | -22.78524 | -42.88778 | 51° | 104km/h | 14323m | 6.5m/s | -61.6°C | 6.0% | 147.7hPa | 0V | 00:00:00 | 00:00:00 | 00:00:00 | |
| PU1XMG-16 | 2026-08-31 12:12:58 | -22.78627 | -42.88926 | 55° | 99km/h | 14271m | 3.9m/s | -62.1°C | 6.3% | 149.0hPa | 0V | 00:00:00 | 00:00:00 | 00:00:00 | |
| PU1XMG-16 | 2026-08-31 12:12:52 | -22.78707 | -42.89036 | 49° | 106km/h | 14244m | 4.2m/s | -62.1°C | 6.4% | 149.6hPa | 0V | 00:00:00 | 00:00:00 | 00:00:00 | |
| PU1XMG-16 | 2026-08-31 12:12:47 | -22.78791 | -42.89150 | 54° | 106km/h | 14211m | 10.0m/s | -62.0°C | 6.3% | 150.4hPa | 0V | 00:00:00 | 00:00:00 | 00:00:00 | |
| PU1XMG-16 | 2026-08-31 12:12:42 | -22.78898 | -42.89292 | 51° | 113km/h | 14170m | 4.3m/s | -61.6°C | 6.4% | 151.4hPa | 0V | 00:00:00 | 00:00:00 | 00:00:00 | |
| PU1XMG-16 | 2026-08-31 12:12:35 | -22.79009 | -42.89439 | 53° | 119km/h | 14134m | 6.6m/s | -61.4°C | 6.4% | 152.3hPa | 0V | 00:00:00 | 00:00:00 | 00:00:00 | |
| PU1XMG-16 | 2026-08-31 12:12:30 | -22.79101 | -42.89562 | 53° | 111km/h | 14105m | 4.8m/s | -61.3°C | 6.2% | 153.0hPa | 0V | 00:00:00 | 00:00:00 | 00:00:00 | |
| PU1XMG-16 | 2026-08-31 12:12:25 | -22.79188 | -42.89681 | 54° | 111km/h | 14079m | 5.4m/s | -61.3°C | 6.2% | 153.7hPa | 0V | 00:00:00 | 00:00:00 | 00:00:00 | |
| PU1XMG-16 | 2026-08-31 12:12:19 | -22.79299 | -42.89836 | 52° | 126km/h | 14048m | 5.1m/s | -61.1°C | 6.2% | 154.4hPa | 0V | 00:00:00 | 00:00:00 | 00:00:00 | |
| PU1XMG-16 | 2026-08-31 12:12:13 | -22.79418 | -42.89990 | 52° | 117km/h | 14014m | 6.2m/s | -60.8°C | 6.3% | 155.2hPa | 0V | 00:00:00 | 00:00:00 | 00:00:00 | |
| PU1XMG-16 | 2026-08-31 12:12:08 | -22.79509 | -42.90117 | 53° | 117km/h | 13983m | 9.9m/s | -60.6°C | 6.3% | 156.0hPa | 0V | 00:00:00 | 00:00:00 | 00:00:00 | |
| PU1XMG-16 | 2026-08-31 12:12:02 | -22.79623 | -42.90273 | 53° | 122km/h | 13944m | 5.5m/s | -60.4°C | 6.2% | 157.1hPa | 0V | 00:00:00 | 00:00:00 | 00:00:00 | |
| PU1XMG-16 | 2026-08-31 12:11:57 | -22.79718 | -42.90408 | 54° | 122km/h | 13912m | 4.7m/s | -60.2°C | 5.9% | 157.8hPa | 0V | 00:00:00 | 00:00:00 | 00:00:00 | |
| PU1XMG-16 | 2026-08-31 12:11:51 | -22.79832 | -42.90569 | 52° | 124km/h | 13875m | 5.3m/s | -59.8°C | 6.0% | 158.8hPa | 0V | 00:00:00 | 00:00:00 | 00:00:00 | |
| PU1XMG-16 | 2026-08-31 12:11:45 | -22.79948 | -42.90730 | 55° | 126km/h | 13840m | 6.4m/s | -59.5°C | 5.9% | 159.7hPa | 0V | 00:00:00 | 00:00:00 | 00:00:00 | |
| PU1XMG-16 | 2026-08-31 12:11:40 | -22.80043 | -42.90872 | 54° | 126km/h | 13812m | 6.3m/s | -59.4°C | 6.0% | 160.4hPa | 0V | 00:00:00 | 00:00:00 | 00:00:00 | |
| PU1XMG-16 | 2026-08-31 12:11:35 | -22.80138 | -42.91010 | 55° | 128km/h | 13784m | 6.3m/s | -59.3°C | 6.0% | 161.1hPa | 0V | 00:00:00 | 00:00:00 | 00:00:00 | |
| PU1XMG-16 | 2026-08-31 12:11:29 | -22.80251 | -42.91180 | 56° | 130km/h | 13749m | 6.2m/s | -59.1°C | 6.1% | 162.0hPa | 0V | 00:00:00 | 00:00:00 | 00:00:00 | |
| PU1XMG-16 | 2026-08-31 12:11:23 | -22.80365 | -42.91354 | 56° | 131km/h | 13714m | 5.7m/s | -58.8°C | 6.1% | 162.9hPa | 0V | 00:00:00 | 00:00:00 | 00:00:00 | |
| PU1XMG-16 | 2026-08-31 12:11:18 | -22.80460 | -42.91506 | 58° | 137km/h | 13683m | 7.7m/s | -58.6°C | 5.9% | 163.7hPa | 0V | 00:00:00 | 00:00:00 | 00:00:00 | |
| PU1XMG-16 | 2026-08-31 12:11:12 | -22.80571 | -42.91685 | 56° | 128km/h | 13650m | 4.2m/s | -58.3°C | 6.0% | 164.6hPa | 0V | 00:00:00 | 00:00:00 | 00:00:00 | |
| PU1XMG-16 | 2026-08-31 12:11:07 | -22.80663 | -42.91830 | 57° | 130km/h | 13621m | 4.2m/s | -58.0°C | 6.1% | 165.4hPa | 0V | 00:00:00 | 00:00:00 | 00:00:00 | |
| PU1XMG-16 | 2026-08-31 12:11:01 | -22.80772 | -42.92007 | 58° | 133km/h | 13586m | 3.7m/s | -57.7°C | 6.2% | 166.3hPa | 0V | 00:00:00 | 00:00:00 | 00:00:00 | |
| PU1XMG-16 | 2026-08-31 12:10:56 | -22.80865 | -42.92161 | 58° | 133km/h | 13560m | 4.9m/s | -57.5°C | 6.0% | 167.0hPa | 0V | 00:00:00 | 00:00:00 | 00:00:00 | |
| PU1XMG-16 | 2026-08-31 12:10:34 | -22.81241 | -42.92832 | 62° | 131km/h | 13450m | 7.6m/s | -56.8°C | 6.3% | 169.8hPa | 0V | 00:00:00 | 00:00:00 | 00:00:00 | |
| PU1XMG-16 | 2026-08-31 12:10:28 | -22.81337 | -42.93023 | 62° | 131km/h | 13420m | 5.7m/s | -56.5°C | 6.6% | 170.7hPa | 0V | 00:00:00 | 00:00:00 | 00:00:00 | |
| PU1XMG-16 | 2026-08-31 12:10:23 | -22.81435 | -42.93213 | 62° | 133km/h | 13393m | 4.1m/s | -56.4°C | 6.6% | 171.4hPa | 0V | 00:00:00 | 00:00:00 | 00:00:00 | |
| PU1XMG-16 | 2026-08-31 12:10:17 | -22.81513 | -42.93370 | 63° | 128km/h | 13370m | 5.4m/s | -56.2°C | 7.1% | 172.0hPa | 0V | 00:00:00 | 00:00:00 | 00:00:00 | |
| PU1XMG-16 | 2026-08-31 12:10:12 | -22.81588 | -42.93527 | 65° | 133km/h | 13346m | 4.9m/s | -56.1°C | 7.3% | 172.7hPa | 0V | 00:00:00 | 00:00:00 | 00:00:00 | |
| PU1XMG-16 | 2026-08-31 12:10:06 | -22.81678 | -42.93726 | 65° | 135km/h | 13315m | 5.6m/s | -56.2°C | 7.7% | 173.5hPa | 0V | 00:00:00 | 00:00:00 | 00:00:00 | |
| PU1XMG-16 | 2026-08-31 12:10:00 | -22.81770 | -42.93921 | 64° | 135km/h | 13286m | 4.8m/s | -56.3°C | 8.6% | 174.3hPa | 0V | 00:00:00 | 00:00:00 | 00:00:00 | |
| PU1XMG-16 | 2026-08-31 12:09:55 | -22.81847 | -42.94090 | 66° | 141km/h | 13261m | 5.7m/s | -56.3°C | 9.0% | 175.0hPa | 0V | 00:00:00 | 00:00:00 | 00:00:00 | |
| PU1XMG-16 | 2026-08-31 12:09:49 | -22.81936 | -42.94301 | 66° | 139km/h | 13230m | 5.1m/s | -56.3°C | 9.4% | 175.8hPa | 0V | 00:00:00 | 00:00:00 | 00:00:00 | |
| PU1XMG-16 | 2026-08-31 12:09:44 | -22.82008 | -42.94474 | 67° | 139km/h | 13205m | 4.4m/s | -56.3°C | 9.5% | 176.5hPa | 0V | 00:00:00 | 00:00:00 | 00:00:00 | |
| PU1XMG-16 | 2026-08-31 12:09:39 | -22.82075 | -42.94651 | 71° | 141km/h | 13179m | 6.5m/s | -56.2°C | 9.9% | 177.3hPa | 0V | 00:00:00 | 00:00:00 | 00:00:00 | |
| PU1XMG-16 | 2026-08-31 12:09:34 | -22.82136 | -42.94832 | 71° | 141km/h | 13153m | 6.5m/s | -56.1°C | 10.3% | 178.0hPa | 0V | 00:00:00 | 00:00:00 | 00:00:00 | |
| PU1XMG-16 | 2026-08-31 12:09:28 | -22.82214 | -42.95052 | 69° | 144km/h | 13121m | 5.7m/s | -56.2°C | 10.9% | 178.8hPa | 0V | 00:00:00 | 00:00:00 | 00:00:00 | |
| PU1XMG-16 | 2026-08-31 12:09:17 | -22.82366 | -42.95484 | 68° | 139km/h | 13061m | 3.9m/s | -56.2°C | 11.6% | 180.6hPa | 0V | 00:00:00 | 00:00:00 | 00:00:00 | |
| PU1XMG-16 | 2026-08-31 12:09:10 | -22.82451 | -42.95691 | 68° | 139km/h | 13032m | 5.2m/s | -56.0°C | 11.5% | 181.4hPa | 0V | 00:00:00 | 00:00:00 | 00:00:00 | |
| PU1XMG-16 | 2026-08-31 12:09:05 | -22.82520 | -42.95872 | 68° | 142km/h | 13008m | 4.4m/s | -56.1°C | 12.1% | 182.1hPa | 0V | 00:00:00 | 00:00:00 | 00:00:00 | |
| PU1XMG-16 | 2026-08-31 12:09:00 | -22.82598 | -42.96047 | 63° | 141km/h | 12983m | 5.2m/s | -56.1°C | 12.4% | 182.9hPa | 0V | 00:00:00 | 00:00:00 | 00:00:00 | |
| PU1XMG-16 | 2026-08-31 12:08:55 | -22.82680 | -42.96225 | 67° | 151km/h | 12960m | 5.9m/s | -56.0°C | 13.0% | 183.5hPa | 0V | 00:00:00 | 00:00:00 | 00:00:00 | |
| PU1XMG-16 | 2026-08-31 12:08:50 | -22.82764 | -42.96412 | 63° | 148km/h | 12936m | 7.1m/s | -55.9°C | 13.5% | 184.2hPa | 0V | 00:00:00 | 00:00:00 | 00:00:00 | |
| PU1XMG-16 | 2026-08-31 12:08:44 | -22.82875 | -42.96598 | 60° | 131km/h | 12906m | 7.3m/s | -55.7°C | 13.4% | 185.1hPa | 0V | 00:00:00 | 00:00:00 | 00:00:00 | |
| PU1XMG-16 | 2026-08-31 12:08:39 | -22.82954 | -42.96768 | 65° | 139km/h | 12867m | 6.3m/s | -55.6°C | 14.2% | 186.2hPa | 0V | 00:00:00 | 00:00:00 | 00:00:00 | |
| PU1XMG-16 | 2026-08-31 12:08:32 | -22.83062 | -42.97022 | 66° | 130km/h | 12817m | 6.5m/s | -55.2°C | 14.3% | 187.6hPa | 0V | 00:00:00 | 00:00:00 | 00:00:00 | |
| PU1XMG-16 | 2026-08-31 12:08:25 | -22.83141 | -42.97222 | 68° | 133km/h | 12785m | 7.8m/s | -55.1°C | 15.2% | 188.6hPa | 0V | 00:00:00 | 00:00:00 | 00:00:00 | |
| PU1XMG-16 | 2026-08-31 12:08:20 | -22.83203 | -42.97384 | 68° | 126km/h | 12757m | 5.5m/s | -54.8°C | 16.3% | 189.5hPa | 0V | 00:00:00 | 00:00:00 | 00:00:00 | |
| PU1XMG-16 | 2026-08-31 12:08:15 | -22.83265 | -42.97536 | 70° | 124km/h | 12731m | 6.6m/s | -54.6°C | 16.6% | 190.3hPa | 0V | 00:00:00 | 00:00:00 | 00:00:00 | |
| PU1XMG-16 | 2026-08-31 12:08:09 | -22.83325 | -42.97730 | 70° | 122km/h | 12690m | 6.1m/s | -54.5°C | 17.1% | 191.4hPa | 0V | 00:00:00 | 00:00:00 | 00:00:00 | |
| PU1XMG-16 | 2026-08-31 12:08:04 | -22.83379 | -42.97881 | 72° | 119km/h | 12660m | 6.0m/s | -54.2°C | 18.8% | 192.4hPa | 0V | 00:00:00 | 00:00:00 | 00:00:00 | |
| PU1XMG-16 | 2026-08-31 12:07:58 | -22.83439 | -42.98062 | 72° | 119km/h | 12629m | 5.9m/s | -54.0°C | 20.6% | 193.3hPa | 0V | 00:00:00 | 00:00:00 | 00:00:00 | |
| PU1XMG-16 | 2026-08-31 12:07:53 | -22.83488 | -42.98216 | 74° | 117km/h | 12597m | 7.4m/s | -53.9°C | 22.4% | 194.2hPa | 0V | 00:00:00 | 00:00:00 | 00:00:00 | |
| PU1XMG-16 | 2026-08-31 12:07:47 | -22.83543 | -42.98397 | 72° | 111km/h | 12564m | 5.1m/s | -53.7°C | 24.1% | 195.3hPa | 0V | 00:00:00 | 00:00:00 | 00:00:00 | |
| PU1XMG-16 | 2026-08-31 12:07:42 | -22.83584 | -42.98543 | 76° | 110km/h | 12534m | 3.8m/s | -53.5°C | 27.0% | 196.2hPa | 0V | 00:00:00 | 00:00:00 | 00:00:00 | |
| PU1XMG-16 | 2026-08-31 12:07:36 | -22.83623 | -42.98720 | 76° | 111km/h | 12504m | 5.7m/s | -53.3°C | 31.0% | 197.0hPa | 0V | 00:00:00 | 00:00:00 | 00:00:00 | |
| PU1XMG-16 | 2026-08-31 12:07:30 | -22.83673 | -42.98890 | 72° | 108km/h | 12475m | 7.0m/s | -53.1°C | 31.3% | 197.9hPa | 0V | 00:00:00 | 00:00:00 | 00:00:00 | |
| PU1XMG-16 | 2026-08-31 12:07:24 | -22.83716 | -42.99073 | 79° | 119km/h | 12445m | 4.0m/s | -52.9°C | 32.4% | 198.9hPa | 0V | 00:00:00 | 00:00:00 | 00:00:00 | |
| PU1XMG-16 | 2026-08-31 12:07:19 | -22.83747 | -42.99223 | 76° | 108km/h | 12419m | 7.0m/s | -52.7°C | 33.0% | 199.6hPa | 0V | 00:00:00 | 00:00:00 | 00:00:00 | |
| PU1XMG-16 | 2026-08-31 12:07:13 | -22.83781 | -42.99390 | 83° | 110km/h | 12383m | 7.5m/s | -52.4°C | 32.5% | 200.7hPa | 0V | 00:00:00 | 00:00:00 | 00:00:00 | |
| PU1XMG-16 | 2026-08-31 12:07:01 | -22.83850 | -42.99737 | 81° | 95km/h | 12308m | 4.3m/s | -52.0°C | 33.9% | 203.0hPa | 0V | 00:00:00 | 00:00:00 | 00:00:00 | |
| PU1XMG-16 | 2026-08-31 12:06:55 | -22.83866 | -42.99898 | 86° | 99km/h | 12269m | 7.7m/s | -51.7°C | 33.0% | 204.3hPa | 0V | 00:00:00 | 00:00:00 | 00:00:00 | |
| PU1XMG-16 | 2026-08-31 12:06:50 | -22.83886 | -43.00034 | 82° | 102km/h | 12239m | 3.0m/s | -51.5°C | 32.6% | 205.2hPa | 0V | 00:00:00 | 00:00:00 | 00:00:00 | |
| PU1XMG-16 | 2026-08-31 12:06:45 | -22.83903 | -43.00173 | 88° | 102km/h | 12209m | 7.2m/s | -51.2°C | 31.6% | 206.2hPa | 0V | 00:00:00 | 00:00:00 | 00:00:00 | |
| PU1XMG-16 | 2026-08-31 12:06:40 | -22.83907 | -43.00317 | 86° | 104km/h | 12177m | 5.2m/s | -51.0°C | 30.9% | 207.2hPa | 0V | 00:00:00 | 00:00:00 | 00:00:00 | |
| PU1XMG-16 | 2026-08-31 12:06:34 | -22.83927 | -43.00490 | 84° | 108km/h | 12140m | 6.1m/s | -50.8°C | 31.3% | 208.4hPa | 0V | 00:00:00 | 00:00:00 | 00:00:00 | |
| PU1XMG-16 | 2026-08-31 12:06:29 | -22.83936 | -43.00633 | 90° | 102km/h | 12110m | 5.5m/s | -50.7°C | 32.8% | 209.3hPa | 0V | 00:00:00 | 00:00:00 | 00:00:00 | |
| PU1XMG-16 | 2026-08-31 12:06:23 | -22.83943 | -43.00804 | 87° | 104km/h | 12081m | 4.6m/s | -50.5°C | 36.1% | 210.3hPa | 0V | 00:00:00 | 00:00:00 | 00:00:00 | |
| PU1XMG-16 | 2026-08-31 12:06:18 | -22.83949 | -43.00950 | 90° | 106km/h | 12054m | 4.4m/s | -50.6°C | 40.3% | 211.2hPa | 0V | 00:00:00 | 00:00:00 | 00:00:00 | |
| PU1XMG-16 | 2026-08-31 12:06:12 | -22.83945 | -43.01131 | 95° | 106km/h | 12020m | 4.8m/s | -50.8°C | 59.3% | 212.3hPa | 0V | 00:00:00 | 00:00:00 | 00:00:00 | |
| PU1XMG-16 | 2026-08-31 12:06:07 | -22.83937 | -43.01273 | 94° | 108km/h | 11997m | 2.8m/s | -51.1°C | 68.5% | 213.0hPa | 0V | 00:00:00 | 00:00:00 | 00:00:00 | |
| PU1XMG-16 | 2026-08-31 12:06:01 | -22.83930 | -43.01455 | 95° | 110km/h | 11969m | 3.8m/s | -51.1°C | 73.7% | 214.0hPa | 0V | 00:00:00 | 00:00:00 | 00:00:00 | |
| PU1XMG-16 | 2026-08-31 12:05:55 | -22.83917 | -43.01631 | 94° | 100km/h | 11936m | 7.0m/s | -51.1°C | 78.1% | 215.0hPa | 0V | 00:00:00 | 00:00:00 | 00:00:00 | |
| PU1XMG-16 | 2026-08-31 12:05:48 | -22.83902 | -43.01801 | 99° | 82km/h | 11896m | 5.8m/s | -50.7°C | 78.6% | 216.4hPa | 0V | 00:00:00 | 00:00:00 | 00:00:00 | |
| PU1XMG-16 | 2026-08-31 12:05:42 | -22.83884 | -43.01950 | 97° | 99km/h | 11865m | 7.1m/s | -50.5°C | 77.8% | 217.4hPa | 0V | 00:00:00 | 00:00:00 | 00:00:00 | |
| PU1XMG-16 | 2026-08-31 12:05:37 | -22.83872 | -43.02078 | 94° | 88km/h | 11835m | 7.5m/s | -50.3°C | 80.1% | 218.4hPa | 0V | 00:00:00 | 00:00:00 | 00:00:00 | |
| PU1XMG-16 | 2026-08-31 12:05:31 | -22.83854 | -43.02223 | 103° | 86km/h | 11793m | 8.3m/s | -49.9°C | 74.3% | 219.7hPa | 0V | 00:00:00 | 00:00:00 | 00:00:00 | |
| PU1XMG-16 | 2026-08-31 12:05:25 | -22.83819 | -43.02353 | 100° | 86km/h | 11749m | 7.2m/s | -49.5°C | 72.2% | 221.3hPa | 0V | 00:00:00 | 00:00:00 | 00:00:00 | |
| PU1XMG-16 | 2026-08-31 12:05:20 | -22.83808 | -43.02465 | 96° | 80km/h | 11715m | 5.1m/s | -49.1°C | 71.7% | 222.4hPa | 0V | 00:00:00 | 00:00:00 | 00:00:00 | |
| PU1XMG-16 | 2026-08-31 12:05:14 | -22.83797 | -43.02600 | 97° | 88km/h | 11683m | 7.0m/s | -48.8°C | 71.7% | 223.5hPa | 0V | 00:00:00 | 00:00:00 | 00:00:00 | |
| PU1XMG-16 | 2026-08-31 12:05:08 | -22.83780 | -43.02736 | 99° | 80km/h | 11651m | 6.0m/s | -48.5°C | 69.3% | 224.6hPa | 0V | 00:00:00 | 00:00:00 | 00:00:00 | |
| PU1XMG-16 | 2026-08-31 12:05:03 | -22.83758 | -43.02866 | 104° | 82km/h | 11616m | 6.8m/s | -48.2°C | 68.4% | 225.8hPa | 0V | 00:00:00 | 00:00:00 | 00:00:00 | |
| PU1XMG-16 | 2026-08-31 12:04:57 | -22.83744 | -43.02973 | 97° | 77km/h | 11588m | 5.4m/s | -48.0°C | 68.8% | 226.7hPa | 0V | 00:00:00 | 00:00:00 | 00:00:00 | |
| PU1XMG-16 | 2026-08-31 12:04:52 | -22.83734 | -43.03081 | 96° | 84km/h | 11562m | 5.8m/s | -47.8°C | 72.3% | 227.6hPa | 0V | 00:00:00 | 00:00:00 | 00:00:00 | |
| PU1XMG-16 | 2026-08-31 12:04:46 | -22.83716 | -43.03212 | 99° | 82km/h | 11527m | 8.0m/s | -47.5°C | 73.1% | 228.8hPa | 0V | 00:00:00 | 00:00:00 | 00:00:00 | |
| PU1XMG-16 | 2026-08-31 12:04:40 | -22.83703 | -43.03344 | 99° | 80km/h | 11491m | 7.1m/s | -47.3°C | 74.1% | 230.1hPa | 0V | 00:00:00 | 00:00:00 | 00:00:00 | |
| PU1XMG-16 | 2026-08-31 12:04:36 | -22.83694 | -43.03445 | 99° | 69km/h | 11456m | 7.4m/s | -47.0°C | 74.5% | 231.3hPa | 0V | 00:00:00 | 00:00:00 | 00:00:00 | |
| PU1XMG-16 | 2026-08-31 12:04:29 | -22.83679 | -43.03562 | 97° | 75km/h | 11420m | 6.7m/s | -46.7°C | 71.9% | 232.6hPa | 0V | 00:00:00 | 00:00:00 | 00:00:00 | |
| PU1XMG-16 | 2026-08-31 12:04:24 | -22.83660 | -43.03684 | 103° | 71km/h | 11385m | 4.6m/s | -46.4°C | 73.6% | 233.8hPa | 0V | 00:00:00 | 00:00:00 | 00:00:00 | |
| PU1XMG-16 | 2026-08-31 12:04:18 | -22.83644 | -43.03780 | 103° | 71km/h | 11357m | 5.4m/s | -46.1°C | 73.0% | 234.8hPa | 0V | 00:00:00 | 00:00:00 | 00:00:00 | |
| PU1XMG-16 | 2026-08-31 12:04:13 | -22.83631 | -43.03877 | 98° | 71km/h | 11327m | 4.6m/s | -45.9°C | 75.1% | 235.9hPa | 0V | 00:00:00 | 00:00:00 | 00:00:00 | |
| PU1XMG-16 | 2026-08-31 12:04:07 | -22.83616 | -43.03995 | 101° | 75km/h | 11292m | 4.4m/s | -45.6°C | 76.9% | 237.1hPa | 0V | 00:00:00 | 00:00:00 | 00:00:00 | |
| PU1XMG-16 | 2026-08-31 12:04:01 | -22.83597 | -43.04116 | 97° | 73km/h | 11260m | 4.0m/s | -45.3°C | 76.1% | 238.3hPa | 0V | 00:00:00 | 00:00:00 | 00:00:00 | |
| PU1XMG-16 | 2026-08-31 12:03:56 | -22.83586 | -43.04218 | 96° | 77km/h | 11234m | 6.4m/s | -45.2°C | 76.7% | 239.2hPa | 0V | 00:00:00 | 00:00:00 | 00:00:00 | |
| PU1XMG-16 | 2026-08-31 12:03:45 | -22.83564 | -43.04440 | 97° | 73km/h | 11183m | 5.9m/s | -45.0°C | 82.6% | 241.0hPa | 0V | 00:00:00 | 00:00:00 | 00:00:00 | |
| PU1XMG-16 | 2026-08-31 12:03:40 | -22.83554 | -43.04545 | 98° | 77km/h | 11160m | 3.9m/s | -44.9°C | 86.0% | 241.9hPa | 0V | 00:00:00 | 00:00:00 | 00:00:00 | |
| PU1XMG-16 | 2026-08-31 12:03:35 | -22.83545 | -43.04642 | 94° | 68km/h | 11135m | 5.7m/s | -44.8°C | 83.6% | 242.8hPa | 0V | 00:00:00 | 00:00:00 | 00:00:00 | |
| PU1XMG-16 | 2026-08-31 12:03:30 | -22.83541 | -43.04740 | 99° | 80km/h | 11114m | 5.4m/s | -44.6°C | 82.7% | 243.5hPa | 0V | 00:00:00 | 00:00:00 | 00:00:00 | |
| PU1XMG-16 | 2026-08-31 12:03:24 | -22.83508 | -43.04888 | 106° | 73km/h | 11070m | 5.5m/s | -44.2°C | 81.5% | 245.2hPa | 0V | 00:00:00 | 00:00:00 | 00:00:00 | |
| PU1XMG-16 | 2026-08-31 12:03:18 | -22.83488 | -43.04997 | 96° | 73km/h | 11036m | 6.1m/s | -43.9°C | 78.1% | 246.3hPa | 0V | 00:00:00 | 00:00:00 | 00:00:00 | |
| PU1XMG-16 | 2026-08-31 12:03:12 | -22.83470 | -43.05098 | 102° | 78km/h | 11004m | 5.9m/s | -43.6°C | 76.0% | 247.5hPa | 0V | 00:00:00 | 00:00:00 | 00:00:00 | |
| PU1XMG-16 | 2026-08-31 12:03:07 | -22.83456 | -43.05210 | 100° | 82km/h | 10976m | 6.9m/s | -43.3°C | 76.4% | 248.5hPa | 0V | 00:00:00 | 00:00:00 | 00:00:00 | |
| PU1XMG-16 | 2026-08-31 12:03:02 | -22.83427 | -43.05340 | 105° | 84km/h | 10942m | 4.0m/s | -43.0°C | 74.7% | 249.8hPa | 0V | 00:00:00 | 00:00:00 | 00:00:00 | |
| PU1XMG-16 | 2026-08-31 12:02:56 | -22.83403 | -43.05448 | 102° | 78km/h | 10911m | 4.7m/s | -42.7°C | 74.0% | 251.0hPa | 0V | 00:00:00 | 00:00:00 | 00:00:00 | |
| PU1XMG-16 | 2026-08-31 12:02:50 | -22.83381 | -43.05576 | 102° | 80km/h | 10875m | 5.4m/s | -42.4°C | 71.8% | 252.3hPa | 0V | 00:00:00 | 00:00:00 | 00:00:00 | |
| PU1XMG-16 | 2026-08-31 12:02:44 | -22.83356 | -43.05709 | 103° | 84km/h | 10842m | 5.9m/s | -42.1°C | 71.5% | 253.5hPa | 0V | 00:00:00 | 00:00:00 | 00:00:00 | |
| PU1XMG-16 | 2026-08-31 12:02:38 | -22.83329 | -43.05842 | 104° | 84km/h | 10812m | 4.3m/s | -41.7°C | 72.5% | 254.7hPa | 0V | 00:00:00 | 00:00:00 | 00:00:00 | |
| PU1XMG-16 | 2026-08-31 12:02:33 | -22.83306 | -43.05954 | 100° | 80km/h | 10784m | 4.8m/s | -41.5°C | 71.1% | 255.7hPa | 0V | 00:00:00 | 00:00:00 | 00:00:00 | |
| PU1XMG-16 | 2026-08-31 12:02:27 | -22.83278 | -43.06103 | 101° | 84km/h | 10745m | 6.0m/s | -41.2°C | 72.1% | 257.2hPa | 0V | 00:00:00 | 00:00:00 | 00:00:00 | |
| PU1XMG-16 | 2026-08-31 12:02:21 | -22.83256 | -43.06218 | 106° | 86km/h | 10716m | 8.8m/s | -40.9°C | 70.7% | 258.2hPa | 0V | 00:00:00 | 00:00:00 | 00:00:00 | |
| PU1XMG-16 | 2026-08-31 12:02:16 | -22.83223 | -43.06354 | 104° | 86km/h | 10684m | 4.3m/s | -40.6°C | 72.0% | 259.4hPa | 0V | 00:00:00 | 00:00:00 | 00:00:00 | |
| PU1XMG-16 | 2026-08-31 12:02:08 | -22.83188 | -43.06534 | 104° | 86km/h | 10643m | 4.3m/s | -40.2°C | 70.7% | 261.1hPa | 0V | 00:00:00 | 00:00:00 | 00:00:00 | |
| PU1XMG-16 | 2026-08-31 12:02:02 | -22.83163 | -43.06649 | 103° | 88km/h | 10616m | 6.5m/s | -39.9°C | 70.0% | 262.1hPa | 0V | 00:00:00 | 00:00:00 | 00:00:00 | |
| PU1XMG-16 | 2026-08-31 12:01:44 | -22.83074 | -43.07087 | 105° | 88km/h | 10511m | 5.0m/s | -39.1°C | 76.2% | 266.1hPa | 0V | 00:00:00 | 00:00:00 | 00:00:00 | |
| PU1XMG-16 | 2026-08-31 12:01:38 | -22.83051 | -43.07204 | 102° | 86km/h | 10487m | 5.7m/s | -38.9°C | 76.1% | 267.0hPa | 0V | 00:00:00 | 00:00:00 | 00:00:00 | |
| PU1XMG-16 | 2026-08-31 12:01:32 | -22.83015 | -43.07345 | 109° | 91km/h | 10457m | 4.8m/s | -38.7°C | 75.4% | 268.3hPa | 0V | 00:00:00 | 00:00:00 | 00:00:00 | |
| PU1XMG-16 | 2026-08-31 12:01:26 | -22.82974 | -43.07497 | 104° | 93km/h | 10425m | 5.7m/s | -38.5°C | 76.9% | 269.5hPa | 0V | 00:00:00 | 00:00:00 | 00:00:00 | |
| PU1XMG-16 | 2026-08-31 12:01:10 | -22.82880 | -43.07835 | 105° | 89km/h | 10307m | 8.4m/s | -37.6°C | 69.3% | 274.1hPa | 0V | 00:00:00 | 00:00:00 | 00:00:00 | |
| PU1XMG-16 | 2026-08-31 12:01:04 | -22.82849 | -43.07964 | 114° | 84km/h | 10265m | 7.2m/s | -37.2°C | 65.6% | 275.8hPa | 0V | 00:00:00 | 00:00:00 | 00:00:00 | |
| PU1XMG-16 | 2026-08-31 12:00:59 | -22.82823 | -43.08079 | 96° | 71km/h | 10230m | 7.9m/s | -37.0°C | 66.4% | 277.2hPa | 0V | 00:00:00 | 00:00:00 | 00:00:00 | |
| PU1XMG-16 | 2026-08-31 12:00:53 | -22.82795 | -43.08189 | 101° | 82km/h | 10182m | 6.3m/s | -36.5°C | 63.6% | 279.2hPa | 0V | 00:00:00 | 00:00:00 | 00:00:00 | |
| PU1XMG-16 | 2026-08-31 12:00:48 | -22.82784 | -43.08284 | 109° | 58km/h | 10146m | 6.5m/s | -36.2°C | 64.2% | 280.6hPa | 0V | 00:00:00 | 00:00:00 | 00:00:00 | |
| PU1XMG-16 | 2026-08-31 12:00:43 | -22.82747 | -43.08392 | 115° | 75km/h | 10099m | 7.6m/s | -35.9°C | 64.1% | 282.5hPa | 0V | 00:00:00 | 00:00:00 | 00:00:00 | |
| PU1XMG-16 | 2026-08-31 12:00:38 | -22.82735 | -43.08463 | 86° | 46km/h | 10065m | 10.1m/s | -35.7°C | 62.1% | 283.8hPa | 0V | 00:00:00 | 00:00:00 | 00:00:00 | |
| PU1XMG-16 | 2026-08-31 12:00:32 | -22.82725 | -43.08566 | 101° | 71km/h | 10020m | 8.4m/s | -35.3°C | 59.7% | 285.6hPa | 0V | 00:00:00 | 00:00:00 | 00:00:00 | |
| PU1XMG-16 | 2026-08-31 12:00:27 | -22.82711 | -43.08649 | 101° | 58km/h | 9987m | 5.9m/s | -34.9°C | 58.4% | 287.0hPa | 0V | 00:00:00 | 00:00:00 | 00:00:00 | |
| PU1XMG-16 | 2026-08-31 12:00:21 | -22.82697 | -43.08749 | 99° | 64km/h | 9954m | 5.5m/s | -34.6°C | 58.9% | 288.4hPa | 0V | 00:00:00 | 00:00:00 | 00:00:00 | |
| PU1XMG-16 | 2026-08-31 12:00:16 | -22.82690 | -43.08831 | 97° | 58km/h | 9925m | 7.7m/s | -34.4°C | 58.8% | 289.6hPa | 0V | 00:00:00 | 00:00:00 | 00:00:00 | |
| PU1XMG-16 | 2026-08-31 12:00:09 | -22.82671 | -43.08934 | 104° | 68km/h | 9886m | 6.1m/s | -34.1°C | 57.3% | 291.2hPa | 0V | 00:00:00 | 00:00:00 | 00:00:00 | |
| PU1XMG-16 | 2026-08-31 12:00:01 | -22.82645 | -43.09087 | 107° | 60km/h | 9840m | 5.9m/s | -33.6°C | 57.5% | 293.1hPa | 0V | 00:00:00 | 00:00:00 | 00:00:00 | |
| PU1XMG-16 | 2026-08-31 11:59:55 | -22.82620 | -43.09188 | 98° | 64km/h | 9809m | 4.4m/s | -33.4°C | 58.2% | 294.4hPa | 0V | 00:00:00 | 00:00:00 | 00:00:00 | |
| PU1XMG-16 | 2026-08-31 11:59:46 | -22.82592 | -43.09333 | 101° | 64km/h | 9756m | 8.1m/s | -33.0°C | 57.7% | 296.7hPa | 0V | 00:00:00 | 00:00:00 | 00:00:00 | |
| PU1XMG-16 | 2026-08-31 11:59:40 | -22.82580 | -43.09443 | 93° | 58km/h | 9723m | 5.7m/s | -32.8°C | 60.0% | 298.0hPa | 0V | 00:00:00 | 00:00:00 | 00:00:00 | |
| PU1XMG-16 | 2026-08-31 11:59:33 | -22.82560 | -43.09548 | 113° | 55km/h | 9672m | 4.0m/s | -32.5°C | 60.5% | 300.2hPa | 0V | 00:00:00 | 00:00:00 | 00:00:00 | |
| PU1XMG-16 | 2026-08-31 11:59:27 | -22.82551 | -43.09641 | 80° | 53km/h | 9641m | 7.8m/s | -32.2°C | 61.2% | 301.6hPa | 0V | 00:00:00 | 00:00:00 | 00:00:00 | |
| PU1XMG-16 | 2026-08-31 11:59:19 | -22.82553 | -43.09720 | 97° | 62km/h | 9598m | 7.5m/s | -31.9°C | 59.6% | 303.3hPa | 0V | 00:00:00 | 00:00:00 | 00:00:00 | |
| PU1XMG-16 | 2026-08-31 11:59:14 | -22.82558 | -43.09815 | 76° | 42km/h | 9551m | 5.2m/s | -31.5°C | 60.6% | 305.4hPa | 0V | 00:00:00 | 00:00:00 | 00:00:00 | |
| PU1XMG-16 | 2026-08-31 11:59:09 | -22.82553 | -43.09872 | 108° | 46km/h | 9520m | 6.6m/s | -31.4°C | 60.1% | 306.6hPa | 0V | 00:00:00 | 00:00:00 | 00:00:00 | |
| PU1XMG-16 | 2026-08-31 11:59:04 | -22.82554 | -43.09936 | 84° | 51km/h | 9483m | 8.0m/s | -31.2°C | 60.4% | 308.3hPa | 0V | 00:00:00 | 00:00:00 | 00:00:00 | |
| PU1XMG-16 | 2026-08-31 11:58:57 | -22.82560 | -43.10011 | 90° | 47km/h | 9446m | 5.7m/s | -30.8°C | 61.8% | 310.0hPa | 0V | 00:00:00 | 00:00:00 | 00:00:00 | |
| PU1XMG-16 | 2026-08-31 11:58:53 | -22.82559 | -43.10076 | 96° | 46km/h | 9417m | 6.9m/s | -30.6°C | 65.0% | 311.2hPa | 0V | 00:00:00 | 00:00:00 | 00:00:00 | |
| PU1XMG-16 | 2026-08-31 11:58:13 | -22.82533 | -43.10539 | 99° | 42km/h | 9195m | 7.0m/s | -28.8°C | 69.4% | 321.0hPa | 0V | 00:00:00 | 00:00:00 | 00:00:00 | |
| PU1XMG-16 | 2026-08-31 11:58:05 | -22.82524 | -43.10619 | 97° | 44km/h | 9159m | 6.2m/s | -28.5°C | 68.5% | 322.6hPa | 0V | 00:00:00 | 00:00:00 | 00:00:00 | |
| PU1XMG-16 | 2026-08-31 11:57:55 | -22.82515 | -43.10743 | 90° | 46km/h | 9109m | 6.5m/s | -28.1°C | 69.3% | 324.9hPa | 0V | 00:00:00 | 00:00:00 | 00:00:00 | |
| PU1XMG-16 | 2026-08-31 11:57:47 | -22.82514 | -43.10839 | 92° | 46km/h | 9067m | 6.2m/s | -27.7°C | 69.1% | 326.8hPa | 0V | 00:00:00 | 00:00:00 | 00:00:00 | |
| PU1XMG-16 | 2026-08-31 11:57:42 | -22.82514 | -43.10899 | 89° | 42km/h | 9039m | 5.9m/s | -27.5°C | 69.7% | 328.1hPa | 0V | 00:00:00 | 00:00:00 | 00:00:00 | |
| PU1XMG-16 | 2026-08-31 11:57:37 | -22.82509 | -43.10971 | 94° | 46km/h | 9006m | 5.2m/s | -27.3°C | 68.7% | 329.7hPa | 0V | 00:00:00 | 00:00:00 | 00:00:00 | |
| PU1XMG-16 | 2026-08-31 11:57:31 | -22.82506 | -43.11047 | 90° | 49km/h | 8969m | 5.5m/s | -27.2°C | 66.1% | 331.3hPa | 0V | 00:00:00 | 00:00:00 | 00:00:00 | |
| PU1XMG-16 | 2026-08-31 11:57:24 | -22.82506 | -43.11127 | 92° | 46km/h | 8937m | 5.1m/s | -26.9°C | 65.6% | 332.8hPa | 0V | 00:00:00 | 00:00:00 | 00:00:00 | |
| PU1XMG-16 | 2026-08-31 11:57:19 | -22.82507 | -43.11189 | 89° | 47km/h | 8914m | 6.2m/s | -26.7°C | 67.6% | 333.9hPa | 0V | 00:00:00 | 00:00:00 | 00:00:00 | |
| PU1XMG-16 | 2026-08-31 11:57:14 | -22.82508 | -43.11269 | 87° | 42km/h | 8883m | 4.6m/s | -26.5°C | 71.6% | 335.3hPa | 0V | 00:00:00 | 00:00:00 | 00:00:00 | |
| PU1XMG-16 | 2026-08-31 11:57:08 | -22.82517 | -43.11335 | 82° | 47km/h | 8850m | 7.3m/s | -26.3°C | 70.9% | 336.7hPa | 0V | 00:00:00 | 00:00:00 | 00:00:00 | |
| PU1XMG-16 | 2026-08-31 11:57:02 | -22.82521 | -43.11415 | 94° | 42km/h | 8820m | 4.3m/s | -26.1°C | 69.2% | 338.2hPa | 0V | 00:00:00 | 00:00:00 | 00:00:00 | |
| PU1XMG-16 | 2026-08-31 11:56:54 | -22.82529 | -43.11492 | 83° | 47km/h | 8780m | 6.7m/s | -25.7°C | 67.5% | 340.0hPa | 0V | 00:00:00 | 00:00:00 | 00:00:00 | |
| PU1XMG-16 | 2026-08-31 11:56:48 | -22.82535 | -43.11573 | 88° | 46km/h | 8750m | 6.2m/s | -25.4°C | 65.3% | 341.4hPa | 0V | 00:00:00 | 00:00:00 | 00:00:00 | |
| PU1XMG-16 | 2026-08-31 11:56:43 | -22.82549 | -43.11646 | 73° | 40km/h | 8715m | 5.9m/s | -25.2°C | 64.2% | 342.9hPa | 0V | 00:00:00 | 00:00:00 | 00:00:00 | |
| PU1XMG-16 | 2026-08-31 11:56:37 | -22.82559 | -43.11713 | 83° | 44km/h | 8680m | 7.7m/s | -24.8°C | 63.2% | 344.6hPa | 0V | 00:00:00 | 00:00:00 | 00:00:00 | |
| PU1XMG-16 | 2026-08-31 11:56:31 | -22.82568 | -43.11792 | 88° | 53km/h | 8647m | 6.1m/s | -24.5°C | 63.1% | 346.3hPa | 0V | 00:00:00 | 00:00:00 | 00:00:00 | |
| PU1XMG-16 | 2026-08-31 11:56:25 | -22.82586 | -43.11877 | 78° | 49km/h | 8610m | 7.6m/s | -24.2°C | 62.6% | 348.0hPa | 0V | 00:00:00 | 00:00:00 | 00:00:00 | |
| PU1XMG-16 | 2026-08-31 11:56:19 | -22.82591 | -43.11940 | 95° | 49km/h | 8583m | 4.0m/s | -23.9°C | 63.1% | 349.4hPa | 0V | 00:00:00 | 00:00:00 | 00:00:00 | |
| PU1XMG-16 | 2026-08-31 11:56:14 | -22.82587 | -43.12002 | 90° | 49km/h | 8550m | 5.5m/s | -23.7°C | 64.7% | 351.0hPa | 0V | 00:00:00 | 00:00:00 | 00:00:00 | |
| PU1XMG-16 | 2026-08-31 11:56:10 | -22.82595 | -43.12069 | 90° | 51km/h | 8518m | 7.6m/s | -23.4°C | 65.0% | 352.4hPa | 0V | 00:00:00 | 00:00:00 | 00:00:00 | |
| PU1XMG-16 | 2026-08-31 11:56:03 | -22.82594 | -43.12151 | 95° | 57km/h | 8472m | 9.5m/s | -23.0°C | 63.4% | 354.5hPa | 0V | 00:00:00 | 00:00:00 | 00:00:00 | |
| PU1XMG-16 | 2026-08-31 11:55:56 | -22.82586 | -43.12253 | 89° | 53km/h | 8417m | 5.0m/s | -22.5°C | 62.1% | 357.3hPa | 0V | 00:00:00 | 00:00:00 | 00:00:00 | |
| PU1XMG-16 | 2026-08-31 11:55:50 | -22.82588 | -43.12316 | 124° | 29km/h | 8376m | 8.5m/s | -22.2°C | 61.8% | 359.3hPa | 0V | 00:00:00 | 00:00:00 | 00:00:00 | |
| PU1XMG-16 | 2026-08-31 11:55:43 | -22.82574 | -43.12395 | 75° | 49km/h | 8333m | 8.3m/s | -21.9°C | 61.5% | 361.4hPa | 0V | 00:00:00 | 00:00:00 | 00:00:00 | |
| PU1XMG-16 | 2026-08-31 11:55:33 | -22.82578 | -43.12506 | 104° | 40km/h | 8262m | 5.9m/s | -21.5°C | 55.8% | 365.0hPa | 0V | 00:00:00 | 00:00:00 | 00:00:00 | |
| PU1XMG-16 | 2026-08-31 11:55:25 | -22.82553 | -43.12607 | 102° | 46km/h | 8224m | 5.7m/s | -21.2°C | 53.4% | 366.8hPa | 0V | 00:00:00 | 00:00:00 | 00:00:00 | |
| PU1XMG-16 | 2026-08-31 11:55:20 | -22.82544 | -43.12674 | 98° | 53km/h | 8194m | 5.8m/s | -20.9°C | 51.6% | 368.3hPa | 0V | 00:00:00 | 00:00:00 | 00:00:00 | |
| PU1XMG-16 | 2026-08-31 11:55:10 | -22.82504 | -43.12767 | 103° | 44km/h | 8138m | 6.3m/s | -20.4°C | 49.2% | 371.1hPa | 0V | 00:00:00 | 00:00:00 | 00:00:00 | |
| PU1XMG-16 | 2026-08-31 11:55:06 | -22.82489 | -43.12824 | 120° | 35km/h | 8099m | 5.7m/s | -20.4°C | 52.1% | 373.0hPa | 0V | 00:00:00 | 00:00:00 | 00:00:00 | |
| PU1XMG-16 | 2026-08-31 11:54:59 | -22.82463 | -43.12882 | 122° | 44km/h | 8059m | 8.1m/s | -20.2°C | 53.4% | 375.1hPa | 0V | 00:00:00 | 00:00:00 | 00:00:00 | |
| PU1XMG-16 | 2026-08-31 11:54:55 | -22.82427 | -43.12936 | 129° | 53km/h | 8031m | 3.7m/s | -19.9°C | 52.9% | 376.5hPa | 0V | 00:00:00 | 00:00:00 | 00:00:00 | |
| PU1XMG-16 | 2026-08-31 11:54:49 | -22.82396 | -43.13004 | 114° | 44km/h | 7996m | 7.0m/s | -19.7°C | 51.4% | 378.4hPa | 0V | 00:00:00 | 00:00:00 | 00:00:00 | |
| PU1XMG-16 | 2026-08-31 11:54:42 | -22.82373 | -43.13071 | 111° | 40km/h | 7965m | 5.5m/s | -19.3°C | 50.5% | 380.0hPa | 0V | 00:00:00 | 00:00:00 | 00:00:00 | |
| PU1XMG-16 | 2026-08-31 11:54:38 | -22.82351 | -43.13112 | 132° | 33km/h | 7939m | 6.1m/s | -19.2°C | 50.7% | 381.2hPa | 0V | 00:00:00 | 00:00:00 | 00:00:00 | |
| PU1XMG-16 | 2026-08-31 11:54:32 | -22.82318 | -43.13159 | 109° | 42km/h | 7906m | 7.1m/s | -18.9°C | 50.9% | 382.9hPa | 0V | 00:00:00 | 00:00:00 | 00:00:00 | |
| PU1XMG-16 | 2026-08-31 11:54:26 | -22.82301 | -43.13243 | 100° | 38km/h | 7859m | 7.3m/s | -18.8°C | 57.6% | 385.2hPa | 0V | 00:00:00 | 00:00:00 | 00:00:00 | |
| PU1XMG-16 | 2026-08-31 11:54:21 | -22.82295 | -43.13286 | 102° | 40km/h | 7822m | 6.1m/s | -18.7°C | 67.7% | 387.3hPa | 0V | 00:00:00 | 00:00:00 | 00:00:00 | |
| PU1XMG-16 | 2026-08-31 11:54:15 | -22.82267 | -43.13343 | 124° | 31km/h | 7785m | 5.5m/s | -18.5°C | 68.0% | 389.1hPa | 0V | 00:00:00 | 00:00:00 | 00:00:00 | |
| PU1XMG-16 | 2026-08-31 11:54:09 | -22.82249 | -43.13403 | 103° | 42km/h | 7743m | 6.8m/s | -18.3°C | 71.9% | 391.2hPa | 0V | 00:00:00 | 00:00:00 | 00:00:00 | |
| PU1XMG-16 | 2026-08-31 11:54:03 | -22.82243 | -43.13470 | 86° | 44km/h | 7709m | 5.3m/s | -18.1°C | 75.5% | 393.2hPa | 0V | 00:00:00 | 00:00:00 | 00:00:00 | |
| PU1XMG-16 | 2026-08-31 11:53:58 | -22.82249 | -43.13525 | 94° | 38km/h | 7681m | 4.9m/s | -18.0°C | 74.3% | 394.6hPa | 0V | 00:00:00 | 00:00:00 | 00:00:00 | |
| PU1XMG-16 | 2026-08-31 11:53:52 | -22.82253 | -43.13595 | 86° | 49km/h | 7641m | 5.0m/s | -17.8°C | 73.2% | 396.7hPa | 0V | 00:00:00 | 00:00:00 | 00:00:00 | |
| PU1XMG-16 | 2026-08-31 11:53:42 | -22.82259 | -43.13711 | 72° | 46km/h | 7587m | 6.4m/s | -18.2°C | 85.8% | 399.5hPa | 0V | 00:00:00 | 00:00:00 | 00:00:00 | |
| PU1XMG-16 | 2026-08-31 11:53:35 | -22.82279 | -43.13786 | 85° | 49km/h | 7552m | 4.3m/s | -18.2°C | 79.9% | 401.3hPa | 0V | 00:00:00 | 00:00:00 | 00:00:00 | |
| PU1XMG-16 | 2026-08-31 11:53:30 | -22.82282 | -43.13873 | 87° | 53km/h | 7514m | 6.8m/s | -17.9°C | 76.0% | 403.4hPa | 0V | 00:00:00 | 00:00:00 | 00:00:00 | |
| PU1XMG-16 | 2026-08-31 11:53:24 | -22.82291 | -43.13953 | 89° | 49km/h | 7484m | 6.0m/s | -17.7°C | 73.5% | 405.2hPa | 0V | 00:00:00 | 00:00:00 | 00:00:00 | |
| PU1XMG-16 | 2026-08-31 11:53:19 | -22.82293 | -43.14019 | 91° | 47km/h | 7458m | 5.3m/s | -17.5°C | 71.1% | 406.6hPa | 0V | 00:00:00 | 00:00:00 | 00:00:00 | |
| PU1XMG-16 | 2026-08-31 11:53:13 | -22.82298 | -43.14096 | 88° | 42km/h | 7423m | 5.6m/s | -17.2°C | 68.9% | 408.5hPa | 0V | 00:00:00 | 00:00:00 | 00:00:00 | |
| PU1XMG-16 | 2026-08-31 11:53:07 | -22.82295 | -43.14159 | 92° | 49km/h | 7397m | 4.1m/s | -16.9°C | 66.5% | 410.0hPa | 0V | 00:00:00 | 00:00:00 | 00:00:00 | |
| PU1XMG-16 | 2026-08-31 11:53:02 | -22.82306 | -43.14240 | 71° | 49km/h | 7366m | 5.2m/s | -16.7°C | 64.5% | 411.6hPa | 0V | 00:00:00 | 00:00:00 | 00:00:00 | |
| PU1XMG-16 | 2026-08-31 11:52:56 | -22.82319 | -43.14296 | 82° | 38km/h | 7340m | 6.2m/s | -16.5°C | 60.8% | 413.0hPa | 0V | 00:00:00 | 00:00:00 | 00:00:00 | |
| PU1XMG-16 | 2026-08-31 11:52:51 | -22.82332 | -43.14380 | 88° | 55km/h | 7300m | 6.1m/s | -16.2°C | 50.2% | 415.2hPa | 0V | 00:00:00 | 00:00:00 | 00:00:00 | |
| PU1XMG-16 | 2026-08-31 11:52:46 | -22.82334 | -43.14449 | 99° | 42km/h | 7263m | 3.9m/s | -15.8°C | 43.0% | 417.2hPa | 0V | 00:00:00 | 00:00:00 | 00:00:00 | |
| PU1XMG-16 | 2026-08-31 11:52:40 | -22.82337 | -43.14506 | 79° | 53km/h | 7237m | 5.2m/s | -15.6°C | 40.6% | 418.6hPa | 0V | 00:00:00 | 00:00:00 | 00:00:00 | |
| PU1XMG-16 | 2026-08-31 11:52:35 | -22.82349 | -43.14593 | 99° | 51km/h | 7198m | 5.3m/s | -15.2°C | 38.9% | 420.7hPa | 0V | 00:00:00 | 00:00:00 | 00:00:00 | |
| PU1XMG-16 | 2026-08-31 11:52:28 | -22.82339 | -43.14681 | 93° | 58km/h | 7163m | 8.8m/s | -15.0°C | 30.6% | 422.7hPa | 0V | 00:00:00 | 00:00:00 | 00:00:00 | |
| PU1XMG-16 | 2026-08-31 11:52:23 | -22.82340 | -43.14782 | 92° | 60km/h | 7127m | 4.7m/s | -14.6°C | 27.5% | 424.6hPa | 0V | 00:00:00 | 00:00:00 | 00:00:00 | |
| PU1XMG-16 | 2026-08-31 11:52:18 | -22.82337 | -43.14851 | 92° | 40km/h | 7099m | 5.5m/s | -14.4°C | 23.8% | 426.2hPa | 0V | 00:00:00 | 00:00:00 | 00:00:00 | |
| PU1XMG-16 | 2026-08-31 11:52:11 | -22.82327 | -43.14916 | 110° | 44km/h | 7060m | 4.7m/s | -14.1°C | 15.7% | 428.5hPa | 0V | 00:00:00 | 00:00:00 | 00:00:00 | |
| PU1XMG-16 | 2026-08-31 11:52:06 | -22.82311 | -43.14997 | 98° | 47km/h | 7024m | 6.5m/s | -13.7°C | 13.6% | 430.6hPa | 0V | 00:00:00 | 00:00:00 | 00:00:00 | |
| PU1XMG-16 | 2026-08-31 11:52:00 | -22.82301 | -43.15084 | 96° | 58km/h | 6994m | 4.2m/s | -13.4°C | 13.6% | 432.4hPa | 0V | 00:00:00 | 00:00:00 | 00:00:00 | |
| PU1XMG-16 | 2026-08-31 11:51:54 | -22.82286 | -43.15180 | 104° | 62km/h | 6966m | 4.2m/s | -13.3°C | 17.6% | 434.0hPa | 0V | 00:00:00 | 00:00:00 | 00:00:00 | |
| PU1XMG-16 | 2026-08-31 11:51:49 | -22.82272 | -43.15248 | 98° | 47km/h | 6943m | 6.9m/s | -13.2°C | 16.5% | 435.2hPa | 0V | 00:00:00 | 00:00:00 | 00:00:00 | |
| PU1XMG-16 | 2026-08-31 11:51:43 | -22.82260 | -43.15337 | 99° | 68km/h | 6910m | 5.3m/s | -12.9°C | 17.4% | 437.1hPa | 0V | 00:00:00 | 00:00:00 | 00:00:00 | |
| PU1XMG-16 | 2026-08-31 11:51:36 | -22.82248 | -43.15443 | 93° | 58km/h | 6878m | 7.3m/s | -12.6°C | 17.3% | 438.8hPa | 0V | 00:00:00 | 00:00:00 | 00:00:00 | |
| PU1XMG-16 | 2026-08-31 11:51:32 | -22.82245 | -43.15516 | 100° | 44km/h | 6851m | 4.0m/s | -12.3°C | 17.1% | 440.4hPa | 0V | 00:00:00 | 00:00:00 | 00:00:00 | |
| PU1XMG-16 | 2026-08-31 11:51:26 | -22.82224 | -43.15597 | 112° | 62km/h | 6817m | 3.7m/s | -12.0°C | 16.5% | 442.3hPa | 0V | 00:00:00 | 00:00:00 | 00:00:00 | |
| PU1XMG-16 | 2026-08-31 11:51:20 | -22.82211 | -43.15699 | 82° | 62km/h | 6785m | 4.8m/s | -11.7°C | 16.5% | 444.2hPa | 0V | 00:00:00 | 00:00:00 | 00:00:00 | |
| PU1XMG-16 | 2026-08-31 11:51:15 | -22.82213 | -43.15773 | 102° | 49km/h | 6752m | 8.5m/s | -11.5°C | 16.6% | 446.1hPa | 0V | 00:00:00 | 00:00:00 | 00:00:00 | |
| PU1XMG-16 | 2026-08-31 11:51:09 | -22.82195 | -43.15866 | 100° | 57km/h | 6715m | 6.4m/s | -11.3°C | 19.1% | 448.3hPa | 0V | 00:00:00 | 00:00:00 | 00:00:00 | |
| PU1XMG-16 | 2026-08-31 11:51:03 | -22.82194 | -43.15969 | 90° | 58km/h | 6680m | 4.0m/s | -11.3°C | 20.8% | 450.3hPa | 0V | 00:00:00 | 00:00:00 | 00:00:00 | |
| PU1XMG-16 | 2026-08-31 11:50:58 | -22.82195 | -43.16041 | 92° | 49km/h | 6648m | 6.2m/s | -11.1°C | 21.0% | 452.2hPa | 0V | 00:00:00 | 00:00:00 | 00:00:00 | |
| PU1XMG-16 | 2026-08-31 11:50:52 | -22.82186 | -43.16125 | 95° | 53km/h | 6618m | 3.1m/s | -10.9°C | 22.2% | 453.8hPa | 0V | 00:00:00 | 00:00:00 | 00:00:00 | |
| PU1XMG-16 | 2026-08-31 11:50:46 | -22.82199 | -43.16218 | 87° | 55km/h | 6589m | 6.0m/s | -10.7°C | 27.1% | 455.7hPa | 0V | 00:00:00 | 00:00:00 | 00:00:00 | |
| PU1XMG-16 | 2026-08-31 11:50:36 | -22.82203 | -43.16364 | 88° | 49km/h | 6537m | 5.0m/s | -10.4°C | 28.9% | 458.8hPa | 0V | 00:00:00 | 00:00:00 | 00:00:00 | |
| PU1XMG-16 | 2026-08-31 11:50:29 | -22.82203 | -43.16444 | 94° | 46km/h | 6511m | 3.9m/s | -10.4°C | 24.7% | 460.3hPa | 0V | 00:00:00 | 00:00:00 | 00:00:00 | |
| PU1XMG-16 | 2026-08-31 11:50:24 | -22.82206 | -43.16507 | 83° | 49km/h | 6486m | 5.3m/s | -10.3°C | 17.5% | 461.6hPa | 0V | 00:00:00 | 00:00:00 | 00:00:00 | |
| PU1XMG-16 | 2026-08-31 11:50:19 | -22.82215 | -43.16572 | 87° | 53km/h | 6463m | 4.4m/s | -10.0°C | 17.5% | 463.1hPa | 0V | 00:00:00 | 00:00:00 | 00:00:00 | |
| PU1XMG-16 | 2026-08-31 11:50:14 | -22.82228 | -43.16642 | 77° | 58km/h | 6434m | 3.7m/s | -9.8°C | 16.0% | 465.0hPa | 0V | 00:00:00 | 00:00:00 | 00:00:00 | |
| PU1XMG-16 | 2026-08-31 11:50:10 | -22.82257 | -43.16728 | 74° | 57km/h | 6403m | 7.0m/s | -9.7°C | 11.5% | 466.8hPa | 0V | 00:00:00 | 00:00:00 | 00:00:00 | |
| PU1XMG-16 | 2026-08-31 11:50:02 | -22.82251 | -43.16826 | 101° | 49km/h | 6354m | 5.3m/s | -9.4°C | 13.0% | 469.8hPa | 0V | 00:00:00 | 00:00:00 | 00:00:00 | |
| PU1XMG-16 | 2026-08-31 11:49:55 | -22.82248 | -43.16921 | 87° | 57km/h | 6322m | 4.9m/s | -9.1°C | 12.9% | 471.6hPa | 0V | 00:00:00 | 00:00:00 | 00:00:00 | |
| PU1XMG-16 | 2026-08-31 11:49:50 | -22.82245 | -43.17009 | 84° | 37km/h | 6278m | 4.8m/s | -8.9°C | 9.1% | 474.2hPa | 0V | 00:00:00 | 00:00:00 | 00:00:00 | |
| PU1XMG-16 | 2026-08-31 11:49:43 | -22.82259 | -43.17085 | 86° | 62km/h | 6243m | 7.1m/s | -8.6°C | 7.8% | 476.4hPa | 0V | 00:00:00 | 00:00:00 | 00:00:00 | |
| PU1XMG-16 | 2026-08-31 11:49:37 | -22.82252 | -43.17176 | 103° | 49km/h | 6205m | 7.3m/s | -8.2°C | 6.9% | 479.0hPa | 0V | 00:00:00 | 00:00:00 | 00:00:00 | |
| PU1XMG-16 | 2026-08-31 11:49:31 | -22.82233 | -43.17256 | 100° | 47km/h | 6171m | 5.3m/s | -8.0°C | 6.4% | 481.0hPa | 0V | 00:00:00 | 00:00:00 | 00:00:00 | |
| PU1XMG-16 | 2026-08-31 11:49:26 | -22.82217 | -43.17325 | 104° | 53km/h | 6139m | 6.0m/s | -7.8°C | 6.7% | 482.9hPa | 0V | 00:00:00 | 00:00:00 | 00:00:00 | |
| PU1XMG-16 | 2026-08-31 11:49:22 | -22.82197 | -43.17391 | 114° | 51km/h | 6108m | 5.4m/s | -7.6°C | 9.7% | 484.9hPa | 0V | 00:00:00 | 00:00:00 | 00:00:00 | |
| PU1XMG-16 | 2026-08-31 11:49:16 | -22.82180 | -43.17475 | 94° | 44km/h | 6072m | 5.3m/s | -7.3°C | 10.6% | 487.2hPa | 0V | 00:00:00 | 00:00:00 | 00:00:00 | |
| PU1XMG-16 | 2026-08-31 11:49:09 | -22.82183 | -43.17548 | 95° | 44km/h | 6033m | 7.4m/s | -7.0°C | 11.3% | 489.5hPa | 0V | 00:00:00 | 00:00:00 | 00:00:00 | |
| PU1XMG-16 | 2026-08-31 11:49:04 | -22.82185 | -43.17625 | 89° | 57km/h | 5995m | 6.9m/s | -6.7°C | 11.8% | 491.8hPa | 0V | 00:00:00 | 00:00:00 | 00:00:00 | |
| PU1XMG-16 | 2026-08-31 11:48:58 | -22.82183 | -43.17694 | 87° | 46km/h | 5964m | 4.3m/s | -6.5°C | 12.2% | 493.8hPa | 0V | 00:00:00 | 00:00:00 | 00:00:00 | |
| PU1XMG-16 | 2026-08-31 11:48:53 | -22.82187 | -43.17762 | 83° | 47km/h | 5931m | 6.5m/s | -6.7°C | 17.1% | 496.0hPa | 0V | 00:00:00 | 00:00:00 | 00:00:00 | |
| PU1XMG-16 | 2026-08-31 11:48:46 | -22.82191 | -43.17836 | 99° | 47km/h | 5897m | 6.6m/s | -7.6°C | 25.3% | 498.2hPa | 0V | 00:00:00 | 00:00:00 | 00:00:00 | |
| PU1XMG-16 | 2026-08-31 11:48:41 | -22.82183 | -43.17905 | 92° | 51km/h | 5869m | 5.1m/s | -7.6°C | 22.3% | 499.8hPa | 0V | 00:00:00 | 00:00:00 | 00:00:00 | |
| PU1XMG-16 | 2026-08-31 11:48:36 | -22.82194 | -43.17986 | 86° | 49km/h | 5832m | 4.6m/s | -7.9°C | 41.2% | 502.2hPa | 0V | 00:00:00 | 00:00:00 | 00:00:00 | |
| PU1XMG-16 | 2026-08-31 11:48:29 | -22.82198 | -43.18039 | 82° | 33km/h | 5795m | 4.8m/s | -8.0°C | 54.6% | 504.6hPa | 0V | 00:00:00 | 00:00:00 | 00:00:00 | |
| PU1XMG-16 | 2026-08-31 11:48:24 | -22.82212 | -43.18115 | 78° | 40km/h | 5757m | 6.6m/s | -8.4°C | 81.2% | 507.0hPa | 0V | 00:00:00 | 00:00:00 | 00:00:00 | |
| PU1XMG-16 | 2026-08-31 11:48:19 | -22.82221 | -43.18159 | 90° | 35km/h | 5727m | 3.7m/s | -8.3°C | 84.7% | 508.9hPa | 0V | 00:00:00 | 00:00:00 | 00:00:00 | |
| PU1XMG-16 | 2026-08-31 11:48:12 | -22.82237 | -43.18227 | 72° | 47km/h | 5690m | 10.2m/s | -8.2°C | 95.0% | 511.3hPa | 0V | 00:00:00 | 00:00:00 | 00:00:00 | |
| PU1XMG-16 | 2026-08-31 11:48:08 | -22.82242 | -43.18283 | 81° | 33km/h | 5654m | 5.8m/s | -7.9°C | 95.6% | 513.9hPa | 0V | 00:00:00 | 00:00:00 | 00:00:00 | |
| PU1XMG-16 | 2026-08-31 11:48:01 | -22.82247 | -43.18334 | 85° | 31km/h | 5621m | 8.2m/s | -7.7°C | 94.8% | 516.0hPa | 0V | 00:00:00 | 00:00:00 | 00:00:00 | |
| PU1XMG-16 | 2026-08-31 11:47:55 | -22.82245 | -43.18393 | 97° | 40km/h | 5579m | 5.5m/s | -7.4°C | 92.9% | 518.7hPa | 0V | 00:00:00 | 00:00:00 | 00:00:00 | |
| PU1XMG-16 | 2026-08-31 11:47:50 | -22.82244 | -43.18473 | 100° | 47km/h | 5542m | 4.9m/s | -7.1°C | 93.4% | 521.3hPa | 0V | 00:00:00 | 00:00:00 | 00:00:00 | |
| PU1XMG-16 | 2026-08-31 11:47:43 | -22.82248 | -43.18543 | 76° | 46km/h | 5509m | 6.3m/s | -6.9°C | 94.3% | 523.5hPa | 0V | 00:00:00 | 00:00:00 | 00:00:00 | |
| PU1XMG-16 | 2026-08-31 11:47:38 | -22.82255 | -43.18613 | 89° | 42km/h | 5475m | 3.7m/s | -6.8°C | 96.6% | 525.7hPa | 0V | 00:00:00 | 00:00:00 | 00:00:00 | |
| PU1XMG-16 | 2026-08-31 11:47:33 | -22.82254 | -43.18662 | 98° | 35km/h | 5450m | 5.2m/s | -6.8°C | 98.1% | 527.5hPa | 0V | 00:00:00 | 00:00:00 | 00:00:00 | |
| PU1XMG-16 | 2026-08-31 11:47:27 | -22.82249 | -43.18732 | 97° | 35km/h | 5416m | 6.1m/s | -6.6°C | 99.8% | 529.8hPa | 0V | 00:00:00 | 00:00:00 | 00:00:00 | |
| PU1XMG-16 | 2026-08-31 11:47:20 | -22.82250 | -43.18789 | 87° | 55km/h | 5380m | 6.5m/s | -6.2°C | 99.4% | 532.1hPa | 0V | 00:00:00 | 00:00:00 | 00:00:00 | |
| PU1XMG-16 | 2026-08-31 11:47:15 | -22.82265 | -43.18882 | 86° | 51km/h | 5343m | 8.6m/s | -6.0°C | 98.4% | 534.7hPa | 0V | 00:00:00 | 00:00:00 | 00:00:00 | |
| PU1XMG-16 | 2026-08-31 11:47:08 | -22.82260 | -43.18957 | 93° | 53km/h | 5302m | 6.1m/s | -5.7°C | 98.3% | 537.5hPa | 0V | 00:00:00 | 00:00:00 | 00:00:00 | |
| PU1XMG-16 | 2026-08-31 11:47:03 | -22.82271 | -43.19025 | 69° | 46km/h | 5273m | 7.0m/s | -5.5°C | 97.5% | 539.6hPa | 0V | 00:00:00 | 00:00:00 | 00:00:00 | |
| PU1XMG-16 | 2026-08-31 11:46:59 | -22.82285 | -43.19093 | 91° | 57km/h | 5245m | 5.6m/s | -5.5°C | 95.3% | 541.5hPa | 0V | 00:00:00 | 00:00:00 | 00:00:00 | |
| PU1XMG-16 | 2026-08-31 11:46:53 | -22.82299 | -43.19169 | 66° | 49km/h | 5208m | 5.5m/s | -5.2°C | 92.8% | 544.0hPa | 0V | 00:00:00 | 00:00:00 | 00:00:00 | |
| PU1XMG-16 | 2026-08-31 11:46:47 | -22.82320 | -43.19240 | 75° | 51km/h | 5180m | 6.9m/s | -5.0°C | 91.6% | 545.9hPa | 0V | 00:00:00 | 00:00:00 | 00:00:00 | |
| PU1XMG-16 | 2026-08-31 11:46:41 | -22.82335 | -43.19321 | 93° | 55km/h | 5143m | 5.2m/s | -4.7°C | 89.4% | 548.3hPa | 0V | 00:00:00 | 00:00:00 | 00:00:00 | |
| PU1XMG-16 | 2026-08-31 11:46:37 | -22.82345 | -43.19398 | 73° | 60km/h | 5116m | 6.3m/s | -4.4°C | 88.3% | 550.4hPa | 0V | 00:00:00 | 00:00:00 | 00:00:00 | |
| PU1XMG-16 | 2026-08-31 11:46:31 | -22.82365 | -43.19469 | 64° | 38km/h | 5081m | 7.3m/s | -4.2°C | 88.4% | 552.7hPa | 0V | 00:00:00 | 00:00:00 | 00:00:00 | |
| PU1XMG-16 | 2026-08-31 11:46:26 | -22.82392 | -43.19523 | 77° | 40km/h | 5049m | 7.0m/s | -4.0°C | 89.4% | 555.0hPa | 0V | 00:00:00 | 00:00:00 | 00:00:00 | |
| PU1XMG-16 | 2026-08-31 11:46:21 | -22.82393 | -43.19574 | 87° | 40km/h | 5016m | 4.7m/s | -3.7°C | 89.5% | 557.3hPa | 0V | 00:00:00 | 00:00:00 | 00:00:00 | |
| PU1XMG-16 | 2026-08-31 11:46:15 | -22.82402 | -43.19647 | 76° | 47km/h | 4977m | 5.7m/s | -3.5°C | 89.8% | 560.1hPa | 0V | 00:00:00 | 00:00:00 | 00:00:00 | |
| PU1XMG-16 | 2026-08-31 11:46:09 | -22.82423 | -43.19718 | 87° | 42km/h | 4945m | 4.3m/s | -3.2°C | 88.9% | 562.3hPa | 0V | 00:00:00 | 00:00:00 | 00:00:00 | |
| PU1XMG-16 | 2026-08-31 11:46:03 | -22.82437 | -43.19792 | 75° | 60km/h | 4907m | 6.0m/s | -2.9°C | 87.4% | 565.1hPa | 0V | 00:00:00 | 00:00:00 | 00:00:00 | |
| PU1XMG-16 | 2026-08-31 11:45:58 | -22.82456 | -43.19857 | 78° | 37km/h | 4879m | 5.1m/s | -2.6°C | 87.1% | 567.0hPa | 0V | 00:00:00 | 00:00:00 | 00:00:00 | |
| PU1XMG-16 | 2026-08-31 11:45:52 | -22.82473 | -43.19939 | 78° | 58km/h | 4846m | 4.5m/s | -2.4°C | 86.6% | 569.5hPa | 0V | 00:00:00 | 00:00:00 | 00:00:00 | |
| PU1XMG-16 | 2026-08-31 11:45:45 | -22.82493 | -43.20015 | 82° | 51km/h | 4812m | 4.6m/s | -2.1°C | 87.2% | 571.8hPa | 0V | 00:00:00 | 00:00:00 | 00:00:00 | |
| PU1XMG-16 | 2026-08-31 11:45:40 | -22.82510 | -43.20095 | 81° | 58km/h | 4786m | 5.9m/s | -1.9°C | 86.0% | 573.7hPa | 0V | 00:00:00 | 00:00:00 | 00:00:00 | |
| PU1XMG-16 | 2026-08-31 11:45:35 | -22.82518 | -43.20174 | 81° | 55km/h | 4750m | 5.6m/s | -1.6°C | 85.5% | 576.2hPa | 0V | 00:00:00 | 00:00:00 | 00:00:00 | |
| PU1XMG-16 | 2026-08-31 11:45:28 | -22.82534 | -43.20250 | 83° | 42km/h | 4712m | 8.1m/s | -1.3°C | 85.6% | 578.9hPa | 0V | 00:00:00 | 00:00:00 | 00:00:00 | |
| PU1XMG-16 | 2026-08-31 11:45:23 | -22.82559 | -43.20335 | 75° | 53km/h | 4671m | 4.9m/s | -1.3°C | 91.8% | 582.0hPa | 0V | 00:00:00 | 00:00:00 | 00:00:00 | |
| PU1XMG-16 | 2026-08-31 11:45:18 | -22.82569 | -43.20416 | 83° | 62km/h | 4641m | 3.3m/s | -1.1°C | 91.6% | 584.2hPa | 0V | 00:00:00 | 00:00:00 | 00:00:00 | |
| PU1XMG-16 | 2026-08-31 11:45:12 | -22.82589 | -43.20490 | 73° | 37km/h | 4607m | 7.3m/s | -0.9°C | 92.7% | 586.5hPa | 0V | 00:00:00 | 00:00:00 | 00:00:00 | |
| PU1XMG-16 | 2026-08-31 11:45:07 | -22.82600 | -43.20552 | 75° | 58km/h | 4574m | 4.7m/s | -0.9°C | 96.8% | 589.0hPa | 0V | 00:00:00 | 00:00:00 | 00:00:00 | |
| PU1XMG-16 | 2026-08-31 11:45:01 | -22.82627 | -43.20635 | 70° | 46km/h | 4535m | 9.8m/s | -0.7°C | 98.5% | 591.7hPa | 0V | 00:00:00 | 00:00:00 | 00:00:00 | |
| PU1XMG-16 | 2026-08-31 11:44:55 | -22.82638 | -43.20702 | 84° | 46km/h | 4497m | 4.6m/s | -0.4°C | 97.6% | 594.6hPa | 0V | 00:00:00 | 00:00:00 | 00:00:00 | |
| PU1XMG-16 | 2026-08-31 11:44:49 | -22.82667 | -43.20788 | 67° | 64km/h | 4469m | 8.2m/s | -0.3°C | 98.9% | 596.7hPa | 0V | 00:00:00 | 00:00:00 | 00:00:00 | |
| PU1XMG-16 | 2026-08-31 11:44:43 | -22.82681 | -43.20864 | 91° | 40km/h | 4431m | 7.0m/s | -0.0°C | 98.4% | 599.5hPa | 0V | 00:00:00 | 00:00:00 | 00:00:00 | |
| PU1XMG-16 | 2026-08-31 11:44:37 | -22.82696 | -43.20941 | 64° | 51km/h | 4396m | 4.7m/s | 0.2°C | 98.9% | 602.1hPa | 0V | 00:00:00 | 00:00:00 | 00:00:00 | |
| PU1XMG-16 | 2026-08-31 11:44:32 | -22.82716 | -43.21025 | 90° | 42km/h | 4361m | 5.5m/s | 0.5°C | 98.2% | 604.7hPa | 0V | 00:00:00 | 00:00:00 | 00:00:00 | |
| PU1XMG-16 | 2026-08-31 11:44:26 | -22.82733 | -43.21103 | 65° | 53km/h | 4329m | 6.2m/s | 0.8°C | 96.7% | 607.2hPa | 0V | 00:00:00 | 00:00:00 | 00:00:00 | |
| PU1XMG-16 | 2026-08-31 11:44:20 | -22.82751 | -43.21158 | 86° | 49km/h | 4300m | 5.4m/s | 1.1°C | 94.9% | 609.4hPa | 0V | 00:00:00 | 00:00:00 | 00:00:00 | |
| PU1XMG-16 | 2026-08-31 11:44:14 | -22.82767 | -43.21240 | 67° | 42km/h | 4265m | 5.9m/s | 1.3°C | 96.3% | 612.1hPa | 0V | 00:00:00 | 00:00:00 | 00:00:00 | |
| PU1XMG-16 | 2026-08-31 11:44:08 | -22.82776 | -43.21314 | 77° | 53km/h | 4228m | 5.3m/s | 1.6°C | 96.4% | 614.9hPa | 0V | 00:00:00 | 00:00:00 | 00:00:00 | |
| PU1XMG-16 | 2026-08-31 11:44:03 | -22.82803 | -43.21377 | 72° | 42km/h | 4191m | 5.7m/s | 1.9°C | 95.6% | 617.6hPa | 0V | 00:00:00 | 00:00:00 | 00:00:00 | |
| PU1XMG-16 | 2026-08-31 11:43:58 | -22.82813 | -43.21433 | 85° | 46km/h | 4158m | 8.3m/s | 2.1°C | 95.8% | 620.1hPa | 0V | 00:00:00 | 00:00:00 | 00:00:00 | |
| PU1XMG-16 | 2026-08-31 11:43:52 | -22.82832 | -43.21506 | 71° | 38km/h | 4118m | 8.0m/s | 2.3°C | 98.2% | 623.3hPa | 0V | 00:00:00 | 00:00:00 | 00:00:00 | |
| PU1XMG-16 | 2026-08-31 11:43:45 | -22.82850 | -43.21577 | 65° | 40km/h | 4081m | 7.6m/s | 2.5°C | 98.1% | 626.3hPa | 0V | 00:00:00 | 00:00:00 | 00:00:00 | |
| PU1XMG-16 | 2026-08-31 11:43:40 | -22.82855 | -43.21629 | 86° | 35km/h | 4047m | 5.4m/s | 2.8°C | 97.2% | 628.9hPa | 0V | 00:00:00 | 00:00:00 | 00:00:00 | |
| PU1XMG-16 | 2026-08-31 11:43:34 | -22.82875 | -43.21686 | 75° | 51km/h | 4020m | 7.1m/s | 3.0°C | 96.5% | 630.9hPa | 0V | 00:00:00 | 00:00:00 | 00:00:00 | |
| PU1XMG-16 | 2026-08-31 11:43:29 | -22.82893 | -43.21757 | 60° | 40km/h | 3986m | 6.6m/s | 3.2°C | 97.3% | 633.5hPa | 0V | 00:00:00 | 00:00:00 | 00:00:00 | |
| PU1XMG-16 | 2026-08-31 11:43:24 | -22.82921 | -43.21803 | 63° | 42km/h | 3961m | 5.9m/s | 3.4°C | 97.1% | 635.4hPa | 0V | 00:00:00 | 00:00:00 | 00:00:00 | |
| PU1XMG-16 | 2026-08-31 11:43:18 | -22.82940 | -43.21864 | 74° | 27km/h | 3928m | 2.8m/s | 3.6°C | 96.4% | 638.1hPa | 0V | 00:00:00 | 00:00:00 | 00:00:00 | |
| PU1XMG-16 | 2026-08-31 11:43:11 | -22.82954 | -43.21910 | 61° | 35km/h | 3892m | 5.7m/s | 3.8°C | 95.7% | 640.8hPa | 0V | 00:00:00 | 00:00:00 | 00:00:00 | |
| PU1XMG-16 | 2026-08-31 11:43:06 | -22.82963 | -43.21954 | 88° | 42km/h | 3863m | 4.9m/s | 4.1°C | 95.3% | 643.1hPa | 0V | 00:00:00 | 00:00:00 | 00:00:00 | |
| PU1XMG-16 | 2026-08-31 11:43:01 | -22.82978 | -43.22006 | 58° | 29km/h | 3826m | 6.1m/s | 4.2°C | 97.0% | 646.0hPa | 0V | 00:00:00 | 00:00:00 | 00:00:00 | |
| PU1XMG-16 | 2026-08-31 11:42:55 | -22.82989 | -43.22059 | 99° | 27km/h | 3793m | 5.4m/s | 4.4°C | 96.2% | 648.7hPa | 0V | 00:00:00 | 00:00:00 | 00:00:00 | |
| PU1XMG-16 | 2026-08-31 11:42:49 | -22.82996 | -43.22115 | 66° | 42km/h | 3762m | 4.9m/s | 4.6°C | 95.9% | 651.2hPa | 0V | 00:00:00 | 00:00:00 | 00:00:00 | |
| PU1XMG-16 | 2026-08-31 11:42:44 | -22.83011 | -43.22154 | 97° | 27km/h | 3729m | 4.6m/s | 4.7°C | 97.7% | 653.7hPa | 0V | 00:00:00 | 00:00:00 | 00:00:00 | |
| PU1XMG-16 | 2026-08-31 11:42:39 | -22.83007 | -43.22189 | 94° | 27km/h | 3703m | 7.9m/s | 4.9°C | 96.9% | 655.9hPa | 0V | 00:00:00 | 00:00:00 | 00:00:00 | |
| PU1XMG-16 | 2026-08-31 11:42:34 | -22.83003 | -43.22228 | 108° | 18km/h | 3668m | 7.1m/s | 5.2°C | 96.6% | 658.7hPa | 0V | 00:00:00 | 00:00:00 | 00:00:00 | |
| PU1XMG-16 | 2026-08-31 11:42:28 | -22.83017 | -43.22258 | 64° | 33km/h | 3633m | 3.7m/s | 5.5°C | 95.7% | 661.5hPa | 0V | 00:00:00 | 00:00:00 | 00:00:00 | |
| PU1XMG-16 | 2026-08-31 11:42:21 | -22.83028 | -43.22292 | 105° | 22km/h | 3595m | 5.3m/s | 5.8°C | 94.5% | 664.6hPa | 0V | 00:00:00 | 00:00:00 | 00:00:00 | |
| PU1XMG-16 | 2026-08-31 11:42:16 | -22.83036 | -43.22331 | 57° | 29km/h | 3566m | 7.3m/s | 6.0°C | 93.9% | 666.9hPa | 0V | 00:00:00 | 00:00:00 | 00:00:00 | |
| PU1XMG-16 | 2026-08-31 11:42:10 | -22.83042 | -43.22361 | 86° | 9km/h | 3528m | 7.2m/s | 5.8°C | 98.9% | 669.9hPa | 0V | 00:00:00 | 00:00:00 | 00:00:00 | |
| PU1XMG-16 | 2026-08-31 11:42:05 | -22.83047 | -43.22380 | 83° | 24km/h | 3496m | 5.8m/s | 6.1°C | 97.6% | 672.6hPa | 0V | 00:00:00 | 00:00:00 | 00:00:00 | |
| PU1XMG-16 | 2026-08-31 11:41:59 | -22.83049 | -43.22418 | 85° | 13km/h | 3460m | 7.1m/s | 6.2°C | 98.3% | 675.5hPa | 0V | 00:00:00 | 00:00:00 | 00:00:00 | |
| PU1XMG-16 | 2026-08-31 11:41:54 | -22.83051 | -43.22441 | 97° | 31km/h | 3427m | 4.6m/s | 6.5°C | 97.2% | 678.3hPa | 0V | 00:00:00 | 00:00:00 | 00:00:00 | |
| PU1XMG-16 | 2026-08-31 11:41:48 | -22.83055 | -43.22487 | 100° | 27km/h | 3388m | 7.1m/s | 6.8°C | 96.6% | 681.3hPa | 0V | 00:00:00 | 00:00:00 | 00:00:00 | |
| PU1XMG-16 | 2026-08-31 11:41:36 | -22.83055 | -43.22598 | 81° | 31km/h | 3313m | 5.4m/s | 7.3°C | 94.2% | 687.8hPa | 0V | 00:00:00 | 00:00:00 | 00:00:00 | |
| PU1XMG-16 | 2026-08-31 11:41:31 | -22.83052 | -43.22651 | 100° | 40km/h | 3280m | 8.7m/s | 7.6°C | 92.8% | 690.6hPa | 0V | 00:00:00 | 00:00:00 | 00:00:00 | |
| PU1XMG-16 | 2026-08-31 11:41:26 | -22.83064 | -43.22712 | 78° | 35km/h | 3232m | 6.8m/s | 8.0°C | 90.7% | 694.4hPa | 0V | 00:00:00 | 00:00:00 | 00:00:00 | |
| PU1XMG-16 | 2026-08-31 11:41:19 | -22.83071 | -43.22784 | 89° | 51km/h | 3195m | 7.6m/s | 8.4°C | 88.4% | 697.4hPa | 0V | 00:00:00 | 00:00:00 | 00:00:00 | |
| PU1XMG-16 | 2026-08-31 11:41:14 | -22.83075 | -43.22843 | 96° | 40km/h | 3165m | 7.6m/s | 8.7°C | 87.2% | 700.1hPa | 0V | 00:00:00 | 00:00:00 | 00:00:00 | |
| PU1XMG-16 | 2026-08-31 11:41:10 | -22.83077 | -43.22903 | 87° | 40km/h | 3131m | 5.0m/s | 8.9°C | 87.2% | 703.0hPa | 0V | 00:00:00 | 00:00:00 | 00:00:00 | |
| PU1XMG-16 | 2026-08-31 11:41:03 | -22.83073 | -43.22975 | 85° | 42km/h | 3090m | 4.6m/s | 9.3°C | 86.1% | 706.4hPa | 0V | 00:00:00 | 00:00:00 | 00:00:00 | |
| PU1XMG-16 | 2026-08-31 11:40:58 | -22.83073 | -43.23022 | 100° | 40km/h | 3059m | 6.7m/s | 9.5°C | 85.2% | 708.9hPa | 0V | 00:00:00 | 00:00:00 | 00:00:00 | |
| PU1XMG-16 | 2026-08-31 11:40:53 | -22.83073 | -43.23092 | 84° | 51km/h | 3023m | 5.0m/s | 9.8°C | 85.1% | 712.2hPa | 0V | 00:00:00 | 00:00:00 | 00:00:00 | |
| PU1XMG-16 | 2026-08-31 11:40:48 | -22.83067 | -43.23162 | 108° | 51km/h | 2994m | 5.3m/s | 10.0°C | 84.9% | 714.5hPa | 0V | 00:00:00 | 00:00:00 | 00:00:00 | |
| PU1XMG-16 | 2026-08-31 11:40:42 | -22.83051 | -43.23244 | 102° | 44km/h | 2951m | 8.8m/s | 10.1°C | 85.4% | 718.2hPa | 0V | 00:00:00 | 00:00:00 | 00:00:00 | |
| PU1XMG-16 | 2026-08-31 11:40:36 | -22.83051 | -43.23302 | 92° | 44km/h | 2916m | 5.8m/s | 10.3°C | 84.4% | 721.4hPa | 0V | 00:00:00 | 00:00:00 | 00:00:00 | |
| PU1XMG-16 | 2026-08-31 11:40:31 | -22.83045 | -43.23380 | 108° | 40km/h | 2873m | 6.0m/s | 10.7°C | 82.6% | 725.0hPa | 0V | 00:00:00 | 00:00:00 | 00:00:00 | |
| PU1XMG-16 | 2026-08-31 11:40:25 | -22.83028 | -43.23435 | 101° | 42km/h | 2838m | 4.6m/s | 11.0°C | 81.9% | 728.1hPa | 0V | 00:00:00 | 00:00:00 | 00:00:00 | |
| PU1XMG-16 | 2026-08-31 11:40:21 | -22.83014 | -43.23495 | 120° | 46km/h | 2803m | 6.4m/s | 11.3°C | 80.6% | 731.0hPa | 0V | 00:00:00 | 00:00:00 | 00:00:00 | |
| PU1XMG-16 | 2026-08-31 11:40:15 | -22.82994 | -43.23572 | 98° | 58km/h | 2766m | 6.2m/s | 11.5°C | 80.3% | 734.3hPa | 0V | 00:00:00 | 00:00:00 | 00:00:00 | |
| PU1XMG-16 | 2026-08-31 11:40:09 | -22.82984 | -43.23648 | 101° | 40km/h | 2721m | 8.8m/s | 11.8°C | 79.2% | 738.3hPa | 0V | 00:00:00 | 00:00:00 | 00:00:00 | |
| PU1XMG-16 | 2026-08-31 11:40:03 | -22.82981 | -43.23720 | 107° | 46km/h | 2680m | 6.9m/s | 12.1°C | 78.4% | 742.0hPa | 0V | 00:00:00 | 00:00:00 | 00:00:00 | |
| PU1XMG-16 | 2026-08-31 11:39:57 | -22.82951 | -43.23802 | 105° | 49km/h | 2642m | 7.6m/s | 12.3°C | 77.4% | 745.3hPa | 0V | 00:00:00 | 00:00:00 | 00:00:00 | |
| PU1XMG-16 | 2026-08-31 11:39:50 | -22.82948 | -43.23869 | 103° | 44km/h | 2600m | 5.5m/s | 12.6°C | 75.8% | 749.0hPa | 0V | 00:00:00 | 00:00:00 | 00:00:00 | |
| PU1XMG-16 | 2026-08-31 11:39:45 | -22.82932 | -43.23921 | 108° | 44km/h | 2566m | 7.4m/s | 12.7°C | 72.9% | 751.8hPa | 0V | 00:00:00 | 00:00:00 | 00:00:00 | |
| PU1XMG-16 | 2026-08-31 11:39:39 | -22.82927 | -43.23996 | 89° | 42km/h | 2530m | 6.8m/s | 13.0°C | 71.0% | 755.3hPa | 0V | 00:00:00 | 00:00:00 | 00:00:00 | |
| PU1XMG-16 | 2026-08-31 11:39:34 | -22.82917 | -43.24048 | 104° | 37km/h | 2497m | 10.9m/s | 13.2°C | 69.8% | 758.1hPa | 0V | 00:00:00 | 00:00:00 | 00:00:00 | |
| PU1XMG-16 | 2026-08-31 11:39:29 | -22.82910 | -43.24093 | 123° | 27km/h | 2452m | 7.7m/s | 13.6°C | 68.2% | 762.1hPa | 0V | 00:00:00 | 00:00:00 | 00:00:00 | |
| PU1XMG-16 | 2026-08-31 11:39:19 | -22.82888 | -43.24179 | 106° | 38km/h | 2392m | 4.8m/s | 13.4°C | 72.1% | 767.6hPa | 0V | 00:00:00 | 00:00:00 | 00:00:00 | |
| PU1XMG-16 | 2026-08-31 11:39:13 | -22.82873 | -43.24225 | 97° | 31km/h | 2360m | 6.6m/s | 13.7°C | 71.2% | 770.4hPa | 0V | 00:00:00 | 00:00:00 | 00:00:00 | |
| PU1XMG-16 | 2026-08-31 11:39:07 | -22.82850 | -43.24268 | 136° | 35km/h | 2321m | 5.4m/s | 14.0°C | 70.4% | 774.0hPa | 0V | 00:00:00 | 00:00:00 | 00:00:00 | |
| PU1XMG-16 | 2026-08-31 11:39:02 | -22.82816 | -43.24313 | 117° | 44km/h | 2288m | 5.4m/s | 14.3°C | 69.8% | 777.1hPa | 0V | 00:00:00 | 00:00:00 | 00:00:00 | |
| PU1XMG-16 | 2026-08-31 11:38:56 | -22.82793 | -43.24365 | 121° | 33km/h | 2249m | 5.5m/s | 14.6°C | 69.1% | 780.8hPa | 0V | 00:00:00 | 00:00:00 | 00:00:00 | |
| PU1XMG-16 | 2026-08-31 11:38:51 | -22.82773 | -43.24415 | 125° | 38km/h | 2216m | 7.1m/s | 14.9°C | 67.9% | 783.7hPa | 0V | 00:00:00 | 00:00:00 | 00:00:00 | |
| PU1XMG-16 | 2026-08-31 11:38:45 | -22.82758 | -43.24455 | 96° | 33km/h | 2185m | 4.9m/s | 15.2°C | 67.4% | 786.6hPa | 0V | 00:00:00 | 00:00:00 | 00:00:00 | |
| PU1XMG-16 | 2026-08-31 11:38:41 | -22.82749 | -43.24489 | 136° | 24km/h | 2154m | 6.4m/s | 15.3°C | 67.4% | 789.6hPa | 0V | 00:00:00 | 00:00:00 | 00:00:00 | |
| PU1XMG-16 | 2026-08-31 11:38:35 | -22.82720 | -43.24531 | 124° | 40km/h | 2117m | 4.7m/s | 15.6°C | 66.4% | 793.1hPa | 0V | 00:00:00 | 00:00:00 | 00:00:00 | |
| PU1XMG-16 | 2026-08-31 11:38:29 | -22.82690 | -43.24583 | 114° | 44km/h | 2079m | 5.0m/s | 16.0°C | 65.1% | 796.5hPa | 0V | 00:00:00 | 00:00:00 | 00:00:00 | |
| PU1XMG-16 | 2026-08-31 11:38:23 | -22.82664 | -43.24628 | 125° | 31km/h | 2049m | 5.5m/s | 16.3°C | 64.2% | 799.3hPa | 0V | 00:00:00 | 00:00:00 | 00:00:00 | |
| PU1XMG-16 | 2026-08-31 11:38:18 | -22.82642 | -43.24679 | 109° | 46km/h | 2014m | 8.5m/s | 16.6°C | 63.3% | 802.4hPa | 0V | 00:00:00 | 00:00:00 | 00:00:00 | |
| PU1XMG-16 | 2026-08-31 11:38:12 | -22.82619 | -43.24730 | 134° | 35km/h | 1977m | 6.1m/s | 16.8°C | 62.9% | 806.1hPa | 0V | 00:00:00 | 00:00:00 | 00:00:00 | |
| PU1XMG-16 | 2026-08-31 11:38:07 | -22.82592 | -43.24780 | 118° | 27km/h | 1942m | 5.5m/s | 17.1°C | 61.7% | 809.2hPa | 0V | 00:00:00 | 00:00:00 | 00:00:00 | |
| PU1XMG-16 | 2026-08-31 11:38:02 | -22.82564 | -43.24817 | 127° | 40km/h | 1909m | 7.8m/s | 17.5°C | 60.7% | 812.3hPa | 0V | 00:00:00 | 00:00:00 | 00:00:00 | |
| PU1XMG-16 | 2026-08-31 11:37:56 | -22.82526 | -43.24857 | 146° | 44km/h | 1869m | 5.9m/s | 17.8°C | 59.4% | 816.2hPa | 0V | 00:00:00 | 00:00:00 | 00:00:00 | |
| PU1XMG-16 | 2026-08-31 11:37:50 | -22.82492 | -43.24900 | 131° | 33km/h | 1839m | 6.0m/s | 18.1°C | 58.6% | 819.1hPa | 0V | 00:00:00 | 00:00:00 | 00:00:00 | |
| PU1XMG-16 | 2026-08-31 11:37:45 | -22.82457 | -43.24940 | 119° | 35km/h | 1805m | 5.2m/s | 18.3°C | 58.3% | 822.3hPa | 0V | 00:00:00 | 00:00:00 | 00:00:00 | |
| PU1XMG-16 | 2026-08-31 11:37:38 | -22.82423 | -43.24979 | 143° | 47km/h | 1770m | 4.8m/s | 18.5°C | 58.0% | 825.7hPa | 0V | 00:00:00 | 00:00:00 | 00:00:00 | |
| PU1XMG-16 | 2026-08-31 11:37:33 | -22.82374 | -43.25023 | 146° | 38km/h | 1733m | 8.8m/s | 18.7°C | 57.8% | 829.3hPa | 0V | 00:00:00 | 00:00:00 | 00:00:00 | |
| PU1XMG-16 | 2026-08-31 11:37:27 | -22.82337 | -43.25059 | 135° | 31km/h | 1697m | 5.0m/s | 18.8°C | 58.7% | 832.7hPa | 0V | 00:00:00 | 00:00:00 | 00:00:00 | |
| PU1XMG-16 | 2026-08-31 11:37:21 | -22.82294 | -43.25095 | 147° | 35km/h | 1655m | 6.7m/s | 19.0°C | 58.9% | 836.8hPa | 0V | 00:00:00 | 00:00:00 | 00:00:00 | |
| PU1XMG-16 | 2026-08-31 11:37:16 | -22.82245 | -43.25116 | 154° | 49km/h | 1624m | 6.4m/s | 18.9°C | 61.0% | 839.8hPa | 0V | 00:00:00 | 00:00:00 | 00:00:00 | |
| PU1XMG-16 | 2026-08-31 11:37:10 | -22.82193 | -43.25150 | 157° | 31km/h | 1591m | 5.6m/s | 18.7°C | 64.7% | 843.0hPa | 0V | 00:00:00 | 00:00:00 | 00:00:00 | |
| PU1XMG-16 | 2026-08-31 11:37:05 | -22.82155 | -43.25167 | 168° | 29km/h | 1559m | 6.7m/s | 18.8°C | 64.9% | 846.3hPa | 0V | 00:00:00 | 00:00:00 | 00:00:00 | |
| PU1XMG-16 | 2026-08-31 11:37:01 | -22.82113 | -43.25184 | 152° | 44km/h | 1536m | 4.2m/s | 19.0°C | 64.5% | 848.6hPa | 0V | 00:00:00 | 00:00:00 | 00:00:00 | |
| PU1XMG-16 | 2026-08-31 11:36:56 | -22.82067 | -43.25203 | 172° | 29km/h | 1508m | 6.1m/s | 19.0°C | 66.7% | 851.4hPa | 0V | 00:00:00 | 00:00:00 | 00:00:00 | |
| PU1XMG-16 | 2026-08-31 11:36:49 | -22.82025 | -43.25224 | 149° | 27km/h | 1471m | 6.8m/s | 19.0°C | 67.8% | 854.9hPa | 0V | 00:00:00 | 00:00:00 | 00:00:00 | |
| PU1XMG-16 | 2026-08-31 11:36:44 | -22.81990 | -43.25236 | 173° | 20km/h | 1438m | 7.3m/s | 19.2°C | 67.5% | 858.2hPa | 0V | 00:00:00 | 00:00:00 | 00:00:00 | |
| PU1XMG-16 | 2026-08-31 11:36:39 | -22.81962 | -43.25242 | 167° | 33km/h | 1409m | 5.9m/s | 19.4°C | 68.4% | 861.0hPa | 0V | 00:00:00 | 00:00:00 | 00:00:00 | |
| PU1XMG-16 | 2026-08-31 11:36:34 | -22.81921 | -43.25260 | 163° | 31km/h | 1384m | 5.5m/s | 19.5°C | 68.6% | 863.6hPa | 0V | 00:00:00 | 00:00:00 | 00:00:00 | |
| PU1XMG-16 | 2026-08-31 11:36:28 | -22.81892 | -43.25266 | 153° | 24km/h | 1351m | 5.0m/s | 19.6°C | 68.9% | 866.9hPa | 0V | 00:00:00 | 00:00:00 | 00:00:00 | |
| PU1XMG-16 | 2026-08-31 11:36:23 | -22.81860 | -43.25272 | 187° | 18km/h | 1327m | 5.4m/s | 19.9°C | 68.5% | 869.5hPa | 0V | 00:00:00 | 00:00:00 | 00:00:00 | |
| PU1XMG-16 | 2026-08-31 11:36:18 | -22.81840 | -43.25277 | 185° | 20km/h | 1299m | 6.3m/s | 20.1°C | 68.1% | 872.4hPa | 0V | 00:00:00 | 00:00:00 | 00:00:00 | |
| PU1XMG-16 | 2026-08-31 11:36:12 | -22.81809 | -43.25273 | 167° | 24km/h | 1265m | 5.0m/s | 20.3°C | 68.2% | 875.7hPa | 0V | 00:00:00 | 00:00:00 | 00:00:00 | |
| PU1XMG-16 | 2026-08-31 11:36:06 | -22.81772 | -43.25273 | 175° | 16km/h | 1233m | 2.8m/s | 20.4°C | 67.8% | 878.8hPa | 0V | 00:00:00 | 00:00:00 | 00:00:00 | |
| PU1XMG-16 | 2026-08-31 11:36:00 | -22.81742 | -43.25286 | 183° | 26km/h | 1203m | 4.2m/s | 20.6°C | 68.0% | 882.0hPa | 0V | 00:00:00 | 00:00:00 | 00:00:00 | |
| PU1XMG-16 | 2026-08-31 11:35:49 | -22.81652 | -43.25303 | 182° | 47km/h | 1148m | 3.4m/s | 21.0°C | 67.7% | 887.5hPa | 0V | 00:00:00 | 00:00:00 | 00:00:00 | |
| PU1XMG-16 | 2026-08-31 11:35:43 | -22.81593 | -43.25290 | 198° | 26km/h | 1116m | 6.7m/s | 21.1°C | 67.9% | 890.9hPa | 0V | 00:00:00 | 00:00:00 | 00:00:00 | |
| PU1XMG-16 | 2026-08-31 11:35:38 | -22.81547 | -43.25293 | 168° | 37km/h | 1088m | 6.8m/s | 21.3°C | 67.2% | 893.7hPa | 0V | 00:00:00 | 00:00:00 | 00:00:00 | |
| PU1XMG-16 | 2026-08-31 11:35:34 | -22.81503 | -43.25288 | 194° | 44km/h | 1063m | 4.5m/s | 21.4°C | 68.2% | 896.2hPa | 0V | 00:00:00 | 00:00:00 | 00:00:00 | |
| PU1XMG-16 | 2026-08-31 11:35:27 | -22.81448 | -43.25283 | 195° | 33km/h | 1033m | 5.5m/s | 21.7°C | 67.4% | 899.3hPa | 0V | 00:00:00 | 00:00:00 | 00:00:00 | |
| PU1XMG-16 | 2026-08-31 11:35:23 | -22.81398 | -43.25278 | 182° | 37km/h | 1009m | 4.1m/s | 21.8°C | 67.0% | 901.8hPa | 0V | 00:00:00 | 00:00:00 | 00:00:00 | |
| PU1XMG-16 | 2026-08-31 11:35:18 | -22.81355 | -43.25271 | 180° | 38km/h | 986m | 4.5m/s | 22.1°C | 66.3% | 904.1hPa | 0V | 00:00:00 | 00:00:00 | 00:00:00 | |
| PU1XMG-16 | 2026-08-31 11:35:12 | -22.81313 | -43.25266 | 197° | 42km/h | 960m | 4.7m/s | 22.1°C | 67.0% | 907.1hPa | 0V | 00:00:00 | 00:00:00 | 00:00:00 | |
| PU1XMG-16 | 2026-08-31 11:35:07 | -22.81248 | -43.25262 | 180° | 38km/h | 935m | 6.5m/s | 22.2°C | 67.6% | 909.5hPa | 0V | 00:00:00 | 00:00:00 | 00:00:00 | |
| PU1XMG-16 | 2026-08-31 11:35:02 | -22.81190 | -43.25262 | 183° | 42km/h | 910m | 3.8m/s | 21.7°C | 70.8% | 912.1hPa | 0V | 00:00:00 | 00:00:00 | 00:00:00 | |
| PU1XMG-16 | 2026-08-31 11:34:55 | -22.81127 | -43.25252 | 189° | 35km/h | 884m | 5.2m/s | 20.6°C | 77.9% | 914.7hPa | 0V | 00:00:00 | 00:00:00 | 00:00:00 | |
| PU1XMG-16 | 2026-08-31 11:34:51 | -22.81087 | -43.25247 | 178° | 37km/h | 859m | 5.8m/s | 21.4°C | 73.4% | 917.5hPa | 0V | 00:00:00 | 00:00:00 | 00:00:00 | |
| PU1XMG-16 | 2026-08-31 11:34:44 | -22.81021 | -43.25254 | 183° | 46km/h | 831m | 5.1m/s | 21.2°C | 75.0% | 920.4hPa | 0V | 00:00:00 | 00:00:00 | 00:00:00 | |
| PU1XMG-16 | 2026-08-31 11:34:39 | -22.80966 | -43.25242 | 195° | 42km/h | 810m | 4.0m/s | 21.7°C | 72.7% | 922.7hPa | 0V | 00:00:00 | 00:00:00 | 00:00:00 | |
| PU1XMG-16 | 2026-08-31 11:34:33 | -22.80926 | -43.25228 | 186° | 27km/h | 782m | 6.9m/s | 22.0°C | 71.8% | 925.8hPa | 0V | 00:00:00 | 00:00:00 | 00:00:00 | |
| PU1XMG-16 | 2026-08-31 11:34:29 | -22.80882 | -43.25218 | 192° | 33km/h | 752m | 6.6m/s | 22.1°C | 71.7% | 928.4hPa | 0V | 00:00:00 | 00:00:00 | 00:00:00 | |
| PU1XMG-16 | 2026-08-31 11:34:22 | -22.80844 | -43.25219 | 195° | 24km/h | 718m | 5.8m/s | 0°C | 0% | 932.2hPa | 0V | 00:00:00 | 00:00:00 | 00:00:00 | |
| PU1XMG-16 | 2026-08-31 11:34:16 | -22.80800 | -43.25219 | 188° | 20km/h | 690m | 5.3m/s | 0°C | 0% | 935.6hPa | 0V | 00:00:00 | 00:00:00 | 00:00:00 | |
| PU1XMG-16 | 2026-08-31 11:34:10 | -22.80764 | -43.25217 | 168° | 20km/h | 661m | 6.0m/s | 0°C | 0% | 938.5hPa | 0V | 00:00:00 | 00:00:00 | 00:00:00 | |
| PU1XMG-16 | 2026-08-31 11:34:04 | -22.80732 | -43.25212 | 159° | 22km/h | 625m | 4.8m/s | 0°C | 0% | 0hPa | 0V | 00:00:00 | 00:00:00 | 00:00:00 | |
| PU1XMG-16 | 2026-08-31 11:33:59 | -22.80717 | -43.25219 | 219° | 13km/h | 600m | 5.1m/s | 0°C | 0% | 0hPa | 0V | 00:00:00 | 00:00:00 | 00:00:00 | |
| PU1XMG-16 | 2026-08-31 11:33:53 | -22.80693 | -43.25212 | 159° | 16km/h | 573m | 7.1m/s | 0°C | 0% | 0hPa | 0V | 00:00:00 | 00:00:00 | 00:00:00 | |
| PU1XMG-16 | 2026-08-31 11:33:49 | -22.80680 | -43.25213 | 191° | 16km/h | 547m | 6.3m/s | 0°C | 0% | 0hPa | 0V | 00:00:00 | 00:00:00 | 00:00:00 | |
| PU1XMG-16 | 2026-08-31 11:33:42 | -22.80661 | -43.25207 | 238° | 13km/h | 511m | 7.5m/s | 0°C | 0% | 0hPa | 0V | 00:00:00 | 00:00:00 | 00:00:00 | |
| PU1XMG-16 | 2026-08-31 11:33:37 | -22.80644 | -43.25187 | 261° | 16km/h | 470m | 5.5m/s | 0°C | 0% | 0hPa | 0V | 00:00:00 | 00:00:00 | 00:00:00 | |
| PU1XMG-16 | 2026-08-31 11:33:14 | -22.80683 | -43.25105 | 298° | 33km/h | 327m | 4.6m/s | 0°C | 0% | 0hPa | 0V | 00:00:00 | 00:00:00 | 00:00:00 | |
| PU1XMG-16 | 2026-08-31 11:33:06 | -22.80703 | -43.25077 | 10° | 11km/h | 284m | 2.8m/s | 0°C | 0% | 0hPa | 0V | 00:00:00 | 00:00:00 | 00:00:00 |